<?xml version="1.0" encoding="UTF-8" standalone="no" ?>
<gpx xmlns="http://www.topografix.com/GPX/1/1" xmlns:xsi="http://www.w3.org/2001/XMLSchema-instance" xsi:schemaLocation="http://www.topografix.com/GPX/1/1 http://www.topografix.com/GPX/1/1/gpx.xsd" version="1.1" creator="VisuGPX - https://www.visugpx.com">
  <metadata>
    <name>TOUR QUEYRAS_JOUR 8 : LA CHALP-REFUGE DE FURFANDE par variante du pic Gazon, granges et chalets de Furfande</name>
    <desc><![CDATA[

]]></desc>
  </metadata>
  <trk>
    <name><![CDATA[TOUR QUEYRAS_JOUR 8 : LA CHALP-REFUGE DE FURFANDE par variante du pic Gazon, granges et chalets de Furfande]]></name>
    <extensions>
      <line xmlns="http://www.topografix.com/GPX/gpx_style/0/2">
        <color>008800</color>
        <width>4</width>
      </line>
    </extensions>
    <trkseg>
      <trkpt lat="44.77529" lon="6.7693">
        <ele>1801.17</ele>
        <time>2018-09-15T06:05:15Z</time>
      </trkpt>
      <trkpt lat="44.77528" lon="6.76943">
        <ele>1801.17</ele>
        <time>2018-09-15T06:05:34Z</time>
      </trkpt>
      <trkpt lat="44.77523" lon="6.76929">
        <ele>1801.65</ele>
        <time>2018-09-15T06:05:44Z</time>
      </trkpt>
      <trkpt lat="44.77528" lon="6.76914">
        <ele>1803.09</ele>
        <time>2018-09-15T06:05:58Z</time>
      </trkpt>
      <trkpt lat="44.7753" lon="6.76899">
        <ele>1803.09</ele>
        <time>2018-09-15T06:06:30Z</time>
      </trkpt>
      <trkpt lat="44.77523" lon="6.76888">
        <ele>1800.21</ele>
        <time>2018-09-15T06:06:44Z</time>
      </trkpt>
      <trkpt lat="44.77516" lon="6.76875">
        <ele>1796.84</ele>
        <time>2018-09-15T06:07:04Z</time>
      </trkpt>
      <trkpt lat="44.77515" lon="6.76861">
        <ele>1795.4</ele>
        <time>2018-09-15T06:07:25Z</time>
      </trkpt>
      <trkpt lat="44.77518" lon="6.76852">
        <ele>1794.44</ele>
        <time>2018-09-15T06:07:38Z</time>
      </trkpt>
      <trkpt lat="44.77528" lon="6.76844">
        <ele>1794.92</ele>
        <time>2018-09-15T06:07:52Z</time>
      </trkpt>
      <trkpt lat="44.77535" lon="6.76833">
        <ele>1796.36</ele>
        <time>2018-09-15T06:08:05Z</time>
      </trkpt>
      <trkpt lat="44.77545" lon="6.76826">
        <ele>1797.8</ele>
        <time>2018-09-15T06:08:18Z</time>
      </trkpt>
      <trkpt lat="44.77557" lon="6.76823">
        <ele>1798.76</ele>
        <time>2018-09-15T06:08:56Z</time>
      </trkpt>
      <trkpt lat="44.77565" lon="6.76819">
        <ele>1799.24</ele>
        <time>2018-09-15T06:09:07Z</time>
      </trkpt>
      <trkpt lat="44.77574" lon="6.76813">
        <ele>1798.76</ele>
        <time>2018-09-15T06:09:17Z</time>
      </trkpt>
      <trkpt lat="44.77582" lon="6.76803">
        <ele>1799.73</ele>
        <time>2018-09-15T06:09:27Z</time>
      </trkpt>
      <trkpt lat="44.77589" lon="6.76796">
        <ele>1799.73</ele>
        <time>2018-09-15T06:09:35Z</time>
      </trkpt>
      <trkpt lat="44.77598" lon="6.76787">
        <ele>1797.8</ele>
        <time>2018-09-15T06:09:44Z</time>
      </trkpt>
      <trkpt lat="44.77606" lon="6.76778">
        <ele>1798.28</ele>
        <time>2018-09-15T06:09:53Z</time>
      </trkpt>
      <trkpt lat="44.77615" lon="6.76771">
        <ele>1799.24</ele>
        <time>2018-09-15T06:10:02Z</time>
      </trkpt>
      <trkpt lat="44.77622" lon="6.76761">
        <ele>1801.17</ele>
        <time>2018-09-15T06:10:12Z</time>
      </trkpt>
      <trkpt lat="44.77631" lon="6.76751">
        <ele>1801.65</ele>
        <time>2018-09-15T06:10:22Z</time>
      </trkpt>
      <trkpt lat="44.77638" lon="6.76743">
        <ele>1802.61</ele>
        <time>2018-09-15T06:10:32Z</time>
      </trkpt>
      <trkpt lat="44.77646" lon="6.76736">
        <ele>1803.57</ele>
        <time>2018-09-15T06:10:42Z</time>
      </trkpt>
      <trkpt lat="44.77653" lon="6.76728">
        <ele>1804.53</ele>
        <time>2018-09-15T06:10:51Z</time>
      </trkpt>
      <trkpt lat="44.77662" lon="6.76721">
        <ele>1805.01</ele>
        <time>2018-09-15T06:11:00Z</time>
      </trkpt>
      <trkpt lat="44.77668" lon="6.76715">
        <ele>1805.49</ele>
        <time>2018-09-15T06:11:17Z</time>
      </trkpt>
      <trkpt lat="44.77678" lon="6.76711">
        <ele>1805.49</ele>
        <time>2018-09-15T06:11:27Z</time>
      </trkpt>
      <trkpt lat="44.77688" lon="6.76709">
        <ele>1806.45</ele>
        <time>2018-09-15T06:11:36Z</time>
      </trkpt>
      <trkpt lat="44.77698" lon="6.76709">
        <ele>1805.97</ele>
        <time>2018-09-15T06:11:45Z</time>
      </trkpt>
      <trkpt lat="44.77709" lon="6.76708">
        <ele>1806.45</ele>
        <time>2018-09-15T06:11:54Z</time>
      </trkpt>
      <trkpt lat="44.77719" lon="6.76705">
        <ele>1806.94</ele>
        <time>2018-09-15T06:12:03Z</time>
      </trkpt>
      <trkpt lat="44.77728" lon="6.76697">
        <ele>1807.9</ele>
        <time>2018-09-15T06:12:13Z</time>
      </trkpt>
      <trkpt lat="44.77737" lon="6.76689">
        <ele>1807.9</ele>
        <time>2018-09-15T06:12:21Z</time>
      </trkpt>
      <trkpt lat="44.77746" lon="6.76684">
        <ele>1807.9</ele>
        <time>2018-09-15T06:12:29Z</time>
      </trkpt>
      <trkpt lat="44.77755" lon="6.7668">
        <ele>1808.38</ele>
        <time>2018-09-15T06:12:37Z</time>
      </trkpt>
      <trkpt lat="44.77764" lon="6.76676">
        <ele>1808.86</ele>
        <time>2018-09-15T06:12:45Z</time>
      </trkpt>
      <trkpt lat="44.77774" lon="6.76672">
        <ele>1809.82</ele>
        <time>2018-09-15T06:12:54Z</time>
      </trkpt>
      <trkpt lat="44.77784" lon="6.7667">
        <ele>1809.82</ele>
        <time>2018-09-15T06:13:03Z</time>
      </trkpt>
      <trkpt lat="44.77794" lon="6.76667">
        <ele>1810.78</ele>
        <time>2018-09-15T06:13:12Z</time>
      </trkpt>
      <trkpt lat="44.77802" lon="6.76661">
        <ele>1811.74</ele>
        <time>2018-09-15T06:13:21Z</time>
      </trkpt>
      <trkpt lat="44.7781" lon="6.76653">
        <ele>1812.7</ele>
        <time>2018-09-15T06:13:30Z</time>
      </trkpt>
      <trkpt lat="44.77818" lon="6.76647">
        <ele>1813.18</ele>
        <time>2018-09-15T06:13:38Z</time>
      </trkpt>
      <trkpt lat="44.77826" lon="6.76641">
        <ele>1812.7</ele>
        <time>2018-09-15T06:13:47Z</time>
      </trkpt>
      <trkpt lat="44.77838" lon="6.7664">
        <ele>1813.18</ele>
        <time>2018-09-15T06:13:56Z</time>
      </trkpt>
      <trkpt lat="44.77848" lon="6.76639">
        <ele>1814.15</ele>
        <time>2018-09-15T06:14:05Z</time>
      </trkpt>
      <trkpt lat="44.77859" lon="6.76639">
        <ele>1814.15</ele>
        <time>2018-09-15T06:14:13Z</time>
      </trkpt>
      <trkpt lat="44.77868" lon="6.76638">
        <ele>1814.63</ele>
        <time>2018-09-15T06:14:22Z</time>
      </trkpt>
      <trkpt lat="44.77877" lon="6.76636">
        <ele>1814.63</ele>
        <time>2018-09-15T06:14:30Z</time>
      </trkpt>
      <trkpt lat="44.77886" lon="6.76633">
        <ele>1815.11</ele>
        <time>2018-09-15T06:14:38Z</time>
      </trkpt>
      <trkpt lat="44.77897" lon="6.76631">
        <ele>1815.11</ele>
        <time>2018-09-15T06:14:47Z</time>
      </trkpt>
      <trkpt lat="44.77906" lon="6.76629">
        <ele>1815.59</ele>
        <time>2018-09-15T06:14:56Z</time>
      </trkpt>
      <trkpt lat="44.77916" lon="6.76627">
        <ele>1817.03</ele>
        <time>2018-09-15T06:15:06Z</time>
      </trkpt>
      <trkpt lat="44.77927" lon="6.76626">
        <ele>1818.47</ele>
        <time>2018-09-15T06:15:17Z</time>
      </trkpt>
      <trkpt lat="44.77936" lon="6.76622">
        <ele>1819.91</ele>
        <time>2018-09-15T06:15:29Z</time>
      </trkpt>
      <trkpt lat="44.77947" lon="6.76622">
        <ele>1821.35</ele>
        <time>2018-09-15T06:15:41Z</time>
      </trkpt>
      <trkpt lat="44.77958" lon="6.76624">
        <ele>1822.8</ele>
        <time>2018-09-15T06:15:55Z</time>
      </trkpt>
      <trkpt lat="44.77969" lon="6.76624">
        <ele>1825.2</ele>
        <time>2018-09-15T06:16:08Z</time>
      </trkpt>
      <trkpt lat="44.77977" lon="6.7662">
        <ele>1826.64</ele>
        <time>2018-09-15T06:16:22Z</time>
      </trkpt>
      <trkpt lat="44.77986" lon="6.76617">
        <ele>1828.08</ele>
        <time>2018-09-15T06:16:35Z</time>
      </trkpt>
      <trkpt lat="44.77995" lon="6.7661">
        <ele>1829.53</ele>
        <time>2018-09-15T06:16:47Z</time>
      </trkpt>
      <trkpt lat="44.78003" lon="6.76604">
        <ele>1830.97</ele>
        <time>2018-09-15T06:16:59Z</time>
      </trkpt>
      <trkpt lat="44.7801" lon="6.76597">
        <ele>1832.41</ele>
        <time>2018-09-15T06:17:12Z</time>
      </trkpt>
      <trkpt lat="44.78019" lon="6.7659">
        <ele>1834.33</ele>
        <time>2018-09-15T06:17:24Z</time>
      </trkpt>
      <trkpt lat="44.78027" lon="6.7658">
        <ele>1835.77</ele>
        <time>2018-09-15T06:17:35Z</time>
      </trkpt>
      <trkpt lat="44.78035" lon="6.76571">
        <ele>1835.77</ele>
        <time>2018-09-15T06:17:45Z</time>
      </trkpt>
      <trkpt lat="44.78044" lon="6.76568">
        <ele>1836.74</ele>
        <time>2018-09-15T06:17:55Z</time>
      </trkpt>
      <trkpt lat="44.78054" lon="6.76565">
        <ele>1837.22</ele>
        <time>2018-09-15T06:18:06Z</time>
      </trkpt>
      <trkpt lat="44.78064" lon="6.76562">
        <ele>1839.14</ele>
        <time>2018-09-15T06:18:17Z</time>
      </trkpt>
      <trkpt lat="44.78073" lon="6.7656">
        <ele>1839.62</ele>
        <time>2018-09-15T06:18:28Z</time>
      </trkpt>
      <trkpt lat="44.78082" lon="6.76558">
        <ele>1841.54</ele>
        <time>2018-09-15T06:18:39Z</time>
      </trkpt>
      <trkpt lat="44.78089" lon="6.76551">
        <ele>1842.5</ele>
        <time>2018-09-15T06:18:49Z</time>
      </trkpt>
      <trkpt lat="44.78099" lon="6.76547">
        <ele>1844.43</ele>
        <time>2018-09-15T06:19:00Z</time>
      </trkpt>
      <trkpt lat="44.78109" lon="6.76543">
        <ele>1844.43</ele>
        <time>2018-09-15T06:19:10Z</time>
      </trkpt>
      <trkpt lat="44.78118" lon="6.76538">
        <ele>1845.39</ele>
        <time>2018-09-15T06:19:20Z</time>
      </trkpt>
      <trkpt lat="44.78127" lon="6.76532">
        <ele>1846.35</ele>
        <time>2018-09-15T06:19:30Z</time>
      </trkpt>
      <trkpt lat="44.78137" lon="6.76525">
        <ele>1846.35</ele>
        <time>2018-09-15T06:19:39Z</time>
      </trkpt>
      <trkpt lat="44.78145" lon="6.76517">
        <ele>1846.83</ele>
        <time>2018-09-15T06:19:49Z</time>
      </trkpt>
      <trkpt lat="44.78154" lon="6.76509">
        <ele>1848.27</ele>
        <time>2018-09-15T06:19:59Z</time>
      </trkpt>
      <trkpt lat="44.78161" lon="6.765">
        <ele>1848.27</ele>
        <time>2018-09-15T06:20:09Z</time>
      </trkpt>
      <trkpt lat="44.78169" lon="6.76493">
        <ele>1849.23</ele>
        <time>2018-09-15T06:20:19Z</time>
      </trkpt>
      <trkpt lat="44.78178" lon="6.76485">
        <ele>1849.23</ele>
        <time>2018-09-15T06:20:29Z</time>
      </trkpt>
      <trkpt lat="44.78188" lon="6.7648">
        <ele>1850.19</ele>
        <time>2018-09-15T06:20:39Z</time>
      </trkpt>
      <trkpt lat="44.78198" lon="6.76477">
        <ele>1851.64</ele>
        <time>2018-09-15T06:20:49Z</time>
      </trkpt>
      <trkpt lat="44.78208" lon="6.76477">
        <ele>1853.08</ele>
        <time>2018-09-15T06:20:59Z</time>
      </trkpt>
      <trkpt lat="44.78218" lon="6.76477">
        <ele>1854.04</ele>
        <time>2018-09-15T06:21:10Z</time>
      </trkpt>
      <trkpt lat="44.78231" lon="6.76477">
        <ele>1855.48</ele>
        <time>2018-09-15T06:21:23Z</time>
      </trkpt>
      <trkpt lat="44.7824" lon="6.76476">
        <ele>1856.44</ele>
        <time>2018-09-15T06:21:36Z</time>
      </trkpt>
      <trkpt lat="44.78255" lon="6.76476">
        <ele>1858.37</ele>
        <time>2018-09-15T06:21:51Z</time>
      </trkpt>
      <trkpt lat="44.78264" lon="6.76478">
        <ele>1859.81</ele>
        <time>2018-09-15T06:22:03Z</time>
      </trkpt>
      <trkpt lat="44.78274" lon="6.76479">
        <ele>1861.73</ele>
        <time>2018-09-15T06:22:15Z</time>
      </trkpt>
      <trkpt lat="44.78285" lon="6.76479">
        <ele>1863.17</ele>
        <time>2018-09-15T06:22:28Z</time>
      </trkpt>
      <trkpt lat="44.78295" lon="6.76479">
        <ele>1865.09</ele>
        <time>2018-09-15T06:22:39Z</time>
      </trkpt>
      <trkpt lat="44.78305" lon="6.76484">
        <ele>1866.06</ele>
        <time>2018-09-15T06:22:52Z</time>
      </trkpt>
      <trkpt lat="44.78313" lon="6.76494">
        <ele>1867.98</ele>
        <time>2018-09-15T06:23:05Z</time>
      </trkpt>
      <trkpt lat="44.78319" lon="6.76504">
        <ele>1869.42</ele>
        <time>2018-09-15T06:23:17Z</time>
      </trkpt>
      <trkpt lat="44.78319" lon="6.76506">
        <ele>1871.34</ele>
        <time>2018-09-15T06:24:48Z</time>
      </trkpt>
      <trkpt lat="44.78329" lon="6.76512">
        <ele>1872.3</ele>
        <time>2018-09-15T06:25:00Z</time>
      </trkpt>
      <trkpt lat="44.78338" lon="6.76521">
        <ele>1873.75</ele>
        <time>2018-09-15T06:25:13Z</time>
      </trkpt>
      <trkpt lat="44.78349" lon="6.76522">
        <ele>1874.23</ele>
        <time>2018-09-15T06:25:24Z</time>
      </trkpt>
      <trkpt lat="44.7836" lon="6.76522">
        <ele>1875.19</ele>
        <time>2018-09-15T06:25:36Z</time>
      </trkpt>
      <trkpt lat="44.78375" lon="6.76522">
        <ele>1877.59</ele>
        <time>2018-09-15T06:25:51Z</time>
      </trkpt>
      <trkpt lat="44.78389" lon="6.76523">
        <ele>1879.51</ele>
        <time>2018-09-15T06:26:08Z</time>
      </trkpt>
      <trkpt lat="44.78401" lon="6.76523">
        <ele>1880.96</ele>
        <time>2018-09-15T06:26:23Z</time>
      </trkpt>
      <trkpt lat="44.78414" lon="6.76529">
        <ele>1882.88</ele>
        <time>2018-09-15T06:26:40Z</time>
      </trkpt>
      <trkpt lat="44.78428" lon="6.76528">
        <ele>1884.8</ele>
        <time>2018-09-15T06:26:55Z</time>
      </trkpt>
      <trkpt lat="44.78439" lon="6.76525">
        <ele>1886.72</ele>
        <time>2018-09-15T06:27:09Z</time>
      </trkpt>
      <trkpt lat="44.78455" lon="6.76523">
        <ele>1887.69</ele>
        <time>2018-09-15T06:27:25Z</time>
      </trkpt>
      <trkpt lat="44.78468" lon="6.76518">
        <ele>1889.13</ele>
        <time>2018-09-15T06:27:37Z</time>
      </trkpt>
      <trkpt lat="44.78475" lon="6.76507">
        <ele>1890.09</ele>
        <time>2018-09-15T06:27:48Z</time>
      </trkpt>
      <trkpt lat="44.78484" lon="6.765">
        <ele>1891.53</ele>
        <time>2018-09-15T06:27:59Z</time>
      </trkpt>
      <trkpt lat="44.78493" lon="6.76498">
        <ele>1893.45</ele>
        <time>2018-09-15T06:28:11Z</time>
      </trkpt>
      <trkpt lat="44.78505" lon="6.76498">
        <ele>1895.38</ele>
        <time>2018-09-15T06:28:26Z</time>
      </trkpt>
      <trkpt lat="44.7852" lon="6.76503">
        <ele>1897.3</ele>
        <time>2018-09-15T06:28:43Z</time>
      </trkpt>
      <trkpt lat="44.78533" lon="6.76511">
        <ele>1899.22</ele>
        <time>2018-09-15T06:28:58Z</time>
      </trkpt>
      <trkpt lat="44.78543" lon="6.76521">
        <ele>1900.66</ele>
        <time>2018-09-15T06:29:13Z</time>
      </trkpt>
      <trkpt lat="44.78554" lon="6.7653">
        <ele>1902.59</ele>
        <time>2018-09-15T06:29:28Z</time>
      </trkpt>
      <trkpt lat="44.78563" lon="6.76541">
        <ele>1904.03</ele>
        <time>2018-09-15T06:29:42Z</time>
      </trkpt>
      <trkpt lat="44.78576" lon="6.76552">
        <ele>1905.47</ele>
        <time>2018-09-15T06:29:58Z</time>
      </trkpt>
      <trkpt lat="44.7859" lon="6.76553">
        <ele>1906.91</ele>
        <time>2018-09-15T06:30:11Z</time>
      </trkpt>
      <trkpt lat="44.78606" lon="6.76558">
        <ele>1910.28</ele>
        <time>2018-09-15T06:30:34Z</time>
      </trkpt>
      <trkpt lat="44.78628" lon="6.76562">
        <ele>1914.6</ele>
        <time>2018-09-15T06:31:00Z</time>
      </trkpt>
      <trkpt lat="44.78641" lon="6.76565">
        <ele>1915.08</ele>
        <time>2018-09-15T06:31:14Z</time>
      </trkpt>
      <trkpt lat="44.78652" lon="6.76568">
        <ele>1916.53</ele>
        <time>2018-09-15T06:31:27Z</time>
      </trkpt>
      <trkpt lat="44.78663" lon="6.7657">
        <ele>1918.45</ele>
        <time>2018-09-15T06:31:41Z</time>
      </trkpt>
      <trkpt lat="44.78676" lon="6.76572">
        <ele>1920.37</ele>
        <time>2018-09-15T06:31:56Z</time>
      </trkpt>
      <trkpt lat="44.78686" lon="6.76564">
        <ele>1920.85</ele>
        <time>2018-09-15T06:32:07Z</time>
      </trkpt>
      <trkpt lat="44.78695" lon="6.76559">
        <ele>1921.81</ele>
        <time>2018-09-15T06:32:17Z</time>
      </trkpt>
      <trkpt lat="44.78705" lon="6.76555">
        <ele>1922.29</ele>
        <time>2018-09-15T06:32:28Z</time>
      </trkpt>
      <trkpt lat="44.78716" lon="6.7655">
        <ele>1923.25</ele>
        <time>2018-09-15T06:32:38Z</time>
      </trkpt>
      <trkpt lat="44.78727" lon="6.76544">
        <ele>1924.7</ele>
        <time>2018-09-15T06:32:50Z</time>
      </trkpt>
      <trkpt lat="44.78738" lon="6.76539">
        <ele>1926.62</ele>
        <time>2018-09-15T06:33:05Z</time>
      </trkpt>
      <trkpt lat="44.78747" lon="6.76531">
        <ele>1927.58</ele>
        <time>2018-09-15T06:33:17Z</time>
      </trkpt>
      <trkpt lat="44.78755" lon="6.7652">
        <ele>1929.5</ele>
        <time>2018-09-15T06:33:28Z</time>
      </trkpt>
      <trkpt lat="44.78761" lon="6.76503">
        <ele>1931.43</ele>
        <time>2018-09-15T06:33:45Z</time>
      </trkpt>
      <trkpt lat="44.78771" lon="6.76493">
        <ele>1933.35</ele>
        <time>2018-09-15T06:34:00Z</time>
      </trkpt>
      <trkpt lat="44.78785" lon="6.76486">
        <ele>1936.71</ele>
        <time>2018-09-15T06:34:23Z</time>
      </trkpt>
      <trkpt lat="44.78801" lon="6.76486">
        <ele>1939.6</ele>
        <time>2018-09-15T06:34:47Z</time>
      </trkpt>
      <trkpt lat="44.78814" lon="6.76478">
        <ele>1942.96</ele>
        <time>2018-09-15T06:35:08Z</time>
      </trkpt>
      <trkpt lat="44.78823" lon="6.7647">
        <ele>1946.81</ele>
        <time>2018-09-15T06:35:32Z</time>
      </trkpt>
      <trkpt lat="44.7884" lon="6.76468">
        <ele>1950.65</ele>
        <time>2018-09-15T06:35:56Z</time>
      </trkpt>
      <trkpt lat="44.78857" lon="6.76473">
        <ele>1954.02</ele>
        <time>2018-09-15T06:36:18Z</time>
      </trkpt>
      <trkpt lat="44.78865" lon="6.76478">
        <ele>1956.9</ele>
        <time>2018-09-15T06:36:36Z</time>
      </trkpt>
      <trkpt lat="44.78872" lon="6.76489">
        <ele>1959.78</ele>
        <time>2018-09-15T06:36:53Z</time>
      </trkpt>
      <trkpt lat="44.7888" lon="6.76499">
        <ele>1962.19</ele>
        <time>2018-09-15T06:37:12Z</time>
      </trkpt>
      <trkpt lat="44.78888" lon="6.7651">
        <ele>1965.55</ele>
        <time>2018-09-15T06:37:32Z</time>
      </trkpt>
      <trkpt lat="44.78897" lon="6.76513">
        <ele>1968.92</ele>
        <time>2018-09-15T06:37:52Z</time>
      </trkpt>
      <trkpt lat="44.78906" lon="6.76512">
        <ele>1972.28</ele>
        <time>2018-09-15T06:38:17Z</time>
      </trkpt>
      <trkpt lat="44.78914" lon="6.76512">
        <ele>1974.69</ele>
        <time>2018-09-15T06:38:35Z</time>
      </trkpt>
      <trkpt lat="44.78926" lon="6.76516">
        <ele>1979.01</ele>
        <time>2018-09-15T06:38:57Z</time>
      </trkpt>
      <trkpt lat="44.78936" lon="6.76517">
        <ele>1980.93</ele>
        <time>2018-09-15T06:39:17Z</time>
      </trkpt>
      <trkpt lat="44.78945" lon="6.76511">
        <ele>1982.86</ele>
        <time>2018-09-15T06:39:32Z</time>
      </trkpt>
      <trkpt lat="44.78954" lon="6.76509">
        <ele>1984.3</ele>
        <time>2018-09-15T06:39:45Z</time>
      </trkpt>
      <trkpt lat="44.78964" lon="6.76508">
        <ele>1987.18</ele>
        <time>2018-09-15T06:40:01Z</time>
      </trkpt>
      <trkpt lat="44.78978" lon="6.76518">
        <ele>1989.59</ele>
        <time>2018-09-15T06:40:23Z</time>
      </trkpt>
      <trkpt lat="44.78992" lon="6.76523">
        <ele>1993.43</ele>
        <time>2018-09-15T06:40:49Z</time>
      </trkpt>
      <trkpt lat="44.79006" lon="6.76531">
        <ele>1997.76</ele>
        <time>2018-09-15T06:41:17Z</time>
      </trkpt>
      <trkpt lat="44.79021" lon="6.76538">
        <ele>2002.08</ele>
        <time>2018-09-15T06:41:44Z</time>
      </trkpt>
      <trkpt lat="44.79041" lon="6.76536">
        <ele>2005.93</ele>
        <time>2018-09-15T06:42:12Z</time>
      </trkpt>
      <trkpt lat="44.79051" lon="6.76534">
        <ele>2007.37</ele>
        <time>2018-09-15T06:42:27Z</time>
      </trkpt>
      <trkpt lat="44.79063" lon="6.76532">
        <ele>2008.81</ele>
        <time>2018-09-15T06:42:43Z</time>
      </trkpt>
      <trkpt lat="44.79077" lon="6.76539">
        <ele>2011.22</ele>
        <time>2018-09-15T06:43:01Z</time>
      </trkpt>
      <trkpt lat="44.79097" lon="6.7655">
        <ele>2016.98</ele>
        <time>2018-09-15T06:43:34Z</time>
      </trkpt>
      <trkpt lat="44.79113" lon="6.76551">
        <ele>2020.35</ele>
        <time>2018-09-15T06:44:02Z</time>
      </trkpt>
      <trkpt lat="44.79132" lon="6.76556">
        <ele>2023.71</ele>
        <time>2018-09-15T06:44:27Z</time>
      </trkpt>
      <trkpt lat="44.79138" lon="6.76545">
        <ele>2025.64</ele>
        <time>2018-09-15T06:44:44Z</time>
      </trkpt>
      <trkpt lat="44.79144" lon="6.76529">
        <ele>2026.6</ele>
        <time>2018-09-15T06:45:05Z</time>
      </trkpt>
      <trkpt lat="44.79154" lon="6.76517">
        <ele>2030.92</ele>
        <time>2018-09-15T06:45:26Z</time>
      </trkpt>
      <trkpt lat="44.79165" lon="6.76511">
        <ele>2031.88</ele>
        <time>2018-09-15T06:45:41Z</time>
      </trkpt>
      <trkpt lat="44.79176" lon="6.7651">
        <ele>2033.33</ele>
        <time>2018-09-15T06:45:53Z</time>
      </trkpt>
      <trkpt lat="44.79189" lon="6.76521">
        <ele>2034.77</ele>
        <time>2018-09-15T06:46:07Z</time>
      </trkpt>
      <trkpt lat="44.79202" lon="6.76527">
        <ele>2035.25</ele>
        <time>2018-09-15T06:46:19Z</time>
      </trkpt>
      <trkpt lat="44.79213" lon="6.7653">
        <ele>2034.29</ele>
        <time>2018-09-15T06:46:30Z</time>
      </trkpt>
      <trkpt lat="44.79223" lon="6.76536">
        <ele>2036.21</ele>
        <time>2018-09-15T06:46:45Z</time>
      </trkpt>
      <trkpt lat="44.79235" lon="6.76536">
        <ele>2037.17</ele>
        <time>2018-09-15T06:46:59Z</time>
      </trkpt>
      <trkpt lat="44.79251" lon="6.76531">
        <ele>2037.17</ele>
        <time>2018-09-15T06:47:13Z</time>
      </trkpt>
      <trkpt lat="44.79273" lon="6.76525">
        <ele>2040.05</ele>
        <time>2018-09-15T06:47:38Z</time>
      </trkpt>
      <trkpt lat="44.79285" lon="6.76514">
        <ele>2043.9</ele>
        <time>2018-09-15T06:47:59Z</time>
      </trkpt>
      <trkpt lat="44.79302" lon="6.76512">
        <ele>2047.75</ele>
        <time>2018-09-15T06:48:24Z</time>
      </trkpt>
      <trkpt lat="44.79314" lon="6.76526">
        <ele>2049.19</ele>
        <time>2018-09-15T06:48:39Z</time>
      </trkpt>
      <trkpt lat="44.79322" lon="6.76536">
        <ele>2052.07</ele>
        <time>2018-09-15T06:48:56Z</time>
      </trkpt>
      <trkpt lat="44.79331" lon="6.76543">
        <ele>2055.44</ele>
        <time>2018-09-15T06:49:17Z</time>
      </trkpt>
      <trkpt lat="44.79339" lon="6.7654">
        <ele>2059.28</ele>
        <time>2018-09-15T06:49:37Z</time>
      </trkpt>
      <trkpt lat="44.79348" lon="6.76541">
        <ele>2061.68</ele>
        <time>2018-09-15T06:49:54Z</time>
      </trkpt>
      <trkpt lat="44.79358" lon="6.76543">
        <ele>2063.61</ele>
        <time>2018-09-15T06:50:22Z</time>
      </trkpt>
      <trkpt lat="44.79365" lon="6.76545">
        <ele>2065.53</ele>
        <time>2018-09-15T06:50:53Z</time>
      </trkpt>
      <trkpt lat="44.79374" lon="6.76542">
        <ele>2067.45</ele>
        <time>2018-09-15T06:51:11Z</time>
      </trkpt>
      <trkpt lat="44.79384" lon="6.76536">
        <ele>2070.34</ele>
        <time>2018-09-15T06:51:27Z</time>
      </trkpt>
      <trkpt lat="44.79393" lon="6.76535">
        <ele>2072.26</ele>
        <time>2018-09-15T06:51:44Z</time>
      </trkpt>
      <trkpt lat="44.79403" lon="6.76539">
        <ele>2075.14</ele>
        <time>2018-09-15T06:52:01Z</time>
      </trkpt>
      <trkpt lat="44.79413" lon="6.76537">
        <ele>2078.51</ele>
        <time>2018-09-15T06:52:20Z</time>
      </trkpt>
      <trkpt lat="44.79422" lon="6.76531">
        <ele>2079.95</ele>
        <time>2018-09-15T06:52:34Z</time>
      </trkpt>
      <trkpt lat="44.7943" lon="6.76526">
        <ele>2080.43</ele>
        <time>2018-09-15T06:52:47Z</time>
      </trkpt>
      <trkpt lat="44.79441" lon="6.76528">
        <ele>2082.83</ele>
        <time>2018-09-15T06:53:01Z</time>
      </trkpt>
      <trkpt lat="44.7945" lon="6.76528">
        <ele>2083.79</ele>
        <time>2018-09-15T06:53:14Z</time>
      </trkpt>
      <trkpt lat="44.79461" lon="6.76529">
        <ele>2085.72</ele>
        <time>2018-09-15T06:53:28Z</time>
      </trkpt>
      <trkpt lat="44.79472" lon="6.76536">
        <ele>2086.68</ele>
        <time>2018-09-15T06:53:54Z</time>
      </trkpt>
      <trkpt lat="44.79482" lon="6.76536">
        <ele>2086.68</ele>
        <time>2018-09-15T06:54:06Z</time>
      </trkpt>
      <trkpt lat="44.79491" lon="6.76535">
        <ele>2086.68</ele>
        <time>2018-09-15T06:54:17Z</time>
      </trkpt>
      <trkpt lat="44.795" lon="6.76527">
        <ele>2086.68</ele>
        <time>2018-09-15T06:54:29Z</time>
      </trkpt>
      <trkpt lat="44.79511" lon="6.76517">
        <ele>2086.2</ele>
        <time>2018-09-15T06:54:40Z</time>
      </trkpt>
      <trkpt lat="44.7952" lon="6.7651">
        <ele>2085.72</ele>
        <time>2018-09-15T06:54:50Z</time>
      </trkpt>
      <trkpt lat="44.79533" lon="6.76516">
        <ele>2086.68</ele>
        <time>2018-09-15T06:55:01Z</time>
      </trkpt>
      <trkpt lat="44.79543" lon="6.76522">
        <ele>2087.16</ele>
        <time>2018-09-15T06:55:11Z</time>
      </trkpt>
      <trkpt lat="44.79555" lon="6.76523">
        <ele>2088.6</ele>
        <time>2018-09-15T06:55:23Z</time>
      </trkpt>
      <trkpt lat="44.79565" lon="6.76527">
        <ele>2088.6</ele>
        <time>2018-09-15T06:55:34Z</time>
      </trkpt>
      <trkpt lat="44.79575" lon="6.76526">
        <ele>2089.08</ele>
        <time>2018-09-15T06:55:44Z</time>
      </trkpt>
      <trkpt lat="44.79585" lon="6.76527">
        <ele>2089.56</ele>
        <time>2018-09-15T06:55:54Z</time>
      </trkpt>
      <trkpt lat="44.79595" lon="6.76529">
        <ele>2090.52</ele>
        <time>2018-09-15T06:56:05Z</time>
      </trkpt>
      <trkpt lat="44.79606" lon="6.76532">
        <ele>2092.45</ele>
        <time>2018-09-15T06:56:17Z</time>
      </trkpt>
      <trkpt lat="44.79616" lon="6.76531">
        <ele>2093.89</ele>
        <time>2018-09-15T06:56:43Z</time>
      </trkpt>
      <trkpt lat="44.79626" lon="6.76534">
        <ele>2094.37</ele>
        <time>2018-09-15T06:56:53Z</time>
      </trkpt>
      <trkpt lat="44.79637" lon="6.76536">
        <ele>2095.33</ele>
        <time>2018-09-15T06:57:04Z</time>
      </trkpt>
      <trkpt lat="44.79649" lon="6.76538">
        <ele>2096.29</ele>
        <time>2018-09-15T06:57:15Z</time>
      </trkpt>
      <trkpt lat="44.7966" lon="6.76536">
        <ele>2097.73</ele>
        <time>2018-09-15T06:57:30Z</time>
      </trkpt>
      <trkpt lat="44.7967" lon="6.7653">
        <ele>2100.62</ele>
        <time>2018-09-15T06:57:46Z</time>
      </trkpt>
      <trkpt lat="44.79685" lon="6.76543">
        <ele>2101.58</ele>
        <time>2018-09-15T06:58:06Z</time>
      </trkpt>
      <trkpt lat="44.79708" lon="6.76551">
        <ele>2105.42</ele>
        <time>2018-09-15T06:58:33Z</time>
      </trkpt>
      <trkpt lat="44.79717" lon="6.76534">
        <ele>2108.31</ele>
        <time>2018-09-15T06:58:53Z</time>
      </trkpt>
      <trkpt lat="44.79725" lon="6.76522">
        <ele>2111.19</ele>
        <time>2018-09-15T06:59:14Z</time>
      </trkpt>
      <trkpt lat="44.7974" lon="6.76518">
        <ele>2114.56</ele>
        <time>2018-09-15T06:59:38Z</time>
      </trkpt>
      <trkpt lat="44.79758" lon="6.76512">
        <ele>2117.44</ele>
        <time>2018-09-15T07:00:02Z</time>
      </trkpt>
      <trkpt lat="44.79768" lon="6.76505">
        <ele>2120.81</ele>
        <time>2018-09-15T07:00:23Z</time>
      </trkpt>
      <trkpt lat="44.79783" lon="6.76506">
        <ele>2123.69</ele>
        <time>2018-09-15T07:00:44Z</time>
      </trkpt>
      <trkpt lat="44.79792" lon="6.76506">
        <ele>2125.61</ele>
        <time>2018-09-15T07:00:59Z</time>
      </trkpt>
      <trkpt lat="44.79807" lon="6.76507">
        <ele>2128.5</ele>
        <time>2018-09-15T07:01:21Z</time>
      </trkpt>
      <trkpt lat="44.79821" lon="6.76499">
        <ele>2131.38</ele>
        <time>2018-09-15T07:01:43Z</time>
      </trkpt>
      <trkpt lat="44.79836" lon="6.76498">
        <ele>2133.3</ele>
        <time>2018-09-15T07:02:06Z</time>
      </trkpt>
      <trkpt lat="44.79849" lon="6.76494">
        <ele>2137.15</ele>
        <time>2018-09-15T07:02:31Z</time>
      </trkpt>
      <trkpt lat="44.79873" lon="6.76504">
        <ele>2139.55</ele>
        <time>2018-09-15T07:02:55Z</time>
      </trkpt>
      <trkpt lat="44.79888" lon="6.76506">
        <ele>2144.36</ele>
        <time>2018-09-15T07:03:37Z</time>
      </trkpt>
      <trkpt lat="44.799" lon="6.76491">
        <ele>2147.72</ele>
        <time>2018-09-15T07:04:06Z</time>
      </trkpt>
      <trkpt lat="44.79922" lon="6.76485">
        <ele>2153.49</ele>
        <time>2018-09-15T07:04:49Z</time>
      </trkpt>
      <trkpt lat="44.7994" lon="6.7648">
        <ele>2158.78</ele>
        <time>2018-09-15T07:05:25Z</time>
      </trkpt>
      <trkpt lat="44.79949" lon="6.76478">
        <ele>2161.18</ele>
        <time>2018-09-15T07:05:58Z</time>
      </trkpt>
      <trkpt lat="44.7996" lon="6.76484">
        <ele>2164.55</ele>
        <time>2018-09-15T07:10:15Z</time>
      </trkpt>
      <trkpt lat="44.79973" lon="6.76483">
        <ele>2168.39</ele>
        <time>2018-09-15T07:10:41Z</time>
      </trkpt>
      <trkpt lat="44.79982" lon="6.7648">
        <ele>2171.27</ele>
        <time>2018-09-15T07:11:07Z</time>
      </trkpt>
      <trkpt lat="44.79992" lon="6.76472">
        <ele>2174.16</ele>
        <time>2018-09-15T07:11:30Z</time>
      </trkpt>
      <trkpt lat="44.79999" lon="6.76482">
        <ele>2177.04</ele>
        <time>2018-09-15T07:11:46Z</time>
      </trkpt>
      <trkpt lat="44.80013" lon="6.76486">
        <ele>2179.93</ele>
        <time>2018-09-15T07:12:10Z</time>
      </trkpt>
      <trkpt lat="44.80024" lon="6.76487">
        <ele>2183.29</ele>
        <time>2018-09-15T07:12:32Z</time>
      </trkpt>
      <trkpt lat="44.80037" lon="6.76483">
        <ele>2185.69</ele>
        <time>2018-09-15T07:12:56Z</time>
      </trkpt>
      <trkpt lat="44.8005" lon="6.76482">
        <ele>2190.5</ele>
        <time>2018-09-15T07:13:21Z</time>
      </trkpt>
      <trkpt lat="44.80061" lon="6.7648">
        <ele>2193.39</ele>
        <time>2018-09-15T07:13:40Z</time>
      </trkpt>
      <trkpt lat="44.80074" lon="6.76473">
        <ele>2198.19</ele>
        <time>2018-09-15T07:14:14Z</time>
      </trkpt>
      <trkpt lat="44.8008" lon="6.76474">
        <ele>2204.92</ele>
        <time>2018-09-15T07:19:52Z</time>
      </trkpt>
      <trkpt lat="44.80095" lon="6.76472">
        <ele>2208.29</ele>
        <time>2018-09-15T07:20:12Z</time>
      </trkpt>
      <trkpt lat="44.80102" lon="6.76462">
        <ele>2209.73</ele>
        <time>2018-09-15T07:20:29Z</time>
      </trkpt>
      <trkpt lat="44.80114" lon="6.7646">
        <ele>2214.05</ele>
        <time>2018-09-15T07:20:49Z</time>
      </trkpt>
      <trkpt lat="44.80124" lon="6.76457">
        <ele>2217.42</ele>
        <time>2018-09-15T07:21:09Z</time>
      </trkpt>
      <trkpt lat="44.80131" lon="6.76447">
        <ele>2220.78</ele>
        <time>2018-09-15T07:21:34Z</time>
      </trkpt>
      <trkpt lat="44.80143" lon="6.76445">
        <ele>2223.67</ele>
        <time>2018-09-15T07:21:50Z</time>
      </trkpt>
      <trkpt lat="44.80151" lon="6.76437">
        <ele>2227.03</ele>
        <time>2018-09-15T07:22:11Z</time>
      </trkpt>
      <trkpt lat="44.80162" lon="6.7643">
        <ele>2229.92</ele>
        <time>2018-09-15T07:22:34Z</time>
      </trkpt>
      <trkpt lat="44.80175" lon="6.76432">
        <ele>2232.8</ele>
        <time>2018-09-15T07:22:53Z</time>
      </trkpt>
      <trkpt lat="44.80183" lon="6.76425">
        <ele>2236.16</ele>
        <time>2018-09-15T07:23:18Z</time>
      </trkpt>
      <trkpt lat="44.80196" lon="6.7642">
        <ele>2240.97</ele>
        <time>2018-09-15T07:23:45Z</time>
      </trkpt>
      <trkpt lat="44.80211" lon="6.7642">
        <ele>2244.33</ele>
        <time>2018-09-15T07:24:13Z</time>
      </trkpt>
      <trkpt lat="44.8022" lon="6.76409">
        <ele>2247.7</ele>
        <time>2018-09-15T07:24:35Z</time>
      </trkpt>
      <trkpt lat="44.80229" lon="6.76403">
        <ele>2250.58</ele>
        <time>2018-09-15T07:24:55Z</time>
      </trkpt>
      <trkpt lat="44.80239" lon="6.76401">
        <ele>2253.47</ele>
        <time>2018-09-15T07:25:16Z</time>
      </trkpt>
      <trkpt lat="44.80245" lon="6.76394">
        <ele>2255.39</ele>
        <time>2018-09-15T07:25:31Z</time>
      </trkpt>
      <trkpt lat="44.80253" lon="6.76389">
        <ele>2257.31</ele>
        <time>2018-09-15T07:25:45Z</time>
      </trkpt>
      <trkpt lat="44.80259" lon="6.76388">
        <ele>2259.72</ele>
        <time>2018-09-15T07:26:03Z</time>
      </trkpt>
      <trkpt lat="44.80271" lon="6.76389">
        <ele>2264.04</ele>
        <time>2018-09-15T07:26:29Z</time>
      </trkpt>
      <trkpt lat="44.8028" lon="6.76387">
        <ele>2266.93</ele>
        <time>2018-09-15T07:26:54Z</time>
      </trkpt>
      <trkpt lat="44.8029" lon="6.76378">
        <ele>2269.81</ele>
        <time>2018-09-15T07:27:18Z</time>
      </trkpt>
      <trkpt lat="44.803" lon="6.76374">
        <ele>2272.69</ele>
        <time>2018-09-15T07:27:42Z</time>
      </trkpt>
      <trkpt lat="44.80313" lon="6.76366">
        <ele>2276.54</ele>
        <time>2018-09-15T07:28:09Z</time>
      </trkpt>
      <trkpt lat="44.80322" lon="6.76362">
        <ele>2279.42</ele>
        <time>2018-09-15T07:28:26Z</time>
      </trkpt>
      <trkpt lat="44.80329" lon="6.76352">
        <ele>2282.79</ele>
        <time>2018-09-15T07:28:54Z</time>
      </trkpt>
      <trkpt lat="44.80338" lon="6.7635">
        <ele>2286.63</ele>
        <time>2018-09-15T07:29:21Z</time>
      </trkpt>
      <trkpt lat="44.80351" lon="6.76347">
        <ele>2290</ele>
        <time>2018-09-15T07:29:43Z</time>
      </trkpt>
      <trkpt lat="44.80361" lon="6.76337">
        <ele>2292.4</ele>
        <time>2018-09-15T07:30:06Z</time>
      </trkpt>
      <trkpt lat="44.80367" lon="6.76333">
        <ele>2295.28</ele>
        <time>2018-09-15T07:30:31Z</time>
      </trkpt>
      <trkpt lat="44.80378" lon="6.76331">
        <ele>2299.61</ele>
        <time>2018-09-15T07:30:59Z</time>
      </trkpt>
      <trkpt lat="44.80387" lon="6.76325">
        <ele>2303.46</ele>
        <time>2018-09-15T07:31:25Z</time>
      </trkpt>
      <trkpt lat="44.80394" lon="6.76319">
        <ele>2308.74</ele>
        <time>2018-09-15T07:31:54Z</time>
      </trkpt>
      <trkpt lat="44.804" lon="6.76318">
        <ele>2312.59</ele>
        <time>2018-09-15T07:32:26Z</time>
      </trkpt>
      <trkpt lat="44.80408" lon="6.76316">
        <ele>2316.43</ele>
        <time>2018-09-15T07:32:51Z</time>
      </trkpt>
      <trkpt lat="44.80416" lon="6.76314">
        <ele>2318.84</ele>
        <time>2018-09-15T07:33:14Z</time>
      </trkpt>
      <trkpt lat="44.80423" lon="6.76313">
        <ele>2323.64</ele>
        <time>2018-09-15T07:33:45Z</time>
      </trkpt>
      <trkpt lat="44.80433" lon="6.76316">
        <ele>2326.53</ele>
        <time>2018-09-15T07:34:28Z</time>
      </trkpt>
      <trkpt lat="44.80442" lon="6.7632">
        <ele>2330.85</ele>
        <time>2018-09-15T07:34:52Z</time>
      </trkpt>
      <trkpt lat="44.80446" lon="6.76318">
        <ele>2337.1</ele>
        <time>2018-09-15T07:35:35Z</time>
      </trkpt>
      <trkpt lat="44.80452" lon="6.76301">
        <ele>2339.51</ele>
        <time>2018-09-15T07:35:54Z</time>
      </trkpt>
      <trkpt lat="44.80463" lon="6.76294">
        <ele>2341.43</ele>
        <time>2018-09-15T07:36:13Z</time>
      </trkpt>
      <trkpt lat="44.80465" lon="6.7629">
        <ele>2347.68</ele>
        <time>2018-09-15T07:36:48Z</time>
      </trkpt>
      <trkpt lat="44.80477" lon="6.76272">
        <ele>2352.96</ele>
        <time>2018-09-15T07:37:55Z</time>
      </trkpt>
      <trkpt lat="44.80484" lon="6.76264">
        <ele>2356.33</ele>
        <time>2018-09-15T07:38:17Z</time>
      </trkpt>
      <trkpt lat="44.8049" lon="6.7626">
        <ele>2360.65</ele>
        <time>2018-09-15T07:39:17Z</time>
      </trkpt>
      <trkpt lat="44.80492" lon="6.76251">
        <ele>2364.5</ele>
        <time>2018-09-15T07:40:23Z</time>
      </trkpt>
      <trkpt lat="44.80505" lon="6.76251">
        <ele>2367.86</ele>
        <time>2018-09-15T07:40:45Z</time>
      </trkpt>
      <trkpt lat="44.8051" lon="6.76243">
        <ele>2371.23</ele>
        <time>2018-09-15T07:41:03Z</time>
      </trkpt>
      <trkpt lat="44.80518" lon="6.76239">
        <ele>2373.15</ele>
        <time>2018-09-15T07:41:18Z</time>
      </trkpt>
      <trkpt lat="44.80526" lon="6.76246">
        <ele>2374.59</ele>
        <time>2018-09-15T07:41:47Z</time>
      </trkpt>
      <trkpt lat="44.80532" lon="6.76229">
        <ele>2377.48</ele>
        <time>2018-09-15T07:42:13Z</time>
      </trkpt>
      <trkpt lat="44.80541" lon="6.76222">
        <ele>2378.92</ele>
        <time>2018-09-15T07:42:27Z</time>
      </trkpt>
      <trkpt lat="44.80547" lon="6.76213">
        <ele>2381.32</ele>
        <time>2018-09-15T07:42:41Z</time>
      </trkpt>
      <trkpt lat="44.80554" lon="6.76204">
        <ele>2383.25</ele>
        <time>2018-09-15T07:42:55Z</time>
      </trkpt>
      <trkpt lat="44.80561" lon="6.76196">
        <ele>2385.17</ele>
        <time>2018-09-15T07:43:08Z</time>
      </trkpt>
      <trkpt lat="44.80569" lon="6.76189">
        <ele>2386.13</ele>
        <time>2018-09-15T07:43:19Z</time>
      </trkpt>
      <trkpt lat="44.80579" lon="6.76182">
        <ele>2387.57</ele>
        <time>2018-09-15T07:43:34Z</time>
      </trkpt>
      <trkpt lat="44.80588" lon="6.76176">
        <ele>2389.01</ele>
        <time>2018-09-15T07:43:51Z</time>
      </trkpt>
      <trkpt lat="44.80598" lon="6.76172">
        <ele>2390.46</ele>
        <time>2018-09-15T07:44:05Z</time>
      </trkpt>
      <trkpt lat="44.80606" lon="6.76166">
        <ele>2392.86</ele>
        <time>2018-09-15T07:44:21Z</time>
      </trkpt>
      <trkpt lat="44.80615" lon="6.76159">
        <ele>2394.78</ele>
        <time>2018-09-15T07:44:37Z</time>
      </trkpt>
      <trkpt lat="44.80623" lon="6.76153">
        <ele>2396.7</ele>
        <time>2018-09-15T07:44:51Z</time>
      </trkpt>
      <trkpt lat="44.80631" lon="6.76144">
        <ele>2399.11</ele>
        <time>2018-09-15T07:45:06Z</time>
      </trkpt>
      <trkpt lat="44.80638" lon="6.76137">
        <ele>2400.07</ele>
        <time>2018-09-15T07:45:21Z</time>
      </trkpt>
      <trkpt lat="44.80645" lon="6.76128">
        <ele>2402.47</ele>
        <time>2018-09-15T07:45:36Z</time>
      </trkpt>
      <trkpt lat="44.80652" lon="6.76119">
        <ele>2403.91</ele>
        <time>2018-09-15T07:45:53Z</time>
      </trkpt>
      <trkpt lat="44.80664" lon="6.76115">
        <ele>2406.8</ele>
        <time>2018-09-15T07:46:14Z</time>
      </trkpt>
      <trkpt lat="44.80674" lon="6.76108">
        <ele>2410.16</ele>
        <time>2018-09-15T07:46:35Z</time>
      </trkpt>
      <trkpt lat="44.80682" lon="6.76099">
        <ele>2412.09</ele>
        <time>2018-09-15T07:46:53Z</time>
      </trkpt>
      <trkpt lat="44.80688" lon="6.76089">
        <ele>2415.93</ele>
        <time>2018-09-15T07:47:12Z</time>
      </trkpt>
      <trkpt lat="44.80697" lon="6.76084">
        <ele>2417.37</ele>
        <time>2018-09-15T07:47:26Z</time>
      </trkpt>
      <trkpt lat="44.80702" lon="6.76077">
        <ele>2419.3</ele>
        <time>2018-09-15T07:47:39Z</time>
      </trkpt>
      <trkpt lat="44.80703" lon="6.76063">
        <ele>2421.7</ele>
        <time>2018-09-15T07:47:54Z</time>
      </trkpt>
      <trkpt lat="44.80708" lon="6.7605">
        <ele>2424.58</ele>
        <time>2018-09-15T07:48:13Z</time>
      </trkpt>
      <trkpt lat="44.80716" lon="6.76042">
        <ele>2426.5</ele>
        <time>2018-09-15T07:48:26Z</time>
      </trkpt>
      <trkpt lat="44.8072" lon="6.76033">
        <ele>2428.43</ele>
        <time>2018-09-15T07:48:39Z</time>
      </trkpt>
      <trkpt lat="44.80727" lon="6.76026">
        <ele>2429.87</ele>
        <time>2018-09-15T07:48:52Z</time>
      </trkpt>
      <trkpt lat="44.80733" lon="6.76019">
        <ele>2431.31</ele>
        <time>2018-09-15T07:49:07Z</time>
      </trkpt>
      <trkpt lat="44.80741" lon="6.76009">
        <ele>2434.2</ele>
        <time>2018-09-15T07:49:25Z</time>
      </trkpt>
      <trkpt lat="44.80747" lon="6.76003">
        <ele>2435.64</ele>
        <time>2018-09-15T07:49:37Z</time>
      </trkpt>
      <trkpt lat="44.80752" lon="6.75992">
        <ele>2437.56</ele>
        <time>2018-09-15T07:49:54Z</time>
      </trkpt>
      <trkpt lat="44.8076" lon="6.75981">
        <ele>2439.96</ele>
        <time>2018-09-15T07:50:12Z</time>
      </trkpt>
      <trkpt lat="44.80764" lon="6.7597">
        <ele>2442.37</ele>
        <time>2018-09-15T07:50:27Z</time>
      </trkpt>
      <trkpt lat="44.80769" lon="6.75959">
        <ele>2443.81</ele>
        <time>2018-09-15T07:50:40Z</time>
      </trkpt>
      <trkpt lat="44.80773" lon="6.75947">
        <ele>2445.73</ele>
        <time>2018-09-15T07:50:56Z</time>
      </trkpt>
      <trkpt lat="44.80778" lon="6.75935">
        <ele>2448.62</ele>
        <time>2018-09-15T07:51:13Z</time>
      </trkpt>
      <trkpt lat="44.80779" lon="6.75922">
        <ele>2450.06</ele>
        <time>2018-09-15T07:51:27Z</time>
      </trkpt>
      <trkpt lat="44.80779" lon="6.75912">
        <ele>2453.42</ele>
        <time>2018-09-15T07:51:47Z</time>
      </trkpt>
      <trkpt lat="44.80778" lon="6.75897">
        <ele>2455.34</ele>
        <time>2018-09-15T07:52:03Z</time>
      </trkpt>
      <trkpt lat="44.80776" lon="6.75885">
        <ele>2456.31</ele>
        <time>2018-09-15T07:52:17Z</time>
      </trkpt>
      <trkpt lat="44.80774" lon="6.75871">
        <ele>2457.27</ele>
        <time>2018-09-15T07:52:29Z</time>
      </trkpt>
      <trkpt lat="44.80773" lon="6.75856">
        <ele>2459.19</ele>
        <time>2018-09-15T07:52:41Z</time>
      </trkpt>
      <trkpt lat="44.80773" lon="6.75844">
        <ele>2460.63</ele>
        <time>2018-09-15T07:52:53Z</time>
      </trkpt>
      <trkpt lat="44.80773" lon="6.75831">
        <ele>2461.59</ele>
        <time>2018-09-15T07:53:07Z</time>
      </trkpt>
      <trkpt lat="44.80777" lon="6.75821">
        <ele>2463.52</ele>
        <time>2018-09-15T07:53:21Z</time>
      </trkpt>
      <trkpt lat="44.80783" lon="6.75811">
        <ele>2465.92</ele>
        <time>2018-09-15T07:53:37Z</time>
      </trkpt>
      <trkpt lat="44.80788" lon="6.75801">
        <ele>2467.84</ele>
        <time>2018-09-15T07:53:54Z</time>
      </trkpt>
      <trkpt lat="44.80792" lon="6.75789">
        <ele>2471.21</ele>
        <time>2018-09-15T07:54:13Z</time>
      </trkpt>
      <trkpt lat="44.80794" lon="6.7578">
        <ele>2474.57</ele>
        <time>2018-09-15T07:54:34Z</time>
      </trkpt>
      <trkpt lat="44.80793" lon="6.7577">
        <ele>2477.94</ele>
        <time>2018-09-15T07:54:55Z</time>
      </trkpt>
      <trkpt lat="44.80792" lon="6.75757">
        <ele>2480.34</ele>
        <time>2018-09-15T07:55:14Z</time>
      </trkpt>
      <trkpt lat="44.80791" lon="6.75743">
        <ele>2483.22</ele>
        <time>2018-09-15T07:55:33Z</time>
      </trkpt>
      <trkpt lat="44.80787" lon="6.75731">
        <ele>2486.11</ele>
        <time>2018-09-15T07:55:54Z</time>
      </trkpt>
      <trkpt lat="44.80782" lon="6.75718">
        <ele>2486.59</ele>
        <time>2018-09-15T07:56:06Z</time>
      </trkpt>
      <trkpt lat="44.80778" lon="6.75707">
        <ele>2487.55</ele>
        <time>2018-09-15T07:56:19Z</time>
      </trkpt>
      <trkpt lat="44.80774" lon="6.75692">
        <ele>2488.03</ele>
        <time>2018-09-15T07:56:33Z</time>
      </trkpt>
      <trkpt lat="44.80766" lon="6.75682">
        <ele>2488.51</ele>
        <time>2018-09-15T07:56:45Z</time>
      </trkpt>
      <trkpt lat="44.8076" lon="6.75673">
        <ele>2488.03</ele>
        <time>2018-09-15T07:56:56Z</time>
      </trkpt>
      <trkpt lat="44.80764" lon="6.75662">
        <ele>2488.03</ele>
        <time>2018-09-15T07:57:07Z</time>
      </trkpt>
      <trkpt lat="44.80763" lon="6.75649">
        <ele>2488.51</ele>
        <time>2018-09-15T07:57:18Z</time>
      </trkpt>
      <trkpt lat="44.80764" lon="6.75634">
        <ele>2488.51</ele>
        <time>2018-09-15T07:57:28Z</time>
      </trkpt>
      <trkpt lat="44.80766" lon="6.75622">
        <ele>2488.99</ele>
        <time>2018-09-15T07:57:40Z</time>
      </trkpt>
      <trkpt lat="44.80766" lon="6.75609">
        <ele>2488.99</ele>
        <time>2018-09-15T07:57:52Z</time>
      </trkpt>
      <trkpt lat="44.80766" lon="6.75599">
        <ele>2489.95</ele>
        <time>2018-09-15T07:58:06Z</time>
      </trkpt>
      <trkpt lat="44.80773" lon="6.7559">
        <ele>2490.91</ele>
        <time>2018-09-15T08:01:03Z</time>
      </trkpt>
      <trkpt lat="44.80776" lon="6.7558">
        <ele>2493.32</ele>
        <time>2018-09-15T08:01:19Z</time>
      </trkpt>
      <trkpt lat="44.80781" lon="6.75568">
        <ele>2495.72</ele>
        <time>2018-09-15T08:01:36Z</time>
      </trkpt>
      <trkpt lat="44.80781" lon="6.75565">
        <ele>2496.68</ele>
        <time>2018-09-15T08:02:18Z</time>
      </trkpt>
      <trkpt lat="44.80782" lon="6.7556">
        <ele>2496.68</ele>
        <time>2018-09-15T08:04:27Z</time>
      </trkpt>
      <trkpt lat="44.80784" lon="6.75559">
        <ele>2501.97</ele>
        <time>2018-09-15T08:14:12Z</time>
      </trkpt>
      <trkpt lat="44.80791" lon="6.7556">
        <ele>2501.49</ele>
        <time>2018-09-15T08:14:32Z</time>
      </trkpt>
      <trkpt lat="44.80789" lon="6.75557">
        <ele>2501.97</ele>
        <time>2018-09-15T08:14:52Z</time>
      </trkpt>
      <trkpt lat="44.80796" lon="6.75548">
        <ele>2503.41</ele>
        <time>2018-09-15T08:15:04Z</time>
      </trkpt>
      <trkpt lat="44.80803" lon="6.75537">
        <ele>2504.85</ele>
        <time>2018-09-15T08:15:16Z</time>
      </trkpt>
      <trkpt lat="44.8081" lon="6.75529">
        <ele>2506.29</ele>
        <time>2018-09-15T08:15:27Z</time>
      </trkpt>
      <trkpt lat="44.80815" lon="6.75515">
        <ele>2508.7</ele>
        <time>2018-09-15T08:15:42Z</time>
      </trkpt>
      <trkpt lat="44.80824" lon="6.75512">
        <ele>2511.1</ele>
        <time>2018-09-15T08:15:57Z</time>
      </trkpt>
      <trkpt lat="44.8083" lon="6.75503">
        <ele>2513.02</ele>
        <time>2018-09-15T08:16:12Z</time>
      </trkpt>
      <trkpt lat="44.80838" lon="6.75499">
        <ele>2515.91</ele>
        <time>2018-09-15T08:16:27Z</time>
      </trkpt>
      <trkpt lat="44.80844" lon="6.75489">
        <ele>2517.35</ele>
        <time>2018-09-15T08:16:41Z</time>
      </trkpt>
      <trkpt lat="44.80852" lon="6.7548">
        <ele>2520.23</ele>
        <time>2018-09-15T08:16:57Z</time>
      </trkpt>
      <trkpt lat="44.8086" lon="6.75471">
        <ele>2523.6</ele>
        <time>2018-09-15T08:17:22Z</time>
      </trkpt>
      <trkpt lat="44.80868" lon="6.75455">
        <ele>2527.92</ele>
        <time>2018-09-15T08:17:48Z</time>
      </trkpt>
      <trkpt lat="44.80876" lon="6.75446">
        <ele>2531.77</ele>
        <time>2018-09-15T08:18:10Z</time>
      </trkpt>
      <trkpt lat="44.80881" lon="6.75434">
        <ele>2535.61</ele>
        <time>2018-09-15T08:18:31Z</time>
      </trkpt>
      <trkpt lat="44.80885" lon="6.75423">
        <ele>2539.46</ele>
        <time>2018-09-15T08:18:51Z</time>
      </trkpt>
      <trkpt lat="44.80883" lon="6.75412">
        <ele>2542.34</ele>
        <time>2018-09-15T08:19:10Z</time>
      </trkpt>
      <trkpt lat="44.80889" lon="6.7541">
        <ele>2543.79</ele>
        <time>2018-09-15T08:19:23Z</time>
      </trkpt>
      <trkpt lat="44.80895" lon="6.75398">
        <ele>2547.63</ele>
        <time>2018-09-15T08:19:45Z</time>
      </trkpt>
      <trkpt lat="44.809" lon="6.75384">
        <ele>2551.48</ele>
        <time>2018-09-15T08:20:07Z</time>
      </trkpt>
      <trkpt lat="44.80905" lon="6.75373">
        <ele>2553.4</ele>
        <time>2018-09-15T08:20:22Z</time>
      </trkpt>
      <trkpt lat="44.80907" lon="6.75366">
        <ele>2557.24</ele>
        <time>2018-09-15T08:20:45Z</time>
      </trkpt>
      <trkpt lat="44.80913" lon="6.75356">
        <ele>2560.61</ele>
        <time>2018-09-15T08:21:03Z</time>
      </trkpt>
      <trkpt lat="44.80921" lon="6.75352">
        <ele>2564.45</ele>
        <time>2018-09-15T08:21:23Z</time>
      </trkpt>
      <trkpt lat="44.80929" lon="6.7534">
        <ele>2566.86</ele>
        <time>2018-09-15T08:21:42Z</time>
      </trkpt>
      <trkpt lat="44.8094" lon="6.75336">
        <ele>2569.74</ele>
        <time>2018-09-15T08:22:13Z</time>
      </trkpt>
      <trkpt lat="44.80949" lon="6.75331">
        <ele>2572.63</ele>
        <time>2018-09-15T08:22:29Z</time>
      </trkpt>
      <trkpt lat="44.80957" lon="6.75325">
        <ele>2575.03</ele>
        <time>2018-09-15T08:22:43Z</time>
      </trkpt>
      <trkpt lat="44.8097" lon="6.75319">
        <ele>2576.95</ele>
        <time>2018-09-15T08:23:02Z</time>
      </trkpt>
      <trkpt lat="44.80979" lon="6.75313">
        <ele>2577.91</ele>
        <time>2018-09-15T08:23:13Z</time>
      </trkpt>
      <trkpt lat="44.80991" lon="6.7531">
        <ele>2579.84</ele>
        <time>2018-09-15T08:23:28Z</time>
      </trkpt>
      <trkpt lat="44.81" lon="6.75305">
        <ele>2581.28</ele>
        <time>2018-09-15T08:23:42Z</time>
      </trkpt>
      <trkpt lat="44.81012" lon="6.75304">
        <ele>2584.16</ele>
        <time>2018-09-15T08:24:02Z</time>
      </trkpt>
      <trkpt lat="44.81025" lon="6.75303">
        <ele>2587.53</ele>
        <time>2018-09-15T08:24:23Z</time>
      </trkpt>
      <trkpt lat="44.81037" lon="6.75303">
        <ele>2590.41</ele>
        <time>2018-09-15T08:24:44Z</time>
      </trkpt>
      <trkpt lat="44.81048" lon="6.75308">
        <ele>2595.22</ele>
        <time>2018-09-15T08:25:12Z</time>
      </trkpt>
      <trkpt lat="44.8106" lon="6.75307">
        <ele>2600.02</ele>
        <time>2018-09-15T08:25:37Z</time>
      </trkpt>
      <trkpt lat="44.81076" lon="6.75307">
        <ele>2603.87</ele>
        <time>2018-09-15T08:26:04Z</time>
      </trkpt>
      <trkpt lat="44.81085" lon="6.75308">
        <ele>2607.71</ele>
        <time>2018-09-15T08:26:28Z</time>
      </trkpt>
      <trkpt lat="44.81096" lon="6.75304">
        <ele>2612.52</ele>
        <time>2018-09-15T08:26:58Z</time>
      </trkpt>
      <trkpt lat="44.81107" lon="6.75301">
        <ele>2615.88</ele>
        <time>2018-09-15T08:27:19Z</time>
      </trkpt>
      <trkpt lat="44.81116" lon="6.75299">
        <ele>2618.29</ele>
        <time>2018-09-15T08:27:37Z</time>
      </trkpt>
      <trkpt lat="44.81122" lon="6.75305">
        <ele>2622.61</ele>
        <time>2018-09-15T08:28:06Z</time>
      </trkpt>
      <trkpt lat="44.81132" lon="6.75306">
        <ele>2627.9</ele>
        <time>2018-09-15T08:28:35Z</time>
      </trkpt>
      <trkpt lat="44.81134" lon="6.75311">
        <ele>2633.19</ele>
        <time>2018-09-15T08:29:05Z</time>
      </trkpt>
      <trkpt lat="44.81138" lon="6.75319">
        <ele>2636.07</ele>
        <time>2018-09-15T08:29:29Z</time>
      </trkpt>
      <trkpt lat="44.81141" lon="6.75327">
        <ele>2639.92</ele>
        <time>2018-09-15T08:29:53Z</time>
      </trkpt>
      <trkpt lat="44.81148" lon="6.75332">
        <ele>2642.8</ele>
        <time>2018-09-15T08:30:12Z</time>
      </trkpt>
      <trkpt lat="44.81159" lon="6.75324">
        <ele>2646.65</ele>
        <time>2018-09-15T08:30:40Z</time>
      </trkpt>
      <trkpt lat="44.81164" lon="6.7531">
        <ele>2649.53</ele>
        <time>2018-09-15T08:31:02Z</time>
      </trkpt>
      <trkpt lat="44.81172" lon="6.753">
        <ele>2652.9</ele>
        <time>2018-09-15T08:31:26Z</time>
      </trkpt>
      <trkpt lat="44.81179" lon="6.75293">
        <ele>2657.22</ele>
        <time>2018-09-15T08:31:50Z</time>
      </trkpt>
      <trkpt lat="44.81185" lon="6.75287">
        <ele>2661.07</ele>
        <time>2018-09-15T08:32:15Z</time>
      </trkpt>
      <trkpt lat="44.81191" lon="6.7528">
        <ele>2664.91</ele>
        <time>2018-09-15T08:32:39Z</time>
      </trkpt>
      <trkpt lat="44.81201" lon="6.75272">
        <ele>2670.2</ele>
        <time>2018-09-15T08:33:09Z</time>
      </trkpt>
      <trkpt lat="44.81204" lon="6.75257">
        <ele>2674.04</ele>
        <time>2018-09-15T08:33:37Z</time>
      </trkpt>
      <trkpt lat="44.81208" lon="6.75246">
        <ele>2678.37</ele>
        <time>2018-09-15T08:34:01Z</time>
      </trkpt>
      <trkpt lat="44.81209" lon="6.75238">
        <ele>2681.73</ele>
        <time>2018-09-15T08:34:22Z</time>
      </trkpt>
      <trkpt lat="44.81215" lon="6.75227">
        <ele>2686.54</ele>
        <time>2018-09-15T08:34:52Z</time>
      </trkpt>
      <trkpt lat="44.81219" lon="6.75216">
        <ele>2690.39</ele>
        <time>2018-09-15T08:35:17Z</time>
      </trkpt>
      <trkpt lat="44.81217" lon="6.75209">
        <ele>2694.23</ele>
        <time>2018-09-15T08:35:41Z</time>
      </trkpt>
      <trkpt lat="44.81226" lon="6.75204">
        <ele>2696.64</ele>
        <time>2018-09-15T08:35:56Z</time>
      </trkpt>
      <trkpt lat="44.81236" lon="6.752">
        <ele>2700.96</ele>
        <time>2018-09-15T08:36:25Z</time>
      </trkpt>
      <trkpt lat="44.81239" lon="6.75192">
        <ele>2705.77</ele>
        <time>2018-09-15T08:36:51Z</time>
      </trkpt>
      <trkpt lat="44.81245" lon="6.75186">
        <ele>2708.65</ele>
        <time>2018-09-15T08:37:12Z</time>
      </trkpt>
      <trkpt lat="44.81254" lon="6.75181">
        <ele>2713.46</ele>
        <time>2018-09-15T08:37:39Z</time>
      </trkpt>
      <trkpt lat="44.81258" lon="6.75172">
        <ele>2716.82</ele>
        <time>2018-09-15T08:38:04Z</time>
      </trkpt>
      <trkpt lat="44.81266" lon="6.75167">
        <ele>2721.15</ele>
        <time>2018-09-15T08:38:30Z</time>
      </trkpt>
      <trkpt lat="44.81273" lon="6.75159">
        <ele>2724.99</ele>
        <time>2018-09-15T08:39:01Z</time>
      </trkpt>
      <trkpt lat="44.81276" lon="6.7515">
        <ele>2729.32</ele>
        <time>2018-09-15T08:39:34Z</time>
      </trkpt>
      <trkpt lat="44.81281" lon="6.75136">
        <ele>2735.09</ele>
        <time>2018-09-15T08:40:02Z</time>
      </trkpt>
      <trkpt lat="44.81288" lon="6.75132">
        <ele>2738.45</ele>
        <time>2018-09-15T08:40:26Z</time>
      </trkpt>
      <trkpt lat="44.81289" lon="6.75122">
        <ele>2741.34</ele>
        <time>2018-09-15T08:40:47Z</time>
      </trkpt>
      <trkpt lat="44.8129" lon="6.7511">
        <ele>2745.18</ele>
        <time>2018-09-15T08:41:12Z</time>
      </trkpt>
      <trkpt lat="44.81287" lon="6.751">
        <ele>2749.03</ele>
        <time>2018-09-15T08:41:33Z</time>
      </trkpt>
      <trkpt lat="44.8129" lon="6.75089">
        <ele>2751.91</ele>
        <time>2018-09-15T08:41:56Z</time>
      </trkpt>
      <trkpt lat="44.81305" lon="6.75088">
        <ele>2753.83</ele>
        <time>2018-09-15T08:42:11Z</time>
      </trkpt>
      <trkpt lat="44.81315" lon="6.75094">
        <ele>2758.64</ele>
        <time>2018-09-15T08:42:42Z</time>
      </trkpt>
      <trkpt lat="44.81324" lon="6.75098">
        <ele>2761.52</ele>
        <time>2018-09-15T08:43:05Z</time>
      </trkpt>
      <trkpt lat="44.81334" lon="6.75101">
        <ele>2763.93</ele>
        <time>2018-09-15T08:43:22Z</time>
      </trkpt>
      <trkpt lat="44.8134" lon="6.75106">
        <ele>2766.81</ele>
        <time>2018-09-15T08:43:40Z</time>
      </trkpt>
      <trkpt lat="44.81348" lon="6.75111">
        <ele>2770.66</ele>
        <time>2018-09-15T08:44:02Z</time>
      </trkpt>
      <trkpt lat="44.81357" lon="6.75118">
        <ele>2773.54</ele>
        <time>2018-09-15T08:44:24Z</time>
      </trkpt>
      <trkpt lat="44.81363" lon="6.75124">
        <ele>2775.94</ele>
        <time>2018-09-15T08:44:38Z</time>
      </trkpt>
      <trkpt lat="44.81368" lon="6.7513">
        <ele>2777.39</ele>
        <time>2018-09-15T08:44:52Z</time>
      </trkpt>
      <trkpt lat="44.81374" lon="6.75137">
        <ele>2780.27</ele>
        <time>2018-09-15T08:45:09Z</time>
      </trkpt>
      <trkpt lat="44.81377" lon="6.75142">
        <ele>2782.67</ele>
        <time>2018-09-15T08:45:50Z</time>
      </trkpt>
      <trkpt lat="44.81379" lon="6.75163">
        <ele>2783.63</ele>
        <time>2018-09-15T08:46:23Z</time>
      </trkpt>
      <trkpt lat="44.81383" lon="6.75174">
        <ele>2784.6</ele>
        <time>2018-09-15T08:46:33Z</time>
      </trkpt>
      <trkpt lat="44.81384" lon="6.75186">
        <ele>2785.56</ele>
        <time>2018-09-15T08:46:43Z</time>
      </trkpt>
      <trkpt lat="44.81384" lon="6.75197">
        <ele>2785.56</ele>
        <time>2018-09-15T08:46:56Z</time>
      </trkpt>
      <trkpt lat="44.81385" lon="6.7521">
        <ele>2787.96</ele>
        <time>2018-09-15T08:47:08Z</time>
      </trkpt>
      <trkpt lat="44.81389" lon="6.75223">
        <ele>2790.36</ele>
        <time>2018-09-15T08:47:21Z</time>
      </trkpt>
      <trkpt lat="44.81387" lon="6.75215">
        <ele>2789.4</ele>
        <time>2018-09-15T08:48:42Z</time>
      </trkpt>
      <trkpt lat="44.81385" lon="6.75198">
        <ele>2786.52</ele>
        <time>2018-09-15T08:49:06Z</time>
      </trkpt>
      <trkpt lat="44.81382" lon="6.75187">
        <ele>2785.08</ele>
        <time>2018-09-15T08:49:17Z</time>
      </trkpt>
      <trkpt lat="44.81381" lon="6.75173">
        <ele>2783.63</ele>
        <time>2018-09-15T08:49:26Z</time>
      </trkpt>
      <trkpt lat="44.81379" lon="6.75161">
        <ele>2783.63</ele>
        <time>2018-09-15T08:49:35Z</time>
      </trkpt>
      <trkpt lat="44.81377" lon="6.75148">
        <ele>2783.15</ele>
        <time>2018-09-15T08:49:43Z</time>
      </trkpt>
      <trkpt lat="44.81378" lon="6.75138">
        <ele>2783.15</ele>
        <time>2018-09-15T08:50:00Z</time>
      </trkpt>
      <trkpt lat="44.8138" lon="6.75124">
        <ele>2785.56</ele>
        <time>2018-09-15T08:50:15Z</time>
      </trkpt>
      <trkpt lat="44.81384" lon="6.75112">
        <ele>2788.44</ele>
        <time>2018-09-15T08:50:31Z</time>
      </trkpt>
      <trkpt lat="44.81389" lon="6.75101">
        <ele>2792.29</ele>
        <time>2018-09-15T08:50:50Z</time>
      </trkpt>
      <trkpt lat="44.8139" lon="6.7509">
        <ele>2796.13</ele>
        <time>2018-09-15T08:51:13Z</time>
      </trkpt>
      <trkpt lat="44.81393" lon="6.75078">
        <ele>2799.5</ele>
        <time>2018-09-15T08:51:35Z</time>
      </trkpt>
      <trkpt lat="44.81393" lon="6.75058">
        <ele>2803.82</ele>
        <time>2018-09-15T08:52:03Z</time>
      </trkpt>
      <trkpt lat="44.81396" lon="6.75045">
        <ele>2806.23</ele>
        <time>2018-09-15T08:52:21Z</time>
      </trkpt>
      <trkpt lat="44.81397" lon="6.75035">
        <ele>2808.15</ele>
        <time>2018-09-15T08:52:36Z</time>
      </trkpt>
      <trkpt lat="44.81396" lon="6.75021">
        <ele>2811.99</ele>
        <time>2018-09-15T08:53:00Z</time>
      </trkpt>
      <trkpt lat="44.81402" lon="6.75011">
        <ele>2815.84</ele>
        <time>2018-09-15T08:53:20Z</time>
      </trkpt>
      <trkpt lat="44.81407" lon="6.75004">
        <ele>2819.68</ele>
        <time>2018-09-15T08:53:45Z</time>
      </trkpt>
      <trkpt lat="44.81404" lon="6.74994">
        <ele>2823.05</ele>
        <time>2018-09-15T08:54:02Z</time>
      </trkpt>
      <trkpt lat="44.81408" lon="6.74988">
        <ele>2825.45</ele>
        <time>2018-09-15T08:54:34Z</time>
      </trkpt>
      <trkpt lat="44.81404" lon="6.74976">
        <ele>2828.34</ele>
        <time>2018-09-15T08:54:48Z</time>
      </trkpt>
      <trkpt lat="44.81403" lon="6.74964">
        <ele>2829.78</ele>
        <time>2018-09-15T08:55:03Z</time>
      </trkpt>
      <trkpt lat="44.81402" lon="6.74954">
        <ele>2831.7</ele>
        <time>2018-09-15T08:55:17Z</time>
      </trkpt>
      <trkpt lat="44.81397" lon="6.74944">
        <ele>2834.1</ele>
        <time>2018-09-15T08:55:30Z</time>
      </trkpt>
      <trkpt lat="44.81392" lon="6.74934">
        <ele>2836.03</ele>
        <time>2018-09-15T08:55:42Z</time>
      </trkpt>
      <trkpt lat="44.8139" lon="6.74921">
        <ele>2837.95</ele>
        <time>2018-09-15T08:55:55Z</time>
      </trkpt>
      <trkpt lat="44.81384" lon="6.74915">
        <ele>2838.91</ele>
        <time>2018-09-15T08:56:21Z</time>
      </trkpt>
      <trkpt lat="44.81376" lon="6.74906">
        <ele>2840.83</ele>
        <time>2018-09-15T08:56:33Z</time>
      </trkpt>
      <trkpt lat="44.81372" lon="6.74895">
        <ele>2842.28</ele>
        <time>2018-09-15T08:56:44Z</time>
      </trkpt>
      <trkpt lat="44.81366" lon="6.74882">
        <ele>2844.2</ele>
        <time>2018-09-15T08:56:56Z</time>
      </trkpt>
      <trkpt lat="44.8136" lon="6.7487">
        <ele>2846.6</ele>
        <time>2018-09-15T08:57:08Z</time>
      </trkpt>
      <trkpt lat="44.81352" lon="6.74865">
        <ele>2848.04</ele>
        <time>2018-09-15T08:57:19Z</time>
      </trkpt>
      <trkpt lat="44.81351" lon="6.74854">
        <ele>2849.97</ele>
        <time>2018-09-15T08:57:40Z</time>
      </trkpt>
      <trkpt lat="44.81362" lon="6.74851">
        <ele>2851.89</ele>
        <time>2018-09-15T08:57:52Z</time>
      </trkpt>
      <trkpt lat="44.81358" lon="6.74855">
        <ele>2851.89</ele>
        <time>2018-09-15T08:59:02Z</time>
      </trkpt>
      <trkpt lat="44.81348" lon="6.74858">
        <ele>2849.97</ele>
        <time>2018-09-15T08:59:13Z</time>
      </trkpt>
      <trkpt lat="44.81339" lon="6.74857">
        <ele>2849.48</ele>
        <time>2018-09-15T08:59:24Z</time>
      </trkpt>
      <trkpt lat="44.81331" lon="6.74863">
        <ele>2847.56</ele>
        <time>2018-09-15T08:59:45Z</time>
      </trkpt>
      <trkpt lat="44.81327" lon="6.74864">
        <ele>2845.16</ele>
        <time>2018-09-15T09:00:13Z</time>
      </trkpt>
      <trkpt lat="44.81318" lon="6.74863">
        <ele>2844.2</ele>
        <time>2018-09-15T09:00:22Z</time>
      </trkpt>
      <trkpt lat="44.81309" lon="6.7486">
        <ele>2843.72</ele>
        <time>2018-09-15T09:00:31Z</time>
      </trkpt>
      <trkpt lat="44.81301" lon="6.7486">
        <ele>2842.28</ele>
        <time>2018-09-15T09:00:48Z</time>
      </trkpt>
      <trkpt lat="44.81291" lon="6.74859">
        <ele>2839.87</ele>
        <time>2018-09-15T09:00:59Z</time>
      </trkpt>
      <trkpt lat="44.8128" lon="6.74859">
        <ele>2838.43</ele>
        <time>2018-09-15T09:01:07Z</time>
      </trkpt>
      <trkpt lat="44.81271" lon="6.7486">
        <ele>2838.91</ele>
        <time>2018-09-15T09:01:16Z</time>
      </trkpt>
      <trkpt lat="44.8126" lon="6.7486">
        <ele>2838.91</ele>
        <time>2018-09-15T09:01:25Z</time>
      </trkpt>
      <trkpt lat="44.81251" lon="6.74857">
        <ele>2839.87</ele>
        <time>2018-09-15T09:01:33Z</time>
      </trkpt>
      <trkpt lat="44.81241" lon="6.74859">
        <ele>2840.35</ele>
        <time>2018-09-15T09:01:43Z</time>
      </trkpt>
      <trkpt lat="44.81231" lon="6.74865">
        <ele>2840.35</ele>
        <time>2018-09-15T09:01:57Z</time>
      </trkpt>
      <trkpt lat="44.81222" lon="6.74872">
        <ele>2838.91</ele>
        <time>2018-09-15T09:02:05Z</time>
      </trkpt>
      <trkpt lat="44.81212" lon="6.74873">
        <ele>2839.87</ele>
        <time>2018-09-15T09:02:14Z</time>
      </trkpt>
      <trkpt lat="44.81203" lon="6.74873">
        <ele>2841.79</ele>
        <time>2018-09-15T09:02:25Z</time>
      </trkpt>
      <trkpt lat="44.81194" lon="6.74871">
        <ele>2844.2</ele>
        <time>2018-09-15T09:02:34Z</time>
      </trkpt>
      <trkpt lat="44.81184" lon="6.74868">
        <ele>2844.68</ele>
        <time>2018-09-15T09:02:43Z</time>
      </trkpt>
      <trkpt lat="44.81175" lon="6.74868">
        <ele>2845.16</ele>
        <time>2018-09-15T09:02:53Z</time>
      </trkpt>
      <trkpt lat="44.81166" lon="6.74864">
        <ele>2845.64</ele>
        <time>2018-09-15T09:03:02Z</time>
      </trkpt>
      <trkpt lat="44.81157" lon="6.74862">
        <ele>2845.16</ele>
        <time>2018-09-15T09:03:10Z</time>
      </trkpt>
      <trkpt lat="44.81148" lon="6.7486">
        <ele>2845.16</ele>
        <time>2018-09-15T09:03:18Z</time>
      </trkpt>
      <trkpt lat="44.81138" lon="6.74858">
        <ele>2843.72</ele>
        <time>2018-09-15T09:03:26Z</time>
      </trkpt>
      <trkpt lat="44.81129" lon="6.74854">
        <ele>2843.24</ele>
        <time>2018-09-15T09:03:34Z</time>
      </trkpt>
      <trkpt lat="44.8112" lon="6.74856">
        <ele>2842.28</ele>
        <time>2018-09-15T09:03:47Z</time>
      </trkpt>
      <trkpt lat="44.8111" lon="6.74855">
        <ele>2841.79</ele>
        <time>2018-09-15T09:03:55Z</time>
      </trkpt>
      <trkpt lat="44.81101" lon="6.74855">
        <ele>2840.35</ele>
        <time>2018-09-15T09:04:04Z</time>
      </trkpt>
      <trkpt lat="44.81094" lon="6.7485">
        <ele>2838.91</ele>
        <time>2018-09-15T09:05:33Z</time>
      </trkpt>
      <trkpt lat="44.81088" lon="6.74839">
        <ele>2836.99</ele>
        <time>2018-09-15T09:05:45Z</time>
      </trkpt>
      <trkpt lat="44.81084" lon="6.74826">
        <ele>2834.1</ele>
        <time>2018-09-15T09:05:55Z</time>
      </trkpt>
      <trkpt lat="44.8108" lon="6.74814">
        <ele>2833.62</ele>
        <time>2018-09-15T09:06:06Z</time>
      </trkpt>
      <trkpt lat="44.81084" lon="6.74819">
        <ele>2833.62</ele>
        <time>2018-09-15T09:06:50Z</time>
      </trkpt>
      <trkpt lat="44.81086" lon="6.7483">
        <ele>2834.58</ele>
        <time>2018-09-15T09:07:13Z</time>
      </trkpt>
      <trkpt lat="44.8109" lon="6.74843">
        <ele>2836.99</ele>
        <time>2018-09-15T09:07:26Z</time>
      </trkpt>
      <trkpt lat="44.81097" lon="6.74851">
        <ele>2839.39</ele>
        <time>2018-09-15T09:07:41Z</time>
      </trkpt>
      <trkpt lat="44.81106" lon="6.74853">
        <ele>2841.79</ele>
        <time>2018-09-15T09:08:02Z</time>
      </trkpt>
      <trkpt lat="44.81115" lon="6.74856">
        <ele>2843.24</ele>
        <time>2018-09-15T09:08:23Z</time>
      </trkpt>
      <trkpt lat="44.81125" lon="6.74854">
        <ele>2845.16</ele>
        <time>2018-09-15T09:08:37Z</time>
      </trkpt>
      <trkpt lat="44.81134" lon="6.74855">
        <ele>2846.12</ele>
        <time>2018-09-15T09:08:48Z</time>
      </trkpt>
      <trkpt lat="44.81145" lon="6.74858">
        <ele>2846.6</ele>
        <time>2018-09-15T09:08:59Z</time>
      </trkpt>
      <trkpt lat="44.81155" lon="6.7486">
        <ele>2847.56</ele>
        <time>2018-09-15T09:09:09Z</time>
      </trkpt>
      <trkpt lat="44.81165" lon="6.74862">
        <ele>2847.56</ele>
        <time>2018-09-15T09:09:37Z</time>
      </trkpt>
      <trkpt lat="44.81175" lon="6.74865">
        <ele>2848.04</ele>
        <time>2018-09-15T09:09:48Z</time>
      </trkpt>
      <trkpt lat="44.81181" lon="6.74868">
        <ele>2847.08</ele>
        <time>2018-09-15T09:10:53Z</time>
      </trkpt>
      <trkpt lat="44.81191" lon="6.74869">
        <ele>2846.6</ele>
        <time>2018-09-15T09:11:04Z</time>
      </trkpt>
      <trkpt lat="44.81199" lon="6.74872">
        <ele>2846.12</ele>
        <time>2018-09-15T09:11:17Z</time>
      </trkpt>
      <trkpt lat="44.8121" lon="6.74871">
        <ele>2843.72</ele>
        <time>2018-09-15T09:11:30Z</time>
      </trkpt>
      <trkpt lat="44.81221" lon="6.74869">
        <ele>2841.79</ele>
        <time>2018-09-15T09:11:45Z</time>
      </trkpt>
      <trkpt lat="44.81232" lon="6.74862">
        <ele>2843.72</ele>
        <time>2018-09-15T09:11:56Z</time>
      </trkpt>
      <trkpt lat="44.81242" lon="6.74857">
        <ele>2844.68</ele>
        <time>2018-09-15T09:12:08Z</time>
      </trkpt>
      <trkpt lat="44.81252" lon="6.74858">
        <ele>2844.2</ele>
        <time>2018-09-15T09:12:19Z</time>
      </trkpt>
      <trkpt lat="44.81265" lon="6.7486">
        <ele>2842.76</ele>
        <time>2018-09-15T09:12:33Z</time>
      </trkpt>
      <trkpt lat="44.81276" lon="6.74857">
        <ele>2842.28</ele>
        <time>2018-09-15T09:12:43Z</time>
      </trkpt>
      <trkpt lat="44.81286" lon="6.74858">
        <ele>2841.79</ele>
        <time>2018-09-15T09:12:51Z</time>
      </trkpt>
      <trkpt lat="44.81297" lon="6.7486">
        <ele>2843.72</ele>
        <time>2018-09-15T09:13:02Z</time>
      </trkpt>
      <trkpt lat="44.81307" lon="6.74859">
        <ele>2846.12</ele>
        <time>2018-09-15T09:13:14Z</time>
      </trkpt>
      <trkpt lat="44.81317" lon="6.74863">
        <ele>2847.56</ele>
        <time>2018-09-15T09:13:23Z</time>
      </trkpt>
      <trkpt lat="44.81329" lon="6.74866">
        <ele>2848.04</ele>
        <time>2018-09-15T09:13:37Z</time>
      </trkpt>
      <trkpt lat="44.81342" lon="6.74863">
        <ele>2850.93</ele>
        <time>2018-09-15T09:13:59Z</time>
      </trkpt>
      <trkpt lat="44.81353" lon="6.74865">
        <ele>2851.89</ele>
        <time>2018-09-15T09:14:15Z</time>
      </trkpt>
      <trkpt lat="44.81358" lon="6.74856">
        <ele>2853.33</ele>
        <time>2018-09-15T09:15:27Z</time>
      </trkpt>
      <trkpt lat="44.81351" lon="6.74856">
        <ele>2853.33</ele>
        <time>2018-09-15T09:15:50Z</time>
      </trkpt>
      <trkpt lat="44.8136" lon="6.74854">
        <ele>2854.29</ele>
        <time>2018-09-15T09:17:40Z</time>
      </trkpt>
      <trkpt lat="44.81359" lon="6.74852">
        <ele>2854.29</ele>
        <time>2018-09-15T09:20:20Z</time>
      </trkpt>
      <trkpt lat="44.81362" lon="6.74853">
        <ele>2854.77</ele>
        <time>2018-09-15T09:23:50Z</time>
      </trkpt>
      <trkpt lat="44.81359" lon="6.74863">
        <ele>2852.85</ele>
        <time>2018-09-15T09:26:31Z</time>
      </trkpt>
      <trkpt lat="44.81364" lon="6.74876">
        <ele>2850.45</ele>
        <time>2018-09-15T09:26:41Z</time>
      </trkpt>
      <trkpt lat="44.81369" lon="6.74887">
        <ele>2847.56</ele>
        <time>2018-09-15T09:26:48Z</time>
      </trkpt>
      <trkpt lat="44.81373" lon="6.74898">
        <ele>2846.12</ele>
        <time>2018-09-15T09:26:58Z</time>
      </trkpt>
      <trkpt lat="44.81379" lon="6.7491">
        <ele>2843.72</ele>
        <time>2018-09-15T09:27:07Z</time>
      </trkpt>
      <trkpt lat="44.81389" lon="6.74917">
        <ele>2842.28</ele>
        <time>2018-09-15T09:27:16Z</time>
      </trkpt>
      <trkpt lat="44.8139" lon="6.74928">
        <ele>2840.83</ele>
        <time>2018-09-15T09:27:36Z</time>
      </trkpt>
      <trkpt lat="44.81396" lon="6.74938">
        <ele>2839.87</ele>
        <time>2018-09-15T09:27:45Z</time>
      </trkpt>
      <trkpt lat="44.814" lon="6.74949">
        <ele>2838.43</ele>
        <time>2018-09-15T09:27:57Z</time>
      </trkpt>
      <trkpt lat="44.81404" lon="6.74962">
        <ele>2835.06</ele>
        <time>2018-09-15T09:28:06Z</time>
      </trkpt>
      <trkpt lat="44.81407" lon="6.74975">
        <ele>2832.18</ele>
        <time>2018-09-15T09:28:13Z</time>
      </trkpt>
      <trkpt lat="44.8141" lon="6.74988">
        <ele>2829.78</ele>
        <time>2018-09-15T09:28:20Z</time>
      </trkpt>
      <trkpt lat="44.81406" lon="6.74999">
        <ele>2827.37</ele>
        <time>2018-09-15T09:28:30Z</time>
      </trkpt>
      <trkpt lat="44.81402" lon="6.75007">
        <ele>2823.05</ele>
        <time>2018-09-15T09:28:39Z</time>
      </trkpt>
      <trkpt lat="44.81401" lon="6.75016">
        <ele>2819.68</ele>
        <time>2018-09-15T09:28:48Z</time>
      </trkpt>
      <trkpt lat="44.81396" lon="6.75027">
        <ele>2816.32</ele>
        <time>2018-09-15T09:28:59Z</time>
      </trkpt>
      <trkpt lat="44.81396" lon="6.7504">
        <ele>2811.99</ele>
        <time>2018-09-15T09:29:10Z</time>
      </trkpt>
      <trkpt lat="44.81393" lon="6.75052">
        <ele>2810.07</ele>
        <time>2018-09-15T09:29:23Z</time>
      </trkpt>
      <trkpt lat="44.81394" lon="6.75066">
        <ele>2807.19</ele>
        <time>2018-09-15T09:29:35Z</time>
      </trkpt>
      <trkpt lat="44.81394" lon="6.75079">
        <ele>2804.78</ele>
        <time>2018-09-15T09:29:45Z</time>
      </trkpt>
      <trkpt lat="44.8139" lon="6.75091">
        <ele>2801.42</ele>
        <time>2018-09-15T09:29:56Z</time>
      </trkpt>
      <trkpt lat="44.81387" lon="6.75104">
        <ele>2797.57</ele>
        <time>2018-09-15T09:30:05Z</time>
      </trkpt>
      <trkpt lat="44.81383" lon="6.75116">
        <ele>2795.17</ele>
        <time>2018-09-15T09:30:11Z</time>
      </trkpt>
      <trkpt lat="44.81379" lon="6.75129">
        <ele>2791.81</ele>
        <time>2018-09-15T09:30:17Z</time>
      </trkpt>
      <trkpt lat="44.81377" lon="6.75143">
        <ele>2788.92</ele>
        <time>2018-09-15T09:30:23Z</time>
      </trkpt>
      <trkpt lat="44.8137" lon="6.75143">
        <ele>2785.08</ele>
        <time>2018-09-15T09:30:34Z</time>
      </trkpt>
      <trkpt lat="44.81363" lon="6.75132">
        <ele>2782.67</ele>
        <time>2018-09-15T09:30:43Z</time>
      </trkpt>
      <trkpt lat="44.81357" lon="6.75122">
        <ele>2779.79</ele>
        <time>2018-09-15T09:30:51Z</time>
      </trkpt>
      <trkpt lat="44.81347" lon="6.75118">
        <ele>2776.42</ele>
        <time>2018-09-15T09:31:01Z</time>
      </trkpt>
      <trkpt lat="44.81339" lon="6.75109">
        <ele>2773.54</ele>
        <time>2018-09-15T09:31:10Z</time>
      </trkpt>
      <trkpt lat="44.8133" lon="6.75105">
        <ele>2770.18</ele>
        <time>2018-09-15T09:31:19Z</time>
      </trkpt>
      <trkpt lat="44.81322" lon="6.75101">
        <ele>2767.29</ele>
        <time>2018-09-15T09:31:27Z</time>
      </trkpt>
      <trkpt lat="44.81312" lon="6.75099">
        <ele>2763.45</ele>
        <time>2018-09-15T09:31:38Z</time>
      </trkpt>
      <trkpt lat="44.81301" lon="6.75098">
        <ele>2759.6</ele>
        <time>2018-09-15T09:31:49Z</time>
      </trkpt>
      <trkpt lat="44.81291" lon="6.75097">
        <ele>2756.72</ele>
        <time>2018-09-15T09:31:58Z</time>
      </trkpt>
      <trkpt lat="44.81285" lon="6.75102">
        <ele>2756.24</ele>
        <time>2018-09-15T09:32:09Z</time>
      </trkpt>
      <trkpt lat="44.81291" lon="6.75113">
        <ele>2752.87</ele>
        <time>2018-09-15T09:32:21Z</time>
      </trkpt>
      <trkpt lat="44.81288" lon="6.75126">
        <ele>2748.07</ele>
        <time>2018-09-15T09:32:33Z</time>
      </trkpt>
      <trkpt lat="44.81287" lon="6.75138">
        <ele>2745.18</ele>
        <time>2018-09-15T09:32:41Z</time>
      </trkpt>
      <trkpt lat="44.8128" lon="6.75143">
        <ele>2740.86</ele>
        <time>2018-09-15T09:32:50Z</time>
      </trkpt>
      <trkpt lat="44.81275" lon="6.75151">
        <ele>2737.97</ele>
        <time>2018-09-15T09:33:01Z</time>
      </trkpt>
      <trkpt lat="44.8127" lon="6.75158">
        <ele>2733.17</ele>
        <time>2018-09-15T09:33:14Z</time>
      </trkpt>
      <trkpt lat="44.81266" lon="6.75165">
        <ele>2730.28</ele>
        <time>2018-09-15T09:33:26Z</time>
      </trkpt>
      <trkpt lat="44.81262" lon="6.75174">
        <ele>2725.48</ele>
        <time>2018-09-15T09:33:41Z</time>
      </trkpt>
      <trkpt lat="44.81257" lon="6.75181">
        <ele>2723.55</ele>
        <time>2018-09-15T09:34:32Z</time>
      </trkpt>
      <trkpt lat="44.81252" lon="6.75189">
        <ele>2720.67</ele>
        <time>2018-09-15T09:34:42Z</time>
      </trkpt>
      <trkpt lat="44.81247" lon="6.75197">
        <ele>2715.86</ele>
        <time>2018-09-15T09:34:51Z</time>
      </trkpt>
      <trkpt lat="44.81236" lon="6.75198">
        <ele>2712.5</ele>
        <time>2018-09-15T09:35:09Z</time>
      </trkpt>
      <trkpt lat="44.81232" lon="6.75204">
        <ele>2709.61</ele>
        <time>2018-09-15T09:35:18Z</time>
      </trkpt>
      <trkpt lat="44.81224" lon="6.75211">
        <ele>2706.25</ele>
        <time>2018-09-15T09:35:29Z</time>
      </trkpt>
      <trkpt lat="44.81215" lon="6.7521">
        <ele>2701.92</ele>
        <time>2018-09-15T09:35:40Z</time>
      </trkpt>
      <trkpt lat="44.81214" lon="6.75217">
        <ele>2698.56</ele>
        <time>2018-09-15T09:35:52Z</time>
      </trkpt>
      <trkpt lat="44.81209" lon="6.75226">
        <ele>2694.23</ele>
        <time>2018-09-15T09:36:05Z</time>
      </trkpt>
      <trkpt lat="44.81207" lon="6.75239">
        <ele>2691.83</ele>
        <time>2018-09-15T09:36:18Z</time>
      </trkpt>
      <trkpt lat="44.81204" lon="6.75252">
        <ele>2688.46</ele>
        <time>2018-09-15T09:36:29Z</time>
      </trkpt>
      <trkpt lat="44.81199" lon="6.75261">
        <ele>2684.14</ele>
        <time>2018-09-15T09:36:40Z</time>
      </trkpt>
      <trkpt lat="44.81196" lon="6.75272">
        <ele>2680.29</ele>
        <time>2018-09-15T09:36:51Z</time>
      </trkpt>
      <trkpt lat="44.8119" lon="6.75282">
        <ele>2676.45</ele>
        <time>2018-09-15T09:37:04Z</time>
      </trkpt>
      <trkpt lat="44.81182" lon="6.75289">
        <ele>2672.12</ele>
        <time>2018-09-15T09:37:17Z</time>
      </trkpt>
      <trkpt lat="44.81175" lon="6.75298">
        <ele>2668.28</ele>
        <time>2018-09-15T09:37:33Z</time>
      </trkpt>
      <trkpt lat="44.81169" lon="6.75305">
        <ele>2664.43</ele>
        <time>2018-09-15T09:37:44Z</time>
      </trkpt>
      <trkpt lat="44.81162" lon="6.75316">
        <ele>2661.55</ele>
        <time>2018-09-15T09:37:54Z</time>
      </trkpt>
      <trkpt lat="44.81154" lon="6.75324">
        <ele>2657.7</ele>
        <time>2018-09-15T09:38:04Z</time>
      </trkpt>
      <trkpt lat="44.81147" lon="6.7533">
        <ele>2653.38</ele>
        <time>2018-09-15T09:38:18Z</time>
      </trkpt>
      <trkpt lat="44.81137" lon="6.75331">
        <ele>2650.49</ele>
        <time>2018-09-15T09:38:30Z</time>
      </trkpt>
      <trkpt lat="44.81129" lon="6.75326">
        <ele>2646.17</ele>
        <time>2018-09-15T09:38:45Z</time>
      </trkpt>
      <trkpt lat="44.81125" lon="6.75316">
        <ele>2641.84</ele>
        <time>2018-09-15T09:39:00Z</time>
      </trkpt>
      <trkpt lat="44.8112" lon="6.75306">
        <ele>2636.55</ele>
        <time>2018-09-15T09:39:15Z</time>
      </trkpt>
      <trkpt lat="44.8111" lon="6.75307">
        <ele>2632.71</ele>
        <time>2018-09-15T09:39:40Z</time>
      </trkpt>
      <trkpt lat="44.81102" lon="6.75302">
        <ele>2627.9</ele>
        <time>2018-09-15T09:39:54Z</time>
      </trkpt>
      <trkpt lat="44.81091" lon="6.75306">
        <ele>2623.58</ele>
        <time>2018-09-15T09:40:08Z</time>
      </trkpt>
      <trkpt lat="44.81084" lon="6.75304">
        <ele>2621.17</ele>
        <time>2018-09-15T09:40:25Z</time>
      </trkpt>
      <trkpt lat="44.81074" lon="6.75313">
        <ele>2616.85</ele>
        <time>2018-09-15T09:40:39Z</time>
      </trkpt>
      <trkpt lat="44.81065" lon="6.75317">
        <ele>2613.48</ele>
        <time>2018-09-15T09:40:51Z</time>
      </trkpt>
      <trkpt lat="44.81054" lon="6.75318">
        <ele>2610.12</ele>
        <time>2018-09-15T09:41:09Z</time>
      </trkpt>
      <trkpt lat="44.81047" lon="6.75318">
        <ele>2607.71</ele>
        <time>2018-09-15T09:41:20Z</time>
      </trkpt>
      <trkpt lat="44.81039" lon="6.75312">
        <ele>2604.35</ele>
        <time>2018-09-15T09:41:32Z</time>
      </trkpt>
      <trkpt lat="44.81031" lon="6.7531">
        <ele>2600.5</ele>
        <time>2018-09-15T09:41:43Z</time>
      </trkpt>
      <trkpt lat="44.81022" lon="6.75311">
        <ele>2597.62</ele>
        <time>2018-09-15T09:41:53Z</time>
      </trkpt>
      <trkpt lat="44.81012" lon="6.75312">
        <ele>2594.74</ele>
        <time>2018-09-15T09:42:03Z</time>
      </trkpt>
      <trkpt lat="44.81002" lon="6.75316">
        <ele>2592.81</ele>
        <time>2018-09-15T09:42:10Z</time>
      </trkpt>
      <trkpt lat="44.80992" lon="6.7532">
        <ele>2590.41</ele>
        <time>2018-09-15T09:42:18Z</time>
      </trkpt>
      <trkpt lat="44.80982" lon="6.75324">
        <ele>2588.49</ele>
        <time>2018-09-15T09:42:28Z</time>
      </trkpt>
      <trkpt lat="44.80973" lon="6.7533">
        <ele>2586.56</ele>
        <time>2018-09-15T09:42:38Z</time>
      </trkpt>
      <trkpt lat="44.80964" lon="6.75336">
        <ele>2585.6</ele>
        <time>2018-09-15T09:42:49Z</time>
      </trkpt>
      <trkpt lat="44.80957" lon="6.75336">
        <ele>2583.2</ele>
        <time>2018-09-15T09:44:45Z</time>
      </trkpt>
      <trkpt lat="44.8095" lon="6.75343">
        <ele>2581.76</ele>
        <time>2018-09-15T09:45:01Z</time>
      </trkpt>
      <trkpt lat="44.8094" lon="6.75347">
        <ele>2579.35</ele>
        <time>2018-09-15T09:45:15Z</time>
      </trkpt>
      <trkpt lat="44.80933" lon="6.75344">
        <ele>2576.47</ele>
        <time>2018-09-15T09:45:49Z</time>
      </trkpt>
      <trkpt lat="44.80924" lon="6.7536">
        <ele>2573.11</ele>
        <time>2018-09-15T09:46:04Z</time>
      </trkpt>
      <trkpt lat="44.80917" lon="6.75371">
        <ele>2570.22</ele>
        <time>2018-09-15T09:46:17Z</time>
      </trkpt>
      <trkpt lat="44.80912" lon="6.75385">
        <ele>2566.86</ele>
        <time>2018-09-15T09:46:33Z</time>
      </trkpt>
      <trkpt lat="44.80906" lon="6.75395">
        <ele>2563.01</ele>
        <time>2018-09-15T09:46:47Z</time>
      </trkpt>
      <trkpt lat="44.809" lon="6.75407">
        <ele>2560.13</ele>
        <time>2018-09-15T09:47:00Z</time>
      </trkpt>
      <trkpt lat="44.80895" lon="6.75417">
        <ele>2555.8</ele>
        <time>2018-09-15T09:47:14Z</time>
      </trkpt>
      <trkpt lat="44.80889" lon="6.7543">
        <ele>2552.92</ele>
        <time>2018-09-15T09:47:27Z</time>
      </trkpt>
      <trkpt lat="44.80887" lon="6.75442">
        <ele>2550.51</ele>
        <time>2018-09-15T09:47:39Z</time>
      </trkpt>
      <trkpt lat="44.80878" lon="6.75448">
        <ele>2547.63</ele>
        <time>2018-09-15T09:47:52Z</time>
      </trkpt>
      <trkpt lat="44.80874" lon="6.75454">
        <ele>2544.27</ele>
        <time>2018-09-15T09:48:09Z</time>
      </trkpt>
      <trkpt lat="44.80868" lon="6.75464">
        <ele>2540.42</ele>
        <time>2018-09-15T09:48:25Z</time>
      </trkpt>
      <trkpt lat="44.80862" lon="6.75473">
        <ele>2536.58</ele>
        <time>2018-09-15T09:48:42Z</time>
      </trkpt>
      <trkpt lat="44.80857" lon="6.75483">
        <ele>2533.21</ele>
        <time>2018-09-15T09:48:56Z</time>
      </trkpt>
      <trkpt lat="44.80852" lon="6.75496">
        <ele>2530.33</ele>
        <time>2018-09-15T09:49:10Z</time>
      </trkpt>
      <trkpt lat="44.80845" lon="6.75508">
        <ele>2527.44</ele>
        <time>2018-09-15T09:49:23Z</time>
      </trkpt>
      <trkpt lat="44.80836" lon="6.75515">
        <ele>2525.52</ele>
        <time>2018-09-15T09:49:34Z</time>
      </trkpt>
      <trkpt lat="44.80828" lon="6.7552">
        <ele>2524.08</ele>
        <time>2018-09-15T09:49:45Z</time>
      </trkpt>
      <trkpt lat="44.80819" lon="6.75528">
        <ele>2521.68</ele>
        <time>2018-09-15T09:49:57Z</time>
      </trkpt>
      <trkpt lat="44.80814" lon="6.75537">
        <ele>2518.79</ele>
        <time>2018-09-15T09:50:08Z</time>
      </trkpt>
      <trkpt lat="44.80806" lon="6.75544">
        <ele>2516.87</ele>
        <time>2018-09-15T09:50:20Z</time>
      </trkpt>
      <trkpt lat="44.80802" lon="6.7555">
        <ele>2515.91</ele>
        <time>2018-09-15T09:50:31Z</time>
      </trkpt>
      <trkpt lat="44.80796" lon="6.7556">
        <ele>2513.5</ele>
        <time>2018-09-15T09:50:42Z</time>
      </trkpt>
      <trkpt lat="44.80787" lon="6.75563">
        <ele>2512.06</ele>
        <time>2018-09-15T09:50:51Z</time>
      </trkpt>
      <trkpt lat="44.8078" lon="6.75567">
        <ele>2513.02</ele>
        <time>2018-09-15T09:51:30Z</time>
      </trkpt>
      <trkpt lat="44.8077" lon="6.75572">
        <ele>2513.02</ele>
        <time>2018-09-15T09:51:42Z</time>
      </trkpt>
      <trkpt lat="44.80761" lon="6.75575">
        <ele>2511.58</ele>
        <time>2018-09-15T09:51:55Z</time>
      </trkpt>
      <trkpt lat="44.8076" lon="6.7558">
        <ele>2509.66</ele>
        <time>2018-09-15T10:02:38Z</time>
      </trkpt>
      <trkpt lat="44.80764" lon="6.75574">
        <ele>2511.58</ele>
        <time>2018-09-15T10:19:00Z</time>
      </trkpt>
      <trkpt lat="44.80757" lon="6.7556">
        <ele>2512.06</ele>
        <time>2018-09-15T10:19:14Z</time>
      </trkpt>
      <trkpt lat="44.80749" lon="6.75553">
        <ele>2512.54</ele>
        <time>2018-09-15T10:19:27Z</time>
      </trkpt>
      <trkpt lat="44.8074" lon="6.75544">
        <ele>2513.02</ele>
        <time>2018-09-15T10:19:40Z</time>
      </trkpt>
      <trkpt lat="44.80735" lon="6.75538">
        <ele>2514.47</ele>
        <time>2018-09-15T10:19:55Z</time>
      </trkpt>
      <trkpt lat="44.80728" lon="6.75536">
        <ele>2517.35</ele>
        <time>2018-09-15T10:20:11Z</time>
      </trkpt>
      <trkpt lat="44.80722" lon="6.75535">
        <ele>2518.31</ele>
        <time>2018-09-15T10:20:32Z</time>
      </trkpt>
      <trkpt lat="44.80717" lon="6.75545">
        <ele>2517.35</ele>
        <time>2018-09-15T10:20:47Z</time>
      </trkpt>
      <trkpt lat="44.80709" lon="6.75554">
        <ele>2516.39</ele>
        <time>2018-09-15T10:20:59Z</time>
      </trkpt>
      <trkpt lat="44.80705" lon="6.75566">
        <ele>2515.43</ele>
        <time>2018-09-15T10:21:11Z</time>
      </trkpt>
      <trkpt lat="44.80705" lon="6.75576">
        <ele>2513.02</ele>
        <time>2018-09-15T10:21:27Z</time>
      </trkpt>
      <trkpt lat="44.80701" lon="6.75588">
        <ele>2510.62</ele>
        <time>2018-09-15T10:21:59Z</time>
      </trkpt>
      <trkpt lat="44.80695" lon="6.75601">
        <ele>2509.18</ele>
        <time>2018-09-15T10:22:12Z</time>
      </trkpt>
      <trkpt lat="44.80695" lon="6.75606">
        <ele>2507.74</ele>
        <time>2018-09-15T10:22:27Z</time>
      </trkpt>
      <trkpt lat="44.80704" lon="6.75611">
        <ele>2504.85</ele>
        <time>2018-09-15T10:22:44Z</time>
      </trkpt>
      <trkpt lat="44.80703" lon="6.75622">
        <ele>2504.37</ele>
        <time>2018-09-15T10:23:35Z</time>
      </trkpt>
      <trkpt lat="44.80701" lon="6.75635">
        <ele>2504.85</ele>
        <time>2018-09-15T10:23:46Z</time>
      </trkpt>
      <trkpt lat="44.807" lon="6.75647">
        <ele>2504.85</ele>
        <time>2018-09-15T10:23:57Z</time>
      </trkpt>
      <trkpt lat="44.80702" lon="6.75659">
        <ele>2504.37</ele>
        <time>2018-09-15T10:24:08Z</time>
      </trkpt>
      <trkpt lat="44.80703" lon="6.75666">
        <ele>2505.33</ele>
        <time>2018-09-15T10:25:26Z</time>
      </trkpt>
      <trkpt lat="44.80702" lon="6.75661">
        <ele>2505.81</ele>
        <time>2018-09-15T10:26:00Z</time>
      </trkpt>
      <trkpt lat="44.80693" lon="6.75663">
        <ele>2504.85</ele>
        <time>2018-09-15T10:26:24Z</time>
      </trkpt>
      <trkpt lat="44.80684" lon="6.75663">
        <ele>2504.37</ele>
        <time>2018-09-15T10:26:33Z</time>
      </trkpt>
      <trkpt lat="44.80675" lon="6.7566">
        <ele>2503.89</ele>
        <time>2018-09-15T10:26:42Z</time>
      </trkpt>
      <trkpt lat="44.80666" lon="6.75656">
        <ele>2503.89</ele>
        <time>2018-09-15T10:26:51Z</time>
      </trkpt>
      <trkpt lat="44.80658" lon="6.75651">
        <ele>2502.93</ele>
        <time>2018-09-15T10:27:00Z</time>
      </trkpt>
      <trkpt lat="44.80649" lon="6.75649">
        <ele>2502.45</ele>
        <time>2018-09-15T10:27:29Z</time>
      </trkpt>
      <trkpt lat="44.80637" lon="6.7565">
        <ele>2502.45</ele>
        <time>2018-09-15T10:27:38Z</time>
      </trkpt>
      <trkpt lat="44.80628" lon="6.75652">
        <ele>2499.08</ele>
        <time>2018-09-15T10:27:49Z</time>
      </trkpt>
      <trkpt lat="44.80617" lon="6.75654">
        <ele>2496.2</ele>
        <time>2018-09-15T10:28:00Z</time>
      </trkpt>
      <trkpt lat="44.80606" lon="6.75656">
        <ele>2492.36</ele>
        <time>2018-09-15T10:28:11Z</time>
      </trkpt>
      <trkpt lat="44.80596" lon="6.75657">
        <ele>2489.95</ele>
        <time>2018-09-15T10:28:19Z</time>
      </trkpt>
      <trkpt lat="44.80587" lon="6.75653">
        <ele>2486.59</ele>
        <time>2018-09-15T10:28:30Z</time>
      </trkpt>
      <trkpt lat="44.80578" lon="6.75652">
        <ele>2484.66</ele>
        <time>2018-09-15T10:28:41Z</time>
      </trkpt>
      <trkpt lat="44.80569" lon="6.75649">
        <ele>2481.78</ele>
        <time>2018-09-15T10:28:51Z</time>
      </trkpt>
      <trkpt lat="44.8056" lon="6.75644">
        <ele>2479.86</ele>
        <time>2018-09-15T10:29:00Z</time>
      </trkpt>
      <trkpt lat="44.8055" lon="6.75639">
        <ele>2476.97</ele>
        <time>2018-09-15T10:29:26Z</time>
      </trkpt>
      <trkpt lat="44.80542" lon="6.75639">
        <ele>2475.53</ele>
        <time>2018-09-15T10:29:36Z</time>
      </trkpt>
      <trkpt lat="44.80533" lon="6.75635">
        <ele>2473.13</ele>
        <time>2018-09-15T10:29:47Z</time>
      </trkpt>
      <trkpt lat="44.80523" lon="6.75629">
        <ele>2470.73</ele>
        <time>2018-09-15T10:29:57Z</time>
      </trkpt>
      <trkpt lat="44.80515" lon="6.75622">
        <ele>2469.76</ele>
        <time>2018-09-15T10:30:07Z</time>
      </trkpt>
      <trkpt lat="44.80507" lon="6.75615">
        <ele>2468.32</ele>
        <time>2018-09-15T10:30:35Z</time>
      </trkpt>
      <trkpt lat="44.805" lon="6.75607">
        <ele>2466.88</ele>
        <time>2018-09-15T10:30:44Z</time>
      </trkpt>
      <trkpt lat="44.80492" lon="6.75597">
        <ele>2465.44</ele>
        <time>2018-09-15T10:30:54Z</time>
      </trkpt>
      <trkpt lat="44.80485" lon="6.7559">
        <ele>2464.96</ele>
        <time>2018-09-15T10:31:04Z</time>
      </trkpt>
      <trkpt lat="44.80477" lon="6.75582">
        <ele>2462.07</ele>
        <time>2018-09-15T10:31:14Z</time>
      </trkpt>
      <trkpt lat="44.80469" lon="6.75576">
        <ele>2460.15</ele>
        <time>2018-09-15T10:31:24Z</time>
      </trkpt>
      <trkpt lat="44.80463" lon="6.75566">
        <ele>2457.27</ele>
        <time>2018-09-15T10:31:34Z</time>
      </trkpt>
      <trkpt lat="44.80454" lon="6.75562">
        <ele>2454.86</ele>
        <time>2018-09-15T10:31:45Z</time>
      </trkpt>
      <trkpt lat="44.80446" lon="6.75556">
        <ele>2452.46</ele>
        <time>2018-09-15T10:31:57Z</time>
      </trkpt>
      <trkpt lat="44.80436" lon="6.75546">
        <ele>2450.54</ele>
        <time>2018-09-15T10:32:17Z</time>
      </trkpt>
      <trkpt lat="44.80431" lon="6.75536">
        <ele>2447.65</ele>
        <time>2018-09-15T10:33:01Z</time>
      </trkpt>
      <trkpt lat="44.80427" lon="6.7553">
        <ele>2446.21</ele>
        <time>2018-09-15T10:33:19Z</time>
      </trkpt>
      <trkpt lat="44.80424" lon="6.7552">
        <ele>2443.33</ele>
        <time>2018-09-15T10:35:37Z</time>
      </trkpt>
      <trkpt lat="44.80421" lon="6.75508">
        <ele>2441.89</ele>
        <time>2018-09-15T10:35:48Z</time>
      </trkpt>
      <trkpt lat="44.80417" lon="6.75494">
        <ele>2439.48</ele>
        <time>2018-09-15T10:35:57Z</time>
      </trkpt>
      <trkpt lat="44.80411" lon="6.75483">
        <ele>2438.04</ele>
        <time>2018-09-15T10:36:07Z</time>
      </trkpt>
      <trkpt lat="44.80404" lon="6.75474">
        <ele>2435.64</ele>
        <time>2018-09-15T10:36:17Z</time>
      </trkpt>
      <trkpt lat="44.80396" lon="6.75466">
        <ele>2433.23</ele>
        <time>2018-09-15T10:36:31Z</time>
      </trkpt>
      <trkpt lat="44.80391" lon="6.75455">
        <ele>2430.83</ele>
        <time>2018-09-15T10:36:49Z</time>
      </trkpt>
      <trkpt lat="44.80391" lon="6.7544">
        <ele>2426.99</ele>
        <time>2018-09-15T10:37:02Z</time>
      </trkpt>
      <trkpt lat="44.8039" lon="6.75428">
        <ele>2424.58</ele>
        <time>2018-09-15T10:37:13Z</time>
      </trkpt>
      <trkpt lat="44.8039" lon="6.75415">
        <ele>2422.18</ele>
        <time>2018-09-15T10:37:23Z</time>
      </trkpt>
      <trkpt lat="44.80391" lon="6.754">
        <ele>2421.22</ele>
        <time>2018-09-15T10:37:33Z</time>
      </trkpt>
      <trkpt lat="44.80391" lon="6.75386">
        <ele>2421.22</ele>
        <time>2018-09-15T10:37:42Z</time>
      </trkpt>
      <trkpt lat="44.80389" lon="6.75378">
        <ele>2420.26</ele>
        <time>2018-09-15T10:37:57Z</time>
      </trkpt>
      <trkpt lat="44.8039" lon="6.75366">
        <ele>2419.3</ele>
        <time>2018-09-15T10:38:05Z</time>
      </trkpt>
      <trkpt lat="44.80388" lon="6.75358">
        <ele>2417.85</ele>
        <time>2018-09-15T10:38:14Z</time>
      </trkpt>
      <trkpt lat="44.80384" lon="6.7535">
        <ele>2415.45</ele>
        <time>2018-09-15T10:38:25Z</time>
      </trkpt>
      <trkpt lat="44.80378" lon="6.7534">
        <ele>2413.53</ele>
        <time>2018-09-15T10:38:34Z</time>
      </trkpt>
      <trkpt lat="44.80374" lon="6.75328">
        <ele>2412.57</ele>
        <time>2018-09-15T10:38:42Z</time>
      </trkpt>
      <trkpt lat="44.80372" lon="6.75313">
        <ele>2412.57</ele>
        <time>2018-09-15T10:38:51Z</time>
      </trkpt>
      <trkpt lat="44.80369" lon="6.75299">
        <ele>2411.6</ele>
        <time>2018-09-15T10:39:00Z</time>
      </trkpt>
      <trkpt lat="44.80368" lon="6.75286">
        <ele>2410.16</ele>
        <time>2018-09-15T10:39:09Z</time>
      </trkpt>
      <trkpt lat="44.80364" lon="6.75273">
        <ele>2409.68</ele>
        <time>2018-09-15T10:39:19Z</time>
      </trkpt>
      <trkpt lat="44.8036" lon="6.75261">
        <ele>2409.68</ele>
        <time>2018-09-15T10:39:29Z</time>
      </trkpt>
      <trkpt lat="44.80355" lon="6.75249">
        <ele>2408.72</ele>
        <time>2018-09-15T10:39:38Z</time>
      </trkpt>
      <trkpt lat="44.80355" lon="6.75235">
        <ele>2407.28</ele>
        <time>2018-09-15T10:39:47Z</time>
      </trkpt>
      <trkpt lat="44.80361" lon="6.75224">
        <ele>2406.32</ele>
        <time>2018-09-15T10:39:58Z</time>
      </trkpt>
      <trkpt lat="44.80363" lon="6.75211">
        <ele>2404.88</ele>
        <time>2018-09-15T10:40:09Z</time>
      </trkpt>
      <trkpt lat="44.8036" lon="6.75201">
        <ele>2401.51</ele>
        <time>2018-09-15T10:40:19Z</time>
      </trkpt>
      <trkpt lat="44.80354" lon="6.75189">
        <ele>2399.59</ele>
        <time>2018-09-15T10:40:30Z</time>
      </trkpt>
      <trkpt lat="44.80345" lon="6.75189">
        <ele>2398.15</ele>
        <time>2018-09-15T10:40:41Z</time>
      </trkpt>
      <trkpt lat="44.80336" lon="6.75183">
        <ele>2398.15</ele>
        <time>2018-09-15T10:40:51Z</time>
      </trkpt>
      <trkpt lat="44.80332" lon="6.75168">
        <ele>2396.7</ele>
        <time>2018-09-15T10:41:01Z</time>
      </trkpt>
      <trkpt lat="44.80328" lon="6.75157">
        <ele>2396.22</ele>
        <time>2018-09-15T10:41:10Z</time>
      </trkpt>
      <trkpt lat="44.80322" lon="6.75149">
        <ele>2394.78</ele>
        <time>2018-09-15T10:41:20Z</time>
      </trkpt>
      <trkpt lat="44.80318" lon="6.7514">
        <ele>2391.9</ele>
        <time>2018-09-15T10:41:29Z</time>
      </trkpt>
      <trkpt lat="44.8031" lon="6.75133">
        <ele>2389.97</ele>
        <time>2018-09-15T10:41:39Z</time>
      </trkpt>
      <trkpt lat="44.80301" lon="6.75128">
        <ele>2389.01</ele>
        <time>2018-09-15T10:41:48Z</time>
      </trkpt>
      <trkpt lat="44.80292" lon="6.75122">
        <ele>2388.53</ele>
        <time>2018-09-15T10:41:57Z</time>
      </trkpt>
      <trkpt lat="44.80284" lon="6.75113">
        <ele>2387.57</ele>
        <time>2018-09-15T10:42:06Z</time>
      </trkpt>
      <trkpt lat="44.80275" lon="6.7511">
        <ele>2386.13</ele>
        <time>2018-09-15T10:42:15Z</time>
      </trkpt>
      <trkpt lat="44.80265" lon="6.75107">
        <ele>2384.69</ele>
        <time>2018-09-15T10:42:24Z</time>
      </trkpt>
      <trkpt lat="44.80257" lon="6.75104">
        <ele>2382.76</ele>
        <time>2018-09-15T10:42:34Z</time>
      </trkpt>
      <trkpt lat="44.80248" lon="6.75099">
        <ele>2380.36</ele>
        <time>2018-09-15T10:42:46Z</time>
      </trkpt>
      <trkpt lat="44.8024" lon="6.75098">
        <ele>2378.92</ele>
        <time>2018-09-15T10:42:57Z</time>
      </trkpt>
      <trkpt lat="44.80234" lon="6.75088">
        <ele>2377</ele>
        <time>2018-09-15T10:43:06Z</time>
      </trkpt>
      <trkpt lat="44.80225" lon="6.75081">
        <ele>2375.55</ele>
        <time>2018-09-15T10:43:17Z</time>
      </trkpt>
      <trkpt lat="44.80217" lon="6.75079">
        <ele>2374.11</ele>
        <time>2018-09-15T10:43:28Z</time>
      </trkpt>
      <trkpt lat="44.80211" lon="6.75068">
        <ele>2374.59</ele>
        <time>2018-09-15T10:43:38Z</time>
      </trkpt>
      <trkpt lat="44.80202" lon="6.75063">
        <ele>2373.63</ele>
        <time>2018-09-15T10:43:48Z</time>
      </trkpt>
      <trkpt lat="44.80195" lon="6.75055">
        <ele>2372.67</ele>
        <time>2018-09-15T10:43:58Z</time>
      </trkpt>
      <trkpt lat="44.8019" lon="6.75043">
        <ele>2373.15</ele>
        <time>2018-09-15T10:44:08Z</time>
      </trkpt>
      <trkpt lat="44.80186" lon="6.7503">
        <ele>2372.19</ele>
        <time>2018-09-15T10:44:18Z</time>
      </trkpt>
      <trkpt lat="44.80182" lon="6.75017">
        <ele>2371.23</ele>
        <time>2018-09-15T10:44:31Z</time>
      </trkpt>
      <trkpt lat="44.80178" lon="6.75004">
        <ele>2371.71</ele>
        <time>2018-09-15T10:44:41Z</time>
      </trkpt>
      <trkpt lat="44.80176" lon="6.74992">
        <ele>2372.19</ele>
        <time>2018-09-15T10:44:50Z</time>
      </trkpt>
      <trkpt lat="44.80172" lon="6.74982">
        <ele>2371.23</ele>
        <time>2018-09-15T10:45:07Z</time>
      </trkpt>
      <trkpt lat="44.80172" lon="6.74968">
        <ele>2369.79</ele>
        <time>2018-09-15T10:45:18Z</time>
      </trkpt>
      <trkpt lat="44.80176" lon="6.74957">
        <ele>2366.9</ele>
        <time>2018-09-15T10:45:28Z</time>
      </trkpt>
      <trkpt lat="44.80181" lon="6.74947">
        <ele>2363.54</ele>
        <time>2018-09-15T10:45:39Z</time>
      </trkpt>
      <trkpt lat="44.80181" lon="6.74934">
        <ele>2360.65</ele>
        <time>2018-09-15T10:45:50Z</time>
      </trkpt>
      <trkpt lat="44.80177" lon="6.74922">
        <ele>2359.69</ele>
        <time>2018-09-15T10:46:00Z</time>
      </trkpt>
      <trkpt lat="44.80171" lon="6.74911">
        <ele>2358.25</ele>
        <time>2018-09-15T10:46:09Z</time>
      </trkpt>
      <trkpt lat="44.80168" lon="6.749">
        <ele>2356.81</ele>
        <time>2018-09-15T10:46:54Z</time>
      </trkpt>
      <trkpt lat="44.80164" lon="6.74886">
        <ele>2353.93</ele>
        <time>2018-09-15T10:47:04Z</time>
      </trkpt>
      <trkpt lat="44.8016" lon="6.74872">
        <ele>2352.48</ele>
        <time>2018-09-15T10:47:15Z</time>
      </trkpt>
      <trkpt lat="44.80155" lon="6.7486">
        <ele>2350.56</ele>
        <time>2018-09-15T10:47:25Z</time>
      </trkpt>
      <trkpt lat="44.80152" lon="6.74848">
        <ele>2350.08</ele>
        <time>2018-09-15T10:48:17Z</time>
      </trkpt>
      <trkpt lat="44.80144" lon="6.74835">
        <ele>2349.12</ele>
        <time>2018-09-15T10:48:27Z</time>
      </trkpt>
      <trkpt lat="44.80139" lon="6.74824">
        <ele>2349.6</ele>
        <time>2018-09-15T10:48:43Z</time>
      </trkpt>
      <trkpt lat="44.80133" lon="6.74811">
        <ele>2349.12</ele>
        <time>2018-09-15T10:48:53Z</time>
      </trkpt>
      <trkpt lat="44.80126" lon="6.74799">
        <ele>2348.64</ele>
        <time>2018-09-15T10:49:03Z</time>
      </trkpt>
      <trkpt lat="44.8012" lon="6.74787">
        <ele>2347.68</ele>
        <time>2018-09-15T10:49:13Z</time>
      </trkpt>
      <trkpt lat="44.80119" lon="6.74771">
        <ele>2348.16</ele>
        <time>2018-09-15T10:49:24Z</time>
      </trkpt>
      <trkpt lat="44.80117" lon="6.74756">
        <ele>2348.64</ele>
        <time>2018-09-15T10:49:35Z</time>
      </trkpt>
      <trkpt lat="44.80114" lon="6.74744">
        <ele>2348.64</ele>
        <time>2018-09-15T10:49:46Z</time>
      </trkpt>
      <trkpt lat="44.80107" lon="6.7473">
        <ele>2347.68</ele>
        <time>2018-09-15T10:49:58Z</time>
      </trkpt>
      <trkpt lat="44.80099" lon="6.74716">
        <ele>2347.2</ele>
        <time>2018-09-15T10:50:10Z</time>
      </trkpt>
      <trkpt lat="44.80093" lon="6.74704">
        <ele>2347.68</ele>
        <time>2018-09-15T10:50:21Z</time>
      </trkpt>
      <trkpt lat="44.80086" lon="6.74693">
        <ele>2348.16</ele>
        <time>2018-09-15T10:50:34Z</time>
      </trkpt>
      <trkpt lat="44.8008" lon="6.74684">
        <ele>2349.12</ele>
        <time>2018-09-15T10:50:47Z</time>
      </trkpt>
      <trkpt lat="44.80073" lon="6.74672">
        <ele>2349.12</ele>
        <time>2018-09-15T10:51:01Z</time>
      </trkpt>
      <trkpt lat="44.80067" lon="6.7466">
        <ele>2349.6</ele>
        <time>2018-09-15T10:51:21Z</time>
      </trkpt>
      <trkpt lat="44.80066" lon="6.74645">
        <ele>2349.6</ele>
        <time>2018-09-15T10:54:10Z</time>
      </trkpt>
      <trkpt lat="44.80059" lon="6.74645">
        <ele>2349.12</ele>
        <time>2018-09-15T10:54:42Z</time>
      </trkpt>
      <trkpt lat="44.80062" lon="6.74631">
        <ele>2349.12</ele>
        <time>2018-09-15T10:55:07Z</time>
      </trkpt>
      <trkpt lat="44.80065" lon="6.74615">
        <ele>2347.2</ele>
        <time>2018-09-15T10:55:24Z</time>
      </trkpt>
      <trkpt lat="44.8007" lon="6.74602">
        <ele>2345.75</ele>
        <time>2018-09-15T10:55:41Z</time>
      </trkpt>
      <trkpt lat="44.80079" lon="6.74591">
        <ele>2344.31</ele>
        <time>2018-09-15T10:56:03Z</time>
      </trkpt>
      <trkpt lat="44.80088" lon="6.74576">
        <ele>2342.39</ele>
        <time>2018-09-15T10:56:20Z</time>
      </trkpt>
      <trkpt lat="44.80099" lon="6.74565">
        <ele>2339.02</ele>
        <time>2018-09-15T10:56:32Z</time>
      </trkpt>
      <trkpt lat="44.80111" lon="6.74556">
        <ele>2337.1</ele>
        <time>2018-09-15T10:56:47Z</time>
      </trkpt>
      <trkpt lat="44.80123" lon="6.7455">
        <ele>2334.22</ele>
        <time>2018-09-15T10:57:02Z</time>
      </trkpt>
      <trkpt lat="44.80134" lon="6.74543">
        <ele>2331.81</ele>
        <time>2018-09-15T10:57:14Z</time>
      </trkpt>
      <trkpt lat="44.80145" lon="6.74535">
        <ele>2329.89</ele>
        <time>2018-09-15T10:57:28Z</time>
      </trkpt>
      <trkpt lat="44.80154" lon="6.74524">
        <ele>2326.53</ele>
        <time>2018-09-15T10:57:39Z</time>
      </trkpt>
      <trkpt lat="44.80161" lon="6.74515">
        <ele>2324.12</ele>
        <time>2018-09-15T10:57:50Z</time>
      </trkpt>
      <trkpt lat="44.80168" lon="6.74506">
        <ele>2322.68</ele>
        <time>2018-09-15T10:58:00Z</time>
      </trkpt>
      <trkpt lat="44.80177" lon="6.74497">
        <ele>2321.24</ele>
        <time>2018-09-15T10:58:11Z</time>
      </trkpt>
      <trkpt lat="44.80188" lon="6.74486">
        <ele>2317.88</ele>
        <time>2018-09-15T10:58:25Z</time>
      </trkpt>
      <trkpt lat="44.80198" lon="6.74477">
        <ele>2316.43</ele>
        <time>2018-09-15T10:58:36Z</time>
      </trkpt>
      <trkpt lat="44.80207" lon="6.74467">
        <ele>2314.51</ele>
        <time>2018-09-15T10:58:46Z</time>
      </trkpt>
      <trkpt lat="44.80215" lon="6.74455">
        <ele>2312.59</ele>
        <time>2018-09-15T10:58:56Z</time>
      </trkpt>
      <trkpt lat="44.80224" lon="6.74447">
        <ele>2310.67</ele>
        <time>2018-09-15T10:59:06Z</time>
      </trkpt>
      <trkpt lat="44.80235" lon="6.7444">
        <ele>2309.22</ele>
        <time>2018-09-15T10:59:17Z</time>
      </trkpt>
      <trkpt lat="44.80246" lon="6.74436">
        <ele>2307.78</ele>
        <time>2018-09-15T10:59:28Z</time>
      </trkpt>
      <trkpt lat="44.80257" lon="6.74429">
        <ele>2305.38</ele>
        <time>2018-09-15T10:59:40Z</time>
      </trkpt>
      <trkpt lat="44.80267" lon="6.74422">
        <ele>2303.94</ele>
        <time>2018-09-15T10:59:50Z</time>
      </trkpt>
      <trkpt lat="44.80276" lon="6.74414">
        <ele>2301.53</ele>
        <time>2018-09-15T11:00:00Z</time>
      </trkpt>
      <trkpt lat="44.80284" lon="6.74406">
        <ele>2300.09</ele>
        <time>2018-09-15T11:00:09Z</time>
      </trkpt>
      <trkpt lat="44.80291" lon="6.74396">
        <ele>2298.17</ele>
        <time>2018-09-15T11:00:19Z</time>
      </trkpt>
      <trkpt lat="44.80297" lon="6.74385">
        <ele>2296.73</ele>
        <time>2018-09-15T11:00:29Z</time>
      </trkpt>
      <trkpt lat="44.80293" lon="6.74372">
        <ele>2295.77</ele>
        <time>2018-09-15T11:00:38Z</time>
      </trkpt>
      <trkpt lat="44.80293" lon="6.74357">
        <ele>2294.32</ele>
        <time>2018-09-15T11:00:49Z</time>
      </trkpt>
      <trkpt lat="44.80295" lon="6.7434">
        <ele>2292.88</ele>
        <time>2018-09-15T11:00:58Z</time>
      </trkpt>
      <trkpt lat="44.80296" lon="6.74323">
        <ele>2292.4</ele>
        <time>2018-09-15T11:01:08Z</time>
      </trkpt>
      <trkpt lat="44.80299" lon="6.7431">
        <ele>2292.4</ele>
        <time>2018-09-15T11:01:17Z</time>
      </trkpt>
      <trkpt lat="44.80306" lon="6.74299">
        <ele>2291.92</ele>
        <time>2018-09-15T11:01:44Z</time>
      </trkpt>
      <trkpt lat="44.80313" lon="6.74288">
        <ele>2290.96</ele>
        <time>2018-09-15T11:01:53Z</time>
      </trkpt>
      <trkpt lat="44.8032" lon="6.74279">
        <ele>2290</ele>
        <time>2018-09-15T11:02:02Z</time>
      </trkpt>
      <trkpt lat="44.80326" lon="6.74267">
        <ele>2288.56</ele>
        <time>2018-09-15T11:02:11Z</time>
      </trkpt>
      <trkpt lat="44.80332" lon="6.74255">
        <ele>2287.11</ele>
        <time>2018-09-15T11:02:21Z</time>
      </trkpt>
      <trkpt lat="44.80338" lon="6.74243">
        <ele>2285.19</ele>
        <time>2018-09-15T11:02:30Z</time>
      </trkpt>
      <trkpt lat="44.8034" lon="6.7423">
        <ele>2284.71</ele>
        <time>2018-09-15T11:02:39Z</time>
      </trkpt>
      <trkpt lat="44.80343" lon="6.74216">
        <ele>2283.27</ele>
        <time>2018-09-15T11:02:48Z</time>
      </trkpt>
      <trkpt lat="44.80344" lon="6.74201">
        <ele>2282.79</ele>
        <time>2018-09-15T11:02:58Z</time>
      </trkpt>
      <trkpt lat="44.80346" lon="6.74185">
        <ele>2281.83</ele>
        <time>2018-09-15T11:03:08Z</time>
      </trkpt>
      <trkpt lat="44.8035" lon="6.74169">
        <ele>2280.87</ele>
        <time>2018-09-15T11:03:18Z</time>
      </trkpt>
      <trkpt lat="44.80353" lon="6.74154">
        <ele>2279.9</ele>
        <time>2018-09-15T11:03:27Z</time>
      </trkpt>
      <trkpt lat="44.80357" lon="6.74139">
        <ele>2278.94</ele>
        <time>2018-09-15T11:03:36Z</time>
      </trkpt>
      <trkpt lat="44.80363" lon="6.74126">
        <ele>2278.94</ele>
        <time>2018-09-15T11:03:46Z</time>
      </trkpt>
      <trkpt lat="44.8037" lon="6.74113">
        <ele>2278.46</ele>
        <time>2018-09-15T11:03:57Z</time>
      </trkpt>
      <trkpt lat="44.80376" lon="6.741">
        <ele>2277.98</ele>
        <time>2018-09-15T11:04:07Z</time>
      </trkpt>
      <trkpt lat="44.80382" lon="6.74087">
        <ele>2277.02</ele>
        <time>2018-09-15T11:04:16Z</time>
      </trkpt>
      <trkpt lat="44.80382" lon="6.74074">
        <ele>2275.58</ele>
        <time>2018-09-15T11:04:25Z</time>
      </trkpt>
      <trkpt lat="44.80382" lon="6.7406">
        <ele>2274.62</ele>
        <time>2018-09-15T11:04:34Z</time>
      </trkpt>
      <trkpt lat="44.80388" lon="6.74043">
        <ele>2274.14</ele>
        <time>2018-09-15T11:04:46Z</time>
      </trkpt>
      <trkpt lat="44.80397" lon="6.74032">
        <ele>2273.66</ele>
        <time>2018-09-15T11:04:58Z</time>
      </trkpt>
      <trkpt lat="44.80402" lon="6.74017">
        <ele>2272.21</ele>
        <time>2018-09-15T11:05:09Z</time>
      </trkpt>
      <trkpt lat="44.80409" lon="6.74002">
        <ele>2271.73</ele>
        <time>2018-09-15T11:05:19Z</time>
      </trkpt>
      <trkpt lat="44.80416" lon="6.73993">
        <ele>2270.29</ele>
        <time>2018-09-15T11:05:29Z</time>
      </trkpt>
      <trkpt lat="44.80423" lon="6.73979">
        <ele>2269.33</ele>
        <time>2018-09-15T11:05:39Z</time>
      </trkpt>
      <trkpt lat="44.8043" lon="6.73964">
        <ele>2268.37</ele>
        <time>2018-09-15T11:05:50Z</time>
      </trkpt>
      <trkpt lat="44.80438" lon="6.7395">
        <ele>2266.93</ele>
        <time>2018-09-15T11:06:03Z</time>
      </trkpt>
      <trkpt lat="44.80446" lon="6.73931">
        <ele>2265.96</ele>
        <time>2018-09-15T11:06:16Z</time>
      </trkpt>
      <trkpt lat="44.80453" lon="6.73912">
        <ele>2264.52</ele>
        <time>2018-09-15T11:06:30Z</time>
      </trkpt>
      <trkpt lat="44.80461" lon="6.73895">
        <ele>2263.08</ele>
        <time>2018-09-15T11:06:42Z</time>
      </trkpt>
      <trkpt lat="44.80461" lon="6.73879">
        <ele>2258.75</ele>
        <time>2018-09-15T11:06:57Z</time>
      </trkpt>
      <trkpt lat="44.80466" lon="6.73864">
        <ele>2255.39</ele>
        <time>2018-09-15T11:07:09Z</time>
      </trkpt>
      <trkpt lat="44.80471" lon="6.73838">
        <ele>2253.47</ele>
        <time>2018-09-15T11:07:55Z</time>
      </trkpt>
      <trkpt lat="44.80482" lon="6.7383">
        <ele>2252.99</ele>
        <time>2018-09-15T11:08:11Z</time>
      </trkpt>
      <trkpt lat="44.80493" lon="6.7382">
        <ele>2252.99</ele>
        <time>2018-09-15T11:08:23Z</time>
      </trkpt>
      <trkpt lat="44.80506" lon="6.7381">
        <ele>2251.54</ele>
        <time>2018-09-15T11:08:36Z</time>
      </trkpt>
      <trkpt lat="44.80516" lon="6.73802">
        <ele>2250.1</ele>
        <time>2018-09-15T11:08:49Z</time>
      </trkpt>
      <trkpt lat="44.80527" lon="6.7379">
        <ele>2248.66</ele>
        <time>2018-09-15T11:09:02Z</time>
      </trkpt>
      <trkpt lat="44.80542" lon="6.73777">
        <ele>2248.18</ele>
        <time>2018-09-15T11:09:16Z</time>
      </trkpt>
      <trkpt lat="44.80555" lon="6.73768">
        <ele>2247.22</ele>
        <time>2018-09-15T11:09:32Z</time>
      </trkpt>
      <trkpt lat="44.80568" lon="6.73764">
        <ele>2247.22</ele>
        <time>2018-09-15T11:09:45Z</time>
      </trkpt>
      <trkpt lat="44.80588" lon="6.73756">
        <ele>2245.78</ele>
        <time>2018-09-15T11:09:59Z</time>
      </trkpt>
      <trkpt lat="44.80602" lon="6.73744">
        <ele>2244.82</ele>
        <time>2018-09-15T11:10:12Z</time>
      </trkpt>
      <trkpt lat="44.80615" lon="6.73732">
        <ele>2243.37</ele>
        <time>2018-09-15T11:10:26Z</time>
      </trkpt>
      <trkpt lat="44.80627" lon="6.73721">
        <ele>2240.49</ele>
        <time>2018-09-15T11:10:39Z</time>
      </trkpt>
      <trkpt lat="44.80636" lon="6.73714">
        <ele>2239.53</ele>
        <time>2018-09-15T11:10:50Z</time>
      </trkpt>
      <trkpt lat="44.80646" lon="6.73702">
        <ele>2239.05</ele>
        <time>2018-09-15T11:11:02Z</time>
      </trkpt>
      <trkpt lat="44.80655" lon="6.73689">
        <ele>2238.09</ele>
        <time>2018-09-15T11:11:13Z</time>
      </trkpt>
      <trkpt lat="44.80664" lon="6.73681">
        <ele>2236.16</ele>
        <time>2018-09-15T11:11:23Z</time>
      </trkpt>
      <trkpt lat="44.80673" lon="6.73674">
        <ele>2234.72</ele>
        <time>2018-09-15T11:11:35Z</time>
      </trkpt>
      <trkpt lat="44.80682" lon="6.73656">
        <ele>2234.24</ele>
        <time>2018-09-15T11:11:48Z</time>
      </trkpt>
      <trkpt lat="44.80689" lon="6.73643">
        <ele>2232.8</ele>
        <time>2018-09-15T11:12:00Z</time>
      </trkpt>
      <trkpt lat="44.80698" lon="6.73631">
        <ele>2230.88</ele>
        <time>2018-09-15T11:12:10Z</time>
      </trkpt>
      <trkpt lat="44.8071" lon="6.73626">
        <ele>2230.88</ele>
        <time>2018-09-15T11:12:19Z</time>
      </trkpt>
      <trkpt lat="44.80721" lon="6.73621">
        <ele>2230.4</ele>
        <time>2018-09-15T11:12:29Z</time>
      </trkpt>
      <trkpt lat="44.80731" lon="6.73616">
        <ele>2229.92</ele>
        <time>2018-09-15T11:12:39Z</time>
      </trkpt>
      <trkpt lat="44.80738" lon="6.73609">
        <ele>2228.47</ele>
        <time>2018-09-15T11:12:55Z</time>
      </trkpt>
      <trkpt lat="44.80737" lon="6.73596">
        <ele>2228.95</ele>
        <time>2018-09-15T11:13:34Z</time>
      </trkpt>
      <trkpt lat="44.80745" lon="6.73583">
        <ele>2230.4</ele>
        <time>2018-09-15T11:14:01Z</time>
      </trkpt>
      <trkpt lat="44.80741" lon="6.73593">
        <ele>2230.4</ele>
        <time>2018-09-15T11:15:36Z</time>
      </trkpt>
      <trkpt lat="44.80743" lon="6.73577">
        <ele>2227.51</ele>
        <time>2018-09-15T11:15:51Z</time>
      </trkpt>
      <trkpt lat="44.80735" lon="6.73573">
        <ele>2223.19</ele>
        <time>2018-09-15T11:16:05Z</time>
      </trkpt>
      <trkpt lat="44.80724" lon="6.73574">
        <ele>2220.3</ele>
        <time>2018-09-15T11:16:16Z</time>
      </trkpt>
      <trkpt lat="44.80724" lon="6.73561">
        <ele>2216.94</ele>
        <time>2018-09-15T11:16:28Z</time>
      </trkpt>
      <trkpt lat="44.80714" lon="6.73561">
        <ele>2214.53</ele>
        <time>2018-09-15T11:16:41Z</time>
      </trkpt>
      <trkpt lat="44.80699" lon="6.73554">
        <ele>2211.17</ele>
        <time>2018-09-15T11:17:00Z</time>
      </trkpt>
      <trkpt lat="44.80689" lon="6.73543">
        <ele>2207.81</ele>
        <time>2018-09-15T11:17:12Z</time>
      </trkpt>
      <trkpt lat="44.80677" lon="6.73547">
        <ele>2206.36</ele>
        <time>2018-09-15T11:17:24Z</time>
      </trkpt>
      <trkpt lat="44.80666" lon="6.73538">
        <ele>2202.04</ele>
        <time>2018-09-15T11:17:41Z</time>
      </trkpt>
      <trkpt lat="44.80658" lon="6.73519">
        <ele>2199.63</ele>
        <time>2018-09-15T11:17:57Z</time>
      </trkpt>
      <trkpt lat="44.80651" lon="6.73501">
        <ele>2196.75</ele>
        <time>2018-09-15T11:18:10Z</time>
      </trkpt>
      <trkpt lat="44.80653" lon="6.73483">
        <ele>2194.83</ele>
        <time>2018-09-15T11:18:23Z</time>
      </trkpt>
      <trkpt lat="44.80646" lon="6.73472">
        <ele>2190.98</ele>
        <time>2018-09-15T11:18:37Z</time>
      </trkpt>
      <trkpt lat="44.80635" lon="6.73463">
        <ele>2186.66</ele>
        <time>2018-09-15T11:18:53Z</time>
      </trkpt>
      <trkpt lat="44.80624" lon="6.73454">
        <ele>2183.29</ele>
        <time>2018-09-15T11:19:05Z</time>
      </trkpt>
      <trkpt lat="44.80625" lon="6.73439">
        <ele>2179.93</ele>
        <time>2018-09-15T11:19:22Z</time>
      </trkpt>
      <trkpt lat="44.80633" lon="6.73426">
        <ele>2176.56</ele>
        <time>2018-09-15T11:19:36Z</time>
      </trkpt>
      <trkpt lat="44.80647" lon="6.73421">
        <ele>2172.24</ele>
        <time>2018-09-15T11:19:53Z</time>
      </trkpt>
      <trkpt lat="44.80643" lon="6.73405">
        <ele>2168.39</ele>
        <time>2018-09-15T11:20:08Z</time>
      </trkpt>
      <trkpt lat="44.80631" lon="6.73391">
        <ele>2165.03</ele>
        <time>2018-09-15T11:20:24Z</time>
      </trkpt>
      <trkpt lat="44.80623" lon="6.73379">
        <ele>2162.14</ele>
        <time>2018-09-15T11:20:36Z</time>
      </trkpt>
      <trkpt lat="44.80617" lon="6.73364">
        <ele>2160.22</ele>
        <time>2018-09-15T11:20:51Z</time>
      </trkpt>
      <trkpt lat="44.80627" lon="6.73365">
        <ele>2157.34</ele>
        <time>2018-09-15T11:21:06Z</time>
      </trkpt>
      <trkpt lat="44.80647" lon="6.73357">
        <ele>2153.49</ele>
        <time>2018-09-15T11:21:24Z</time>
      </trkpt>
      <trkpt lat="44.8066" lon="6.73354">
        <ele>2151.09</ele>
        <time>2018-09-15T11:21:36Z</time>
      </trkpt>
      <trkpt lat="44.80669" lon="6.73352">
        <ele>2148.68</ele>
        <time>2018-09-15T11:21:46Z</time>
      </trkpt>
      <trkpt lat="44.80682" lon="6.73357">
        <ele>2143.88</ele>
        <time>2018-09-15T11:22:06Z</time>
      </trkpt>
      <trkpt lat="44.80699" lon="6.73357">
        <ele>2140.03</ele>
        <time>2018-09-15T11:22:23Z</time>
      </trkpt>
      <trkpt lat="44.80717" lon="6.73359">
        <ele>2135.71</ele>
        <time>2018-09-15T11:22:41Z</time>
      </trkpt>
      <trkpt lat="44.80734" lon="6.73358">
        <ele>2131.86</ele>
        <time>2018-09-15T11:22:58Z</time>
      </trkpt>
      <trkpt lat="44.80747" lon="6.73355">
        <ele>2127.53</ele>
        <time>2018-09-15T11:23:13Z</time>
      </trkpt>
      <trkpt lat="44.80761" lon="6.73362">
        <ele>2123.69</ele>
        <time>2018-09-15T11:23:33Z</time>
      </trkpt>
      <trkpt lat="44.80772" lon="6.73356">
        <ele>2122.25</ele>
        <time>2018-09-15T11:23:45Z</time>
      </trkpt>
      <trkpt lat="44.8078" lon="6.73348">
        <ele>2120.32</ele>
        <time>2018-09-15T11:23:57Z</time>
      </trkpt>
      <trkpt lat="44.80793" lon="6.73351">
        <ele>2118.4</ele>
        <time>2018-09-15T11:24:11Z</time>
      </trkpt>
      <trkpt lat="44.80805" lon="6.73351">
        <ele>2115.52</ele>
        <time>2018-09-15T11:24:25Z</time>
      </trkpt>
      <trkpt lat="44.80819" lon="6.73348">
        <ele>2111.67</ele>
        <time>2018-09-15T11:24:41Z</time>
      </trkpt>
      <trkpt lat="44.80833" lon="6.73339">
        <ele>2108.31</ele>
        <time>2018-09-15T11:24:57Z</time>
      </trkpt>
      <trkpt lat="44.80846" lon="6.7334">
        <ele>2103.02</ele>
        <time>2018-09-15T11:25:17Z</time>
      </trkpt>
      <trkpt lat="44.80863" lon="6.73343">
        <ele>2098.7</ele>
        <time>2018-09-15T11:25:36Z</time>
      </trkpt>
      <trkpt lat="44.80863" lon="6.73327">
        <ele>2094.85</ele>
        <time>2018-09-15T11:25:55Z</time>
      </trkpt>
      <trkpt lat="44.80856" lon="6.73311">
        <ele>2093.41</ele>
        <time>2018-09-15T11:26:19Z</time>
      </trkpt>
      <trkpt lat="44.80844" lon="6.73288">
        <ele>2091.97</ele>
        <time>2018-09-15T11:27:52Z</time>
      </trkpt>
      <trkpt lat="44.80829" lon="6.73293">
        <ele>2087.64</ele>
        <time>2018-09-15T11:28:14Z</time>
      </trkpt>
      <trkpt lat="44.80818" lon="6.73282">
        <ele>2083.79</ele>
        <time>2018-09-15T11:28:29Z</time>
      </trkpt>
      <trkpt lat="44.80806" lon="6.73281">
        <ele>2081.87</ele>
        <time>2018-09-15T11:28:49Z</time>
      </trkpt>
      <trkpt lat="44.80792" lon="6.73273">
        <ele>2079.47</ele>
        <time>2018-09-15T11:29:05Z</time>
      </trkpt>
      <trkpt lat="44.8078" lon="6.73265">
        <ele>2078.51</ele>
        <time>2018-09-15T11:29:15Z</time>
      </trkpt>
      <trkpt lat="44.8077" lon="6.73263">
        <ele>2077.55</ele>
        <time>2018-09-15T11:29:26Z</time>
      </trkpt>
      <trkpt lat="44.80761" lon="6.73254">
        <ele>2075.14</ele>
        <time>2018-09-15T11:29:37Z</time>
      </trkpt>
      <trkpt lat="44.80752" lon="6.73243">
        <ele>2073.22</ele>
        <time>2018-09-15T11:29:48Z</time>
      </trkpt>
      <trkpt lat="44.80746" lon="6.73233">
        <ele>2071.78</ele>
        <time>2018-09-15T11:29:57Z</time>
      </trkpt>
      <trkpt lat="44.80737" lon="6.73227">
        <ele>2070.34</ele>
        <time>2018-09-15T11:30:09Z</time>
      </trkpt>
      <trkpt lat="44.80733" lon="6.73214">
        <ele>2067.45</ele>
        <time>2018-09-15T11:30:23Z</time>
      </trkpt>
      <trkpt lat="44.80723" lon="6.73212">
        <ele>2066.97</ele>
        <time>2018-09-15T11:30:43Z</time>
      </trkpt>
      <trkpt lat="44.80715" lon="6.73208">
        <ele>2065.53</ele>
        <time>2018-09-15T11:31:10Z</time>
      </trkpt>
      <trkpt lat="44.80704" lon="6.73203">
        <ele>2065.53</ele>
        <time>2018-09-15T11:31:29Z</time>
      </trkpt>
      <trkpt lat="44.80693" lon="6.73202">
        <ele>2061.68</ele>
        <time>2018-09-15T11:31:45Z</time>
      </trkpt>
      <trkpt lat="44.80682" lon="6.73196">
        <ele>2059.28</ele>
        <time>2018-09-15T11:32:00Z</time>
      </trkpt>
      <trkpt lat="44.80672" lon="6.73197">
        <ele>2057.36</ele>
        <time>2018-09-15T11:32:14Z</time>
      </trkpt>
      <trkpt lat="44.80667" lon="6.73197">
        <ele>2056.4</ele>
        <time>2018-09-15T11:32:36Z</time>
      </trkpt>
      <trkpt lat="44.80655" lon="6.73195">
        <ele>2055.92</ele>
        <time>2018-09-15T11:32:46Z</time>
      </trkpt>
      <trkpt lat="44.80644" lon="6.73187">
        <ele>2054.47</ele>
        <time>2018-09-15T11:32:59Z</time>
      </trkpt>
      <trkpt lat="44.80635" lon="6.73177">
        <ele>2051.11</ele>
        <time>2018-09-15T11:33:11Z</time>
      </trkpt>
      <trkpt lat="44.80627" lon="6.73164">
        <ele>2049.19</ele>
        <time>2018-09-15T11:33:44Z</time>
      </trkpt>
      <trkpt lat="44.80616" lon="6.73165">
        <ele>2048.71</ele>
        <time>2018-09-15T11:33:59Z</time>
      </trkpt>
      <trkpt lat="44.80605" lon="6.73167">
        <ele>2043.42</ele>
        <time>2018-09-15T11:34:12Z</time>
      </trkpt>
      <trkpt lat="44.80594" lon="6.73156">
        <ele>2042.94</ele>
        <time>2018-09-15T11:34:31Z</time>
      </trkpt>
      <trkpt lat="44.80588" lon="6.73147">
        <ele>2041.98</ele>
        <time>2018-09-15T11:34:40Z</time>
      </trkpt>
      <trkpt lat="44.80583" lon="6.73136">
        <ele>2041.02</ele>
        <time>2018-09-15T11:34:48Z</time>
      </trkpt>
      <trkpt lat="44.80577" lon="6.73124">
        <ele>2039.09</ele>
        <time>2018-09-15T11:35:04Z</time>
      </trkpt>
      <trkpt lat="44.80571" lon="6.73119">
        <ele>2038.13</ele>
        <time>2018-09-15T11:35:21Z</time>
      </trkpt>
      <trkpt lat="44.80561" lon="6.73114">
        <ele>2031.88</ele>
        <time>2018-09-15T11:35:35Z</time>
      </trkpt>
      <trkpt lat="44.80551" lon="6.73103">
        <ele>2030.44</ele>
        <time>2018-09-15T11:35:51Z</time>
      </trkpt>
      <trkpt lat="44.80543" lon="6.73091">
        <ele>2029</ele>
        <time>2018-09-15T11:36:01Z</time>
      </trkpt>
      <trkpt lat="44.80538" lon="6.73079">
        <ele>2027.08</ele>
        <time>2018-09-15T11:36:10Z</time>
      </trkpt>
      <trkpt lat="44.80533" lon="6.73067">
        <ele>2025.64</ele>
        <time>2018-09-15T11:36:51Z</time>
      </trkpt>
      <trkpt lat="44.80526" lon="6.73058">
        <ele>2023.71</ele>
        <time>2018-09-15T11:37:03Z</time>
      </trkpt>
      <trkpt lat="44.80518" lon="6.73048">
        <ele>2022.75</ele>
        <time>2018-09-15T11:37:16Z</time>
      </trkpt>
      <trkpt lat="44.80508" lon="6.73039">
        <ele>2021.79</ele>
        <time>2018-09-15T11:37:28Z</time>
      </trkpt>
      <trkpt lat="44.805" lon="6.73028">
        <ele>2020.83</ele>
        <time>2018-09-15T11:37:51Z</time>
      </trkpt>
      <trkpt lat="44.80492" lon="6.73014">
        <ele>2020.35</ele>
        <time>2018-09-15T11:38:01Z</time>
      </trkpt>
      <trkpt lat="44.80486" lon="6.73001">
        <ele>2019.87</ele>
        <time>2018-09-15T11:38:10Z</time>
      </trkpt>
      <trkpt lat="44.80481" lon="6.72985">
        <ele>2018.43</ele>
        <time>2018-09-15T11:38:21Z</time>
      </trkpt>
      <trkpt lat="44.80475" lon="6.72969">
        <ele>2016.02</ele>
        <time>2018-09-15T11:38:32Z</time>
      </trkpt>
      <trkpt lat="44.8047" lon="6.72957">
        <ele>2016.02</ele>
        <time>2018-09-15T11:38:42Z</time>
      </trkpt>
      <trkpt lat="44.80462" lon="6.72949">
        <ele>2013.14</ele>
        <time>2018-09-15T11:38:56Z</time>
      </trkpt>
      <trkpt lat="44.80455" lon="6.72952">
        <ele>2011.22</ele>
        <time>2018-09-15T11:39:06Z</time>
      </trkpt>
      <trkpt lat="44.80445" lon="6.72947">
        <ele>2008.33</ele>
        <time>2018-09-15T11:39:18Z</time>
      </trkpt>
      <trkpt lat="44.80435" lon="6.72939">
        <ele>2005.93</ele>
        <time>2018-09-15T11:39:29Z</time>
      </trkpt>
      <trkpt lat="44.80429" lon="6.72926">
        <ele>2003.52</ele>
        <time>2018-09-15T11:39:41Z</time>
      </trkpt>
      <trkpt lat="44.80433" lon="6.7291">
        <ele>2001.6</ele>
        <time>2018-09-15T11:39:57Z</time>
      </trkpt>
      <trkpt lat="44.80426" lon="6.72896">
        <ele>2002.08</ele>
        <time>2018-09-15T11:40:12Z</time>
      </trkpt>
      <trkpt lat="44.80417" lon="6.72895">
        <ele>1999.2</ele>
        <time>2018-09-15T11:40:26Z</time>
      </trkpt>
      <trkpt lat="44.80407" lon="6.7289">
        <ele>1998.24</ele>
        <time>2018-09-15T11:40:36Z</time>
      </trkpt>
      <trkpt lat="44.804" lon="6.72879">
        <ele>1997.28</ele>
        <time>2018-09-15T11:40:46Z</time>
      </trkpt>
      <trkpt lat="44.80393" lon="6.72871">
        <ele>1995.35</ele>
        <time>2018-09-15T11:40:56Z</time>
      </trkpt>
      <trkpt lat="44.80385" lon="6.72862">
        <ele>1993.43</ele>
        <time>2018-09-15T11:41:06Z</time>
      </trkpt>
      <trkpt lat="44.80374" lon="6.7286">
        <ele>1991.51</ele>
        <time>2018-09-15T11:41:17Z</time>
      </trkpt>
      <trkpt lat="44.80364" lon="6.72856">
        <ele>1988.14</ele>
        <time>2018-09-15T11:41:27Z</time>
      </trkpt>
      <trkpt lat="44.80354" lon="6.72849">
        <ele>1987.18</ele>
        <time>2018-09-15T11:41:40Z</time>
      </trkpt>
      <trkpt lat="44.80342" lon="6.72848">
        <ele>1985.74</ele>
        <time>2018-09-15T11:41:52Z</time>
      </trkpt>
      <trkpt lat="44.80328" lon="6.72851">
        <ele>1983.82</ele>
        <time>2018-09-15T11:42:15Z</time>
      </trkpt>
      <trkpt lat="44.80316" lon="6.72846">
        <ele>1983.82</ele>
        <time>2018-09-15T11:42:27Z</time>
      </trkpt>
      <trkpt lat="44.80305" lon="6.72837">
        <ele>1980.93</ele>
        <time>2018-09-15T11:42:40Z</time>
      </trkpt>
      <trkpt lat="44.80292" lon="6.72838">
        <ele>1978.53</ele>
        <time>2018-09-15T11:42:53Z</time>
      </trkpt>
      <trkpt lat="44.8028" lon="6.72836">
        <ele>1974.69</ele>
        <time>2018-09-15T11:43:08Z</time>
      </trkpt>
      <trkpt lat="44.80267" lon="6.72832">
        <ele>1971.32</ele>
        <time>2018-09-15T11:43:21Z</time>
      </trkpt>
      <trkpt lat="44.80258" lon="6.7283">
        <ele>1969.4</ele>
        <time>2018-09-15T11:43:38Z</time>
      </trkpt>
      <trkpt lat="44.80245" lon="6.72837">
        <ele>1966.03</ele>
        <time>2018-09-15T11:43:50Z</time>
      </trkpt>
      <trkpt lat="44.8023" lon="6.72846">
        <ele>1964.59</ele>
        <time>2018-09-15T11:44:09Z</time>
      </trkpt>
      <trkpt lat="44.80213" lon="6.72835">
        <ele>1963.63</ele>
        <time>2018-09-15T11:44:27Z</time>
      </trkpt>
      <trkpt lat="44.802" lon="6.72834">
        <ele>1960.75</ele>
        <time>2018-09-15T11:44:41Z</time>
      </trkpt>
      <trkpt lat="44.80184" lon="6.7283">
        <ele>1956.42</ele>
        <time>2018-09-15T11:44:59Z</time>
      </trkpt>
      <trkpt lat="44.8017" lon="6.72823">
        <ele>1953.54</ele>
        <time>2018-09-15T11:45:15Z</time>
      </trkpt>
      <trkpt lat="44.80157" lon="6.72815">
        <ele>1950.65</ele>
        <time>2018-09-15T11:45:30Z</time>
      </trkpt>
      <trkpt lat="44.80149" lon="6.72804">
        <ele>1947.77</ele>
        <time>2018-09-15T11:45:43Z</time>
      </trkpt>
      <trkpt lat="44.8014" lon="6.72795">
        <ele>1945.36</ele>
        <time>2018-09-15T11:45:56Z</time>
      </trkpt>
      <trkpt lat="44.80128" lon="6.72791">
        <ele>1941.52</ele>
        <time>2018-09-15T11:46:15Z</time>
      </trkpt>
      <trkpt lat="44.80121" lon="6.72778">
        <ele>1939.12</ele>
        <time>2018-09-15T11:46:28Z</time>
      </trkpt>
      <trkpt lat="44.80115" lon="6.72767">
        <ele>1937.19</ele>
        <time>2018-09-15T11:46:39Z</time>
      </trkpt>
      <trkpt lat="44.80102" lon="6.72763">
        <ele>1933.35</ele>
        <time>2018-09-15T11:46:54Z</time>
      </trkpt>
      <trkpt lat="44.80093" lon="6.72763">
        <ele>1931.91</ele>
        <time>2018-09-15T11:47:07Z</time>
      </trkpt>
      <trkpt lat="44.80077" lon="6.72774">
        <ele>1927.1</ele>
        <time>2018-09-15T11:47:38Z</time>
      </trkpt>
      <trkpt lat="44.80059" lon="6.72775">
        <ele>1926.14</ele>
        <time>2018-09-15T11:48:00Z</time>
      </trkpt>
      <trkpt lat="44.80038" lon="6.72779">
        <ele>1921.81</ele>
        <time>2018-09-15T11:48:30Z</time>
      </trkpt>
      <trkpt lat="44.80013" lon="6.72776">
        <ele>1916.04</ele>
        <time>2018-09-15T11:48:55Z</time>
      </trkpt>
      <trkpt lat="44.79995" lon="6.7277">
        <ele>1910.76</ele>
        <time>2018-09-15T11:49:12Z</time>
      </trkpt>
      <trkpt lat="44.79992" lon="6.72761">
        <ele>1907.87</ele>
        <time>2018-09-15T11:49:25Z</time>
      </trkpt>
      <trkpt lat="44.79976" lon="6.72757">
        <ele>1904.51</ele>
        <time>2018-09-15T11:49:39Z</time>
      </trkpt>
      <trkpt lat="44.79961" lon="6.72753">
        <ele>1902.11</ele>
        <time>2018-09-15T11:49:51Z</time>
      </trkpt>
      <trkpt lat="44.79949" lon="6.7275">
        <ele>1901.14</ele>
        <time>2018-09-15T11:50:00Z</time>
      </trkpt>
      <trkpt lat="44.79938" lon="6.72747">
        <ele>1901.14</ele>
        <time>2018-09-15T11:50:09Z</time>
      </trkpt>
      <trkpt lat="44.79928" lon="6.72743">
        <ele>1898.74</ele>
        <time>2018-09-15T11:50:21Z</time>
      </trkpt>
      <trkpt lat="44.79916" lon="6.7274">
        <ele>1895.86</ele>
        <time>2018-09-15T11:50:34Z</time>
      </trkpt>
      <trkpt lat="44.79902" lon="6.72736">
        <ele>1893.45</ele>
        <time>2018-09-15T11:50:47Z</time>
      </trkpt>
      <trkpt lat="44.79886" lon="6.72735">
        <ele>1889.61</ele>
        <time>2018-09-15T11:51:05Z</time>
      </trkpt>
      <trkpt lat="44.79867" lon="6.72727">
        <ele>1887.69</ele>
        <time>2018-09-15T11:51:21Z</time>
      </trkpt>
      <trkpt lat="44.79853" lon="6.72726">
        <ele>1885.28</ele>
        <time>2018-09-15T11:51:36Z</time>
      </trkpt>
      <trkpt lat="44.79835" lon="6.72728">
        <ele>1880.48</ele>
        <time>2018-09-15T11:52:04Z</time>
      </trkpt>
      <trkpt lat="44.79805" lon="6.72717">
        <ele>1876.63</ele>
        <time>2018-09-15T11:52:27Z</time>
      </trkpt>
      <trkpt lat="44.79789" lon="6.72718">
        <ele>1872.79</ele>
        <time>2018-09-15T11:52:44Z</time>
      </trkpt>
      <trkpt lat="44.79776" lon="6.7272">
        <ele>1871.34</ele>
        <time>2018-09-15T11:52:56Z</time>
      </trkpt>
      <trkpt lat="44.79763" lon="6.72723">
        <ele>1868.94</ele>
        <time>2018-09-15T11:53:10Z</time>
      </trkpt>
      <trkpt lat="44.79749" lon="6.7273">
        <ele>1866.54</ele>
        <time>2018-09-15T11:53:28Z</time>
      </trkpt>
      <trkpt lat="44.79734" lon="6.72733">
        <ele>1863.65</ele>
        <time>2018-09-15T11:53:47Z</time>
      </trkpt>
      <trkpt lat="44.79719" lon="6.72734">
        <ele>1862.69</ele>
        <time>2018-09-15T11:53:57Z</time>
      </trkpt>
      <trkpt lat="44.79706" lon="6.72734">
        <ele>1861.25</ele>
        <time>2018-09-15T11:54:08Z</time>
      </trkpt>
      <trkpt lat="44.797" lon="6.72735">
        <ele>1858.85</ele>
        <time>2018-09-15T11:54:27Z</time>
      </trkpt>
      <trkpt lat="44.79689" lon="6.72736">
        <ele>1856.92</ele>
        <time>2018-09-15T11:54:38Z</time>
      </trkpt>
      <trkpt lat="44.79679" lon="6.72744">
        <ele>1856.44</ele>
        <time>2018-09-15T11:54:49Z</time>
      </trkpt>
      <trkpt lat="44.79671" lon="6.7275">
        <ele>1855</ele>
        <time>2018-09-15T11:55:09Z</time>
      </trkpt>
      <trkpt lat="44.7966" lon="6.72761">
        <ele>1853.56</ele>
        <time>2018-09-15T11:55:25Z</time>
      </trkpt>
      <trkpt lat="44.7965" lon="6.72772">
        <ele>1851.64</ele>
        <time>2018-09-15T11:55:38Z</time>
      </trkpt>
      <trkpt lat="44.79643" lon="6.72783">
        <ele>1849.23</ele>
        <time>2018-09-15T11:55:47Z</time>
      </trkpt>
      <trkpt lat="44.79636" lon="6.72793">
        <ele>1848.75</ele>
        <time>2018-09-15T11:55:58Z</time>
      </trkpt>
      <trkpt lat="44.7963" lon="6.72803">
        <ele>1847.31</ele>
        <time>2018-09-15T11:56:07Z</time>
      </trkpt>
      <trkpt lat="44.79622" lon="6.72811">
        <ele>1846.35</ele>
        <time>2018-09-15T11:56:16Z</time>
      </trkpt>
      <trkpt lat="44.79615" lon="6.72821">
        <ele>1844.43</ele>
        <time>2018-09-15T11:56:25Z</time>
      </trkpt>
      <trkpt lat="44.79612" lon="6.72831">
        <ele>1843.47</ele>
        <time>2018-09-15T11:56:34Z</time>
      </trkpt>
      <trkpt lat="44.79603" lon="6.72826">
        <ele>1842.5</ele>
        <time>2018-09-15T11:56:43Z</time>
      </trkpt>
      <trkpt lat="44.796" lon="6.72817">
        <ele>1842.98</ele>
        <time>2018-09-15T11:56:49Z</time>
      </trkpt>
      <trkpt lat="44.79597" lon="6.72806">
        <ele>1842.02</ele>
        <time>2018-09-15T11:56:56Z</time>
      </trkpt>
      <trkpt lat="44.79592" lon="6.72798">
        <ele>1842.02</ele>
        <time>2018-09-15T11:57:05Z</time>
      </trkpt>
      <trkpt lat="44.79583" lon="6.72798">
        <ele>1840.1</ele>
        <time>2018-09-15T11:57:12Z</time>
      </trkpt>
      <trkpt lat="44.79574" lon="6.72801">
        <ele>1839.62</ele>
        <time>2018-09-15T11:57:21Z</time>
      </trkpt>
      <trkpt lat="44.79565" lon="6.72807">
        <ele>1837.7</ele>
        <time>2018-09-15T11:57:30Z</time>
      </trkpt>
      <trkpt lat="44.79557" lon="6.72813">
        <ele>1838.18</ele>
        <time>2018-09-15T11:57:39Z</time>
      </trkpt>
      <trkpt lat="44.79548" lon="6.72819">
        <ele>1834.81</ele>
        <time>2018-09-15T11:57:48Z</time>
      </trkpt>
      <trkpt lat="44.79539" lon="6.72823">
        <ele>1834.33</ele>
        <time>2018-09-15T11:57:57Z</time>
      </trkpt>
      <trkpt lat="44.7953" lon="6.72828">
        <ele>1832.89</ele>
        <time>2018-09-15T11:58:05Z</time>
      </trkpt>
      <trkpt lat="44.79521" lon="6.72833">
        <ele>1832.41</ele>
        <time>2018-09-15T11:58:14Z</time>
      </trkpt>
      <trkpt lat="44.79514" lon="6.72832">
        <ele>1830.01</ele>
        <time>2018-09-15T11:58:23Z</time>
      </trkpt>
      <trkpt lat="44.79506" lon="6.72835">
        <ele>1829.05</ele>
        <time>2018-09-15T11:58:31Z</time>
      </trkpt>
      <trkpt lat="44.79497" lon="6.7284">
        <ele>1830.01</ele>
        <time>2018-09-15T11:58:36Z</time>
      </trkpt>
      <trkpt lat="44.79489" lon="6.72846">
        <ele>1827.12</ele>
        <time>2018-09-15T11:58:45Z</time>
      </trkpt>
      <trkpt lat="44.79481" lon="6.72849">
        <ele>1826.16</ele>
        <time>2018-09-15T11:58:54Z</time>
      </trkpt>
      <trkpt lat="44.79472" lon="6.72853">
        <ele>1825.68</ele>
        <time>2018-09-15T11:58:59Z</time>
      </trkpt>
      <trkpt lat="44.79464" lon="6.7286">
        <ele>1824.24</ele>
        <time>2018-09-15T11:59:08Z</time>
      </trkpt>
      <trkpt lat="44.79455" lon="6.72862">
        <ele>1822.8</ele>
        <time>2018-09-15T11:59:18Z</time>
      </trkpt>
      <trkpt lat="44.79446" lon="6.72869">
        <ele>1821.84</ele>
        <time>2018-09-15T11:59:28Z</time>
      </trkpt>
      <trkpt lat="44.79439" lon="6.72874">
        <ele>1820.39</ele>
        <time>2018-09-15T11:59:35Z</time>
      </trkpt>
      <trkpt lat="44.79432" lon="6.72878">
        <ele>1818.95</ele>
        <time>2018-09-15T11:59:43Z</time>
      </trkpt>
      <trkpt lat="44.79425" lon="6.72883">
        <ele>1818.47</ele>
        <time>2018-09-15T11:59:50Z</time>
      </trkpt>
      <trkpt lat="44.79417" lon="6.72892">
        <ele>1818.47</ele>
        <time>2018-09-15T11:59:59Z</time>
      </trkpt>
      <trkpt lat="44.79408" lon="6.72897">
        <ele>1817.51</ele>
        <time>2018-09-15T12:00:08Z</time>
      </trkpt>
      <trkpt lat="44.79398" lon="6.72902">
        <ele>1815.11</ele>
        <time>2018-09-15T12:00:18Z</time>
      </trkpt>
      <trkpt lat="44.7939" lon="6.72909">
        <ele>1813.66</ele>
        <time>2018-09-15T12:00:27Z</time>
      </trkpt>
      <trkpt lat="44.79382" lon="6.72914">
        <ele>1813.18</ele>
        <time>2018-09-15T12:00:34Z</time>
      </trkpt>
      <trkpt lat="44.79373" lon="6.7292">
        <ele>1811.74</ele>
        <time>2018-09-15T12:00:43Z</time>
      </trkpt>
      <trkpt lat="44.79364" lon="6.72924">
        <ele>1810.78</ele>
        <time>2018-09-15T12:00:51Z</time>
      </trkpt>
      <trkpt lat="44.79356" lon="6.72929">
        <ele>1807.9</ele>
        <time>2018-09-15T12:01:00Z</time>
      </trkpt>
      <trkpt lat="44.79346" lon="6.7293">
        <ele>1807.9</ele>
        <time>2018-09-15T12:01:10Z</time>
      </trkpt>
      <trkpt lat="44.79337" lon="6.72933">
        <ele>1805.97</ele>
        <time>2018-09-15T12:01:16Z</time>
      </trkpt>
      <trkpt lat="44.79327" lon="6.72938">
        <ele>1805.01</ele>
        <time>2018-09-15T12:01:26Z</time>
      </trkpt>
      <trkpt lat="44.79318" lon="6.72946">
        <ele>1804.05</ele>
        <time>2018-09-15T12:01:35Z</time>
      </trkpt>
      <trkpt lat="44.79311" lon="6.72957">
        <ele>1802.61</ele>
        <time>2018-09-15T12:01:44Z</time>
      </trkpt>
      <trkpt lat="44.79305" lon="6.72968">
        <ele>1801.17</ele>
        <time>2018-09-15T12:01:52Z</time>
      </trkpt>
      <trkpt lat="44.79298" lon="6.72979">
        <ele>1800.69</ele>
        <time>2018-09-15T12:02:01Z</time>
      </trkpt>
      <trkpt lat="44.79289" lon="6.72986">
        <ele>1799.24</ele>
        <time>2018-09-15T12:02:10Z</time>
      </trkpt>
      <trkpt lat="44.79281" lon="6.72988">
        <ele>1798.28</ele>
        <time>2018-09-15T12:02:19Z</time>
      </trkpt>
      <trkpt lat="44.79274" lon="6.72979">
        <ele>1797.8</ele>
        <time>2018-09-15T12:02:28Z</time>
      </trkpt>
      <trkpt lat="44.79267" lon="6.72973">
        <ele>1796.84</ele>
        <time>2018-09-15T12:02:36Z</time>
      </trkpt>
      <trkpt lat="44.79264" lon="6.72966">
        <ele>1795.88</ele>
        <time>2018-09-15T12:02:48Z</time>
      </trkpt>
      <trkpt lat="44.79253" lon="6.72965">
        <ele>1794.92</ele>
        <time>2018-09-15T12:02:58Z</time>
      </trkpt>
      <trkpt lat="44.79246" lon="6.7298">
        <ele>1793.96</ele>
        <time>2018-09-15T12:03:08Z</time>
      </trkpt>
      <trkpt lat="44.79238" lon="6.72985">
        <ele>1793</ele>
        <time>2018-09-15T12:03:19Z</time>
      </trkpt>
      <trkpt lat="44.7924" lon="6.73001">
        <ele>1792.03</ele>
        <time>2018-09-15T12:03:29Z</time>
      </trkpt>
      <trkpt lat="44.79243" lon="6.73012">
        <ele>1792.03</ele>
        <time>2018-09-15T12:03:38Z</time>
      </trkpt>
      <trkpt lat="44.79243" lon="6.73024">
        <ele>1792.03</ele>
        <time>2018-09-15T12:03:47Z</time>
      </trkpt>
      <trkpt lat="44.79244" lon="6.73037">
        <ele>1791.55</ele>
        <time>2018-09-15T12:03:55Z</time>
      </trkpt>
      <trkpt lat="44.79244" lon="6.7305">
        <ele>1791.55</ele>
        <time>2018-09-15T12:04:03Z</time>
      </trkpt>
      <trkpt lat="44.79241" lon="6.7306">
        <ele>1790.59</ele>
        <time>2018-09-15T12:04:14Z</time>
      </trkpt>
      <trkpt lat="44.79234" lon="6.7307">
        <ele>1790.59</ele>
        <time>2018-09-15T12:04:23Z</time>
      </trkpt>
      <trkpt lat="44.79228" lon="6.73076">
        <ele>1788.67</ele>
        <time>2018-09-15T12:04:31Z</time>
      </trkpt>
      <trkpt lat="44.79224" lon="6.73083">
        <ele>1789.15</ele>
        <time>2018-09-15T12:04:58Z</time>
      </trkpt>
      <trkpt lat="44.79222" lon="6.73086">
        <ele>1787.71</ele>
        <time>2018-09-15T12:05:59Z</time>
      </trkpt>
      <trkpt lat="44.79216" lon="6.73094">
        <ele>1787.71</ele>
        <time>2018-09-15T12:06:07Z</time>
      </trkpt>
      <trkpt lat="44.79213" lon="6.73106">
        <ele>1786.75</ele>
        <time>2018-09-15T12:06:16Z</time>
      </trkpt>
      <trkpt lat="44.7921" lon="6.73116">
        <ele>1786.27</ele>
        <time>2018-09-15T12:06:26Z</time>
      </trkpt>
      <trkpt lat="44.79206" lon="6.73127">
        <ele>1784.82</ele>
        <time>2018-09-15T12:07:03Z</time>
      </trkpt>
      <trkpt lat="44.79202" lon="6.73139">
        <ele>1783.38</ele>
        <time>2018-09-15T12:07:11Z</time>
      </trkpt>
      <trkpt lat="44.79195" lon="6.73148">
        <ele>1783.38</ele>
        <time>2018-09-15T12:07:20Z</time>
      </trkpt>
      <trkpt lat="44.79189" lon="6.73157">
        <ele>1782.42</ele>
        <time>2018-09-15T12:07:28Z</time>
      </trkpt>
      <trkpt lat="44.79184" lon="6.73167">
        <ele>1781.46</ele>
        <time>2018-09-15T12:07:36Z</time>
      </trkpt>
      <trkpt lat="44.79182" lon="6.7318">
        <ele>1781.46</ele>
        <time>2018-09-15T12:07:44Z</time>
      </trkpt>
      <trkpt lat="44.79178" lon="6.73175">
        <ele>1780.98</ele>
        <time>2018-09-15T12:07:58Z</time>
      </trkpt>
      <trkpt lat="44.7917" lon="6.73174">
        <ele>1780.02</ele>
        <time>2018-09-15T12:08:02Z</time>
      </trkpt>
      <trkpt lat="44.79162" lon="6.73176">
        <ele>1778.1</ele>
        <time>2018-09-15T12:08:11Z</time>
      </trkpt>
      <trkpt lat="44.79155" lon="6.73178">
        <ele>1778.1</ele>
        <time>2018-09-15T12:08:17Z</time>
      </trkpt>
      <trkpt lat="44.79146" lon="6.73182">
        <ele>1776.65</ele>
        <time>2018-09-15T12:08:25Z</time>
      </trkpt>
      <trkpt lat="44.79135" lon="6.73181">
        <ele>1775.69</ele>
        <time>2018-09-15T12:08:34Z</time>
      </trkpt>
      <trkpt lat="44.79129" lon="6.73182">
        <ele>1774.73</ele>
        <time>2018-09-15T12:08:41Z</time>
      </trkpt>
      <trkpt lat="44.79122" lon="6.73178">
        <ele>1773.29</ele>
        <time>2018-09-15T12:09:03Z</time>
      </trkpt>
      <trkpt lat="44.79113" lon="6.73184">
        <ele>1772.33</ele>
        <time>2018-09-15T12:09:12Z</time>
      </trkpt>
      <trkpt lat="44.79104" lon="6.73187">
        <ele>1771.37</ele>
        <time>2018-09-15T12:09:20Z</time>
      </trkpt>
      <trkpt lat="44.79095" lon="6.73189">
        <ele>1770.89</ele>
        <time>2018-09-15T12:09:27Z</time>
      </trkpt>
      <trkpt lat="44.79086" lon="6.73193">
        <ele>1770.89</ele>
        <time>2018-09-15T12:09:36Z</time>
      </trkpt>
      <trkpt lat="44.79077" lon="6.73195">
        <ele>1769.44</ele>
        <time>2018-09-15T12:09:44Z</time>
      </trkpt>
      <trkpt lat="44.79067" lon="6.73198">
        <ele>1769.44</ele>
        <time>2018-09-15T12:09:52Z</time>
      </trkpt>
      <trkpt lat="44.7906" lon="6.73199">
        <ele>1768</ele>
        <time>2018-09-15T12:10:01Z</time>
      </trkpt>
      <trkpt lat="44.79051" lon="6.73198">
        <ele>1767.52</ele>
        <time>2018-09-15T12:10:11Z</time>
      </trkpt>
      <trkpt lat="44.79041" lon="6.73206">
        <ele>1766.08</ele>
        <time>2018-09-15T12:10:50Z</time>
      </trkpt>
      <trkpt lat="44.79032" lon="6.73211">
        <ele>1765.12</ele>
        <time>2018-09-15T12:11:01Z</time>
      </trkpt>
      <trkpt lat="44.79022" lon="6.73216">
        <ele>1764.64</ele>
        <time>2018-09-15T12:11:12Z</time>
      </trkpt>
      <trkpt lat="44.79013" lon="6.73227">
        <ele>1764.16</ele>
        <time>2018-09-15T12:11:22Z</time>
      </trkpt>
      <trkpt lat="44.79007" lon="6.73237">
        <ele>1764.16</ele>
        <time>2018-09-15T12:11:32Z</time>
      </trkpt>
      <trkpt lat="44.78999" lon="6.73243">
        <ele>1763.68</ele>
        <time>2018-09-15T12:11:43Z</time>
      </trkpt>
      <trkpt lat="44.78989" lon="6.73248">
        <ele>1762.23</ele>
        <time>2018-09-15T12:11:56Z</time>
      </trkpt>
      <trkpt lat="44.7898" lon="6.73254">
        <ele>1761.75</ele>
        <time>2018-09-15T12:12:07Z</time>
      </trkpt>
      <trkpt lat="44.78972" lon="6.73258">
        <ele>1761.75</ele>
        <time>2018-09-15T12:12:16Z</time>
      </trkpt>
      <trkpt lat="44.78964" lon="6.73264">
        <ele>1760.79</ele>
        <time>2018-09-15T12:12:25Z</time>
      </trkpt>
      <trkpt lat="44.78956" lon="6.7327">
        <ele>1759.83</ele>
        <time>2018-09-15T12:12:34Z</time>
      </trkpt>
      <trkpt lat="44.78947" lon="6.73277">
        <ele>1761.27</ele>
        <time>2018-09-15T12:12:43Z</time>
      </trkpt>
      <trkpt lat="44.78936" lon="6.73283">
        <ele>1758.87</ele>
        <time>2018-09-15T12:12:53Z</time>
      </trkpt>
      <trkpt lat="44.78928" lon="6.73288">
        <ele>1758.39</ele>
        <time>2018-09-15T12:13:01Z</time>
      </trkpt>
      <trkpt lat="44.78918" lon="6.73291">
        <ele>1757.43</ele>
        <time>2018-09-15T12:13:09Z</time>
      </trkpt>
      <trkpt lat="44.78909" lon="6.73293">
        <ele>1756.47</ele>
        <time>2018-09-15T12:13:17Z</time>
      </trkpt>
      <trkpt lat="44.78899" lon="6.73295">
        <ele>1756.95</ele>
        <time>2018-09-15T12:13:25Z</time>
      </trkpt>
      <trkpt lat="44.7889" lon="6.73296">
        <ele>1756.95</ele>
        <time>2018-09-15T12:13:33Z</time>
      </trkpt>
      <trkpt lat="44.78882" lon="6.73301">
        <ele>1755.99</ele>
        <time>2018-09-15T12:13:41Z</time>
      </trkpt>
      <trkpt lat="44.78873" lon="6.73306">
        <ele>1755.5</ele>
        <time>2018-09-15T12:13:49Z</time>
      </trkpt>
      <trkpt lat="44.78864" lon="6.73307">
        <ele>1755.02</ele>
        <time>2018-09-15T12:13:57Z</time>
      </trkpt>
      <trkpt lat="44.78854" lon="6.73307">
        <ele>1754.54</ele>
        <time>2018-09-15T12:14:06Z</time>
      </trkpt>
      <trkpt lat="44.78844" lon="6.73308">
        <ele>1753.58</ele>
        <time>2018-09-15T12:14:15Z</time>
      </trkpt>
      <trkpt lat="44.78834" lon="6.7331">
        <ele>1752.62</ele>
        <time>2018-09-15T12:14:24Z</time>
      </trkpt>
      <trkpt lat="44.78825" lon="6.73311">
        <ele>1752.14</ele>
        <time>2018-09-15T12:14:32Z</time>
      </trkpt>
      <trkpt lat="44.78815" lon="6.73311">
        <ele>1752.14</ele>
        <time>2018-09-15T12:14:40Z</time>
      </trkpt>
      <trkpt lat="44.78805" lon="6.73313">
        <ele>1751.66</ele>
        <time>2018-09-15T12:14:49Z</time>
      </trkpt>
      <trkpt lat="44.78796" lon="6.73315">
        <ele>1750.7</ele>
        <time>2018-09-15T12:14:57Z</time>
      </trkpt>
      <trkpt lat="44.78787" lon="6.73316">
        <ele>1750.22</ele>
        <time>2018-09-15T12:15:05Z</time>
      </trkpt>
      <trkpt lat="44.78777" lon="6.73317">
        <ele>1749.26</ele>
        <time>2018-09-15T12:15:14Z</time>
      </trkpt>
      <trkpt lat="44.78768" lon="6.73317">
        <ele>1747.81</ele>
        <time>2018-09-15T12:15:23Z</time>
      </trkpt>
      <trkpt lat="44.78758" lon="6.73317">
        <ele>1748.29</ele>
        <time>2018-09-15T12:15:32Z</time>
      </trkpt>
      <trkpt lat="44.78748" lon="6.73317">
        <ele>1747.81</ele>
        <time>2018-09-15T12:15:40Z</time>
      </trkpt>
      <trkpt lat="44.78738" lon="6.73317">
        <ele>1747.33</ele>
        <time>2018-09-15T12:15:49Z</time>
      </trkpt>
      <trkpt lat="44.78728" lon="6.73316">
        <ele>1745.89</ele>
        <time>2018-09-15T12:15:58Z</time>
      </trkpt>
      <trkpt lat="44.78718" lon="6.73313">
        <ele>1744.93</ele>
        <time>2018-09-15T12:16:06Z</time>
      </trkpt>
      <trkpt lat="44.78709" lon="6.73312">
        <ele>1744.45</ele>
        <time>2018-09-15T12:16:15Z</time>
      </trkpt>
      <trkpt lat="44.78699" lon="6.73312">
        <ele>1743.49</ele>
        <time>2018-09-15T12:16:24Z</time>
      </trkpt>
      <trkpt lat="44.7869" lon="6.73311">
        <ele>1743.49</ele>
        <time>2018-09-15T12:16:32Z</time>
      </trkpt>
      <trkpt lat="44.78681" lon="6.73311">
        <ele>1742.05</ele>
        <time>2018-09-15T12:16:40Z</time>
      </trkpt>
      <trkpt lat="44.78671" lon="6.73313">
        <ele>1741.57</ele>
        <time>2018-09-15T12:16:48Z</time>
      </trkpt>
      <trkpt lat="44.78661" lon="6.73314">
        <ele>1740.6</ele>
        <time>2018-09-15T12:16:57Z</time>
      </trkpt>
      <trkpt lat="44.78652" lon="6.73315">
        <ele>1740.12</ele>
        <time>2018-09-15T12:17:06Z</time>
      </trkpt>
      <trkpt lat="44.78643" lon="6.73317">
        <ele>1739.16</ele>
        <time>2018-09-15T12:17:15Z</time>
      </trkpt>
      <trkpt lat="44.78633" lon="6.73319">
        <ele>1738.68</ele>
        <time>2018-09-15T12:17:23Z</time>
      </trkpt>
      <trkpt lat="44.78624" lon="6.73323">
        <ele>1737.24</ele>
        <time>2018-09-15T12:17:31Z</time>
      </trkpt>
      <trkpt lat="44.78614" lon="6.73326">
        <ele>1736.28</ele>
        <time>2018-09-15T12:17:40Z</time>
      </trkpt>
      <trkpt lat="44.78605" lon="6.7333">
        <ele>1736.28</ele>
        <time>2018-09-15T12:17:48Z</time>
      </trkpt>
      <trkpt lat="44.78596" lon="6.73336">
        <ele>1735.32</ele>
        <time>2018-09-15T12:17:57Z</time>
      </trkpt>
      <trkpt lat="44.78588" lon="6.73342">
        <ele>1733.88</ele>
        <time>2018-09-15T12:18:06Z</time>
      </trkpt>
      <trkpt lat="44.78578" lon="6.73347">
        <ele>1733.88</ele>
        <time>2018-09-15T12:18:15Z</time>
      </trkpt>
      <trkpt lat="44.78569" lon="6.73353">
        <ele>1732.91</ele>
        <time>2018-09-15T12:18:24Z</time>
      </trkpt>
      <trkpt lat="44.78561" lon="6.73359">
        <ele>1731.95</ele>
        <time>2018-09-15T12:18:32Z</time>
      </trkpt>
      <trkpt lat="44.78552" lon="6.73364">
        <ele>1731.47</ele>
        <time>2018-09-15T12:18:40Z</time>
      </trkpt>
      <trkpt lat="44.78543" lon="6.73369">
        <ele>1730.99</ele>
        <time>2018-09-15T12:18:48Z</time>
      </trkpt>
      <trkpt lat="44.78534" lon="6.73375">
        <ele>1729.55</ele>
        <time>2018-09-15T12:18:57Z</time>
      </trkpt>
      <trkpt lat="44.78524" lon="6.73381">
        <ele>1728.59</ele>
        <time>2018-09-15T12:19:06Z</time>
      </trkpt>
      <trkpt lat="44.78514" lon="6.73386">
        <ele>1727.63</ele>
        <time>2018-09-15T12:19:15Z</time>
      </trkpt>
      <trkpt lat="44.78505" lon="6.73391">
        <ele>1726.67</ele>
        <time>2018-09-15T12:19:24Z</time>
      </trkpt>
      <trkpt lat="44.78495" lon="6.73396">
        <ele>1725.22</ele>
        <time>2018-09-15T12:19:32Z</time>
      </trkpt>
      <trkpt lat="44.78486" lon="6.734">
        <ele>1724.74</ele>
        <time>2018-09-15T12:19:41Z</time>
      </trkpt>
      <trkpt lat="44.78477" lon="6.73407">
        <ele>1723.78</ele>
        <time>2018-09-15T12:19:50Z</time>
      </trkpt>
      <trkpt lat="44.78469" lon="6.73413">
        <ele>1723.3</ele>
        <time>2018-09-15T12:19:59Z</time>
      </trkpt>
      <trkpt lat="44.7846" lon="6.73418">
        <ele>1721.86</ele>
        <time>2018-09-15T12:20:08Z</time>
      </trkpt>
      <trkpt lat="44.78451" lon="6.73424">
        <ele>1720.9</ele>
        <time>2018-09-15T12:20:17Z</time>
      </trkpt>
      <trkpt lat="44.78443" lon="6.7343">
        <ele>1719.94</ele>
        <time>2018-09-15T12:20:25Z</time>
      </trkpt>
      <trkpt lat="44.78434" lon="6.73435">
        <ele>1718.97</ele>
        <time>2018-09-15T12:20:33Z</time>
      </trkpt>
      <trkpt lat="44.78425" lon="6.73441">
        <ele>1718.01</ele>
        <time>2018-09-15T12:20:41Z</time>
      </trkpt>
      <trkpt lat="44.78417" lon="6.73447">
        <ele>1716.57</ele>
        <time>2018-09-15T12:20:49Z</time>
      </trkpt>
      <trkpt lat="44.78408" lon="6.73453">
        <ele>1716.09</ele>
        <time>2018-09-15T12:20:57Z</time>
      </trkpt>
      <trkpt lat="44.78399" lon="6.7346">
        <ele>1715.13</ele>
        <time>2018-09-15T12:21:05Z</time>
      </trkpt>
      <trkpt lat="44.78389" lon="6.73465">
        <ele>1713.21</ele>
        <time>2018-09-15T12:21:14Z</time>
      </trkpt>
      <trkpt lat="44.78378" lon="6.73471">
        <ele>1713.69</ele>
        <time>2018-09-15T12:21:24Z</time>
      </trkpt>
      <trkpt lat="44.78367" lon="6.73476">
        <ele>1711.76</ele>
        <time>2018-09-15T12:21:33Z</time>
      </trkpt>
      <trkpt lat="44.78359" lon="6.73481">
        <ele>1711.28</ele>
        <time>2018-09-15T12:21:42Z</time>
      </trkpt>
      <trkpt lat="44.78349" lon="6.73482">
        <ele>1710.8</ele>
        <time>2018-09-15T12:21:51Z</time>
      </trkpt>
      <trkpt lat="44.78337" lon="6.73484">
        <ele>1709.84</ele>
        <time>2018-09-15T12:22:00Z</time>
      </trkpt>
      <trkpt lat="44.78327" lon="6.73488">
        <ele>1708.88</ele>
        <time>2018-09-15T12:22:09Z</time>
      </trkpt>
      <trkpt lat="44.78316" lon="6.73491">
        <ele>1707.92</ele>
        <time>2018-09-15T12:22:18Z</time>
      </trkpt>
      <trkpt lat="44.78306" lon="6.73493">
        <ele>1707.44</ele>
        <time>2018-09-15T12:22:27Z</time>
      </trkpt>
      <trkpt lat="44.78297" lon="6.73496">
        <ele>1707.92</ele>
        <time>2018-09-15T12:22:35Z</time>
      </trkpt>
      <trkpt lat="44.78287" lon="6.73497">
        <ele>1707.92</ele>
        <time>2018-09-15T12:22:44Z</time>
      </trkpt>
      <trkpt lat="44.78278" lon="6.73498">
        <ele>1707.44</ele>
        <time>2018-09-15T12:22:53Z</time>
      </trkpt>
      <trkpt lat="44.78267" lon="6.735">
        <ele>1706.96</ele>
        <time>2018-09-15T12:23:02Z</time>
      </trkpt>
      <trkpt lat="44.78257" lon="6.73499">
        <ele>1706.48</ele>
        <time>2018-09-15T12:23:11Z</time>
      </trkpt>
      <trkpt lat="44.78248" lon="6.73501">
        <ele>1706.48</ele>
        <time>2018-09-15T12:23:20Z</time>
      </trkpt>
      <trkpt lat="44.78238" lon="6.73501">
        <ele>1706</ele>
        <time>2018-09-15T12:23:29Z</time>
      </trkpt>
      <trkpt lat="44.78228" lon="6.73503">
        <ele>1706.48</ele>
        <time>2018-09-15T12:23:38Z</time>
      </trkpt>
      <trkpt lat="44.78218" lon="6.73502">
        <ele>1706.48</ele>
        <time>2018-09-15T12:23:47Z</time>
      </trkpt>
      <trkpt lat="44.78207" lon="6.735">
        <ele>1706.48</ele>
        <time>2018-09-15T12:23:56Z</time>
      </trkpt>
      <trkpt lat="44.78198" lon="6.73498">
        <ele>1705.52</ele>
        <time>2018-09-15T12:24:05Z</time>
      </trkpt>
      <trkpt lat="44.78188" lon="6.73499">
        <ele>1704.55</ele>
        <time>2018-09-15T12:24:14Z</time>
      </trkpt>
      <trkpt lat="44.78178" lon="6.73499">
        <ele>1704.07</ele>
        <time>2018-09-15T12:24:22Z</time>
      </trkpt>
      <trkpt lat="44.78169" lon="6.73498">
        <ele>1703.59</ele>
        <time>2018-09-15T12:24:31Z</time>
      </trkpt>
      <trkpt lat="44.78159" lon="6.73498">
        <ele>1704.55</ele>
        <time>2018-09-15T12:24:41Z</time>
      </trkpt>
      <trkpt lat="44.78149" lon="6.73502">
        <ele>1703.11</ele>
        <time>2018-09-15T12:24:51Z</time>
      </trkpt>
      <trkpt lat="44.7814" lon="6.73509">
        <ele>1703.11</ele>
        <time>2018-09-15T12:25:01Z</time>
      </trkpt>
      <trkpt lat="44.78131" lon="6.73507">
        <ele>1702.15</ele>
        <time>2018-09-15T12:25:10Z</time>
      </trkpt>
      <trkpt lat="44.78122" lon="6.73512">
        <ele>1701.67</ele>
        <time>2018-09-15T12:25:20Z</time>
      </trkpt>
      <trkpt lat="44.78114" lon="6.73518">
        <ele>1701.19</ele>
        <time>2018-09-15T12:25:28Z</time>
      </trkpt>
      <trkpt lat="44.78109" lon="6.73516">
        <ele>1691.1</ele>
        <time>2018-09-15T12:33:59Z</time>
      </trkpt>
      <trkpt lat="44.78107" lon="6.73508">
        <ele>1689.65</ele>
        <time>2018-09-15T12:34:10Z</time>
      </trkpt>
      <trkpt lat="44.78106" lon="6.735">
        <ele>1690.14</ele>
        <time>2018-09-15T12:34:18Z</time>
      </trkpt>
      <trkpt lat="44.78106" lon="6.73491">
        <ele>1689.65</ele>
        <time>2018-09-15T12:34:26Z</time>
      </trkpt>
      <trkpt lat="44.78106" lon="6.73484">
        <ele>1690.14</ele>
        <time>2018-09-15T12:34:32Z</time>
      </trkpt>
      <trkpt lat="44.78105" lon="6.73479">
        <ele>1690.14</ele>
        <time>2018-09-15T12:34:40Z</time>
      </trkpt>
      <trkpt lat="44.78101" lon="6.73466">
        <ele>1692.06</ele>
        <time>2018-09-15T12:34:49Z</time>
      </trkpt>
      <trkpt lat="44.78097" lon="6.73457">
        <ele>1692.06</ele>
        <time>2018-09-15T12:34:56Z</time>
      </trkpt>
      <trkpt lat="44.78093" lon="6.73446">
        <ele>1690.62</ele>
        <time>2018-09-15T12:35:04Z</time>
      </trkpt>
      <trkpt lat="44.78086" lon="6.73437">
        <ele>1689.17</ele>
        <time>2018-09-15T12:35:12Z</time>
      </trkpt>
      <trkpt lat="44.78077" lon="6.73431">
        <ele>1688.69</ele>
        <time>2018-09-15T12:35:21Z</time>
      </trkpt>
      <trkpt lat="44.7807" lon="6.73424">
        <ele>1671.91015625</ele>
      </trkpt>
      <trkpt lat="44.78058" lon="6.73415">
        <ele>1671.86328125</ele>
      </trkpt>
      <trkpt lat="44.78046" lon="6.73408">
        <ele>1671.76171875</ele>
      </trkpt>
      <trkpt lat="44.7804" lon="6.73412">
        <ele>1670.56640625</ele>
      </trkpt>
      <trkpt lat="44.78037" lon="6.73423">
        <ele>1668.69140625</ele>
      </trkpt>
      <trkpt lat="44.78037" lon="6.7343">
        <ele>1669.16015625</ele>
      </trkpt>
    </trkseg>
  </trk>
</gpx>